<?xml version="1.0" encoding="UTF-8" standalone="no" ?>
<gpx xmlns="http://www.topografix.com/GPX/1/1" xmlns:xsi="http://www.w3.org/2001/XMLSchema-instance" xsi:schemaLocation="http://www.topografix.com/GPX/1/1 http://www.topografix.com/GPX/1/1/gpx.xsd" version="1.1" creator="VisuGPX - https://www.visugpx.com">
  <metadata>
    <name>2011-01-20 planfoy</name>
    <desc><![CDATA[2011-01-20 planfoy]]></desc>
  </metadata>
  <trk>
    <name><![CDATA[2011-01-20-01]]></name>
    <trkseg>
      <trkpt lat="45.37435" lon="4.44922">
        <ele>1023</ele>
        <time>2011-01-20T07:57:48Z</time>
      </trkpt>
      <trkpt lat="45.37429" lon="4.44914">
        <ele>1022</ele>
        <time>2011-01-20T08:02:51Z</time>
      </trkpt>
      <trkpt lat="45.37429" lon="4.44913">
        <ele>1022</ele>
        <time>2011-01-20T08:02:52Z</time>
      </trkpt>
      <trkpt lat="45.37416" lon="4.449">
        <ele>1021</ele>
        <time>2011-01-20T08:03:08Z</time>
      </trkpt>
      <trkpt lat="45.37407" lon="4.44899">
        <ele>1021</ele>
        <time>2011-01-20T08:03:16Z</time>
      </trkpt>
      <trkpt lat="45.37399" lon="4.44898">
        <ele>1021</ele>
        <time>2011-01-20T08:03:23Z</time>
      </trkpt>
      <trkpt lat="45.3739" lon="4.449">
        <ele>1021</ele>
        <time>2011-01-20T08:03:30Z</time>
      </trkpt>
      <trkpt lat="45.37381" lon="4.44902">
        <ele>1021</ele>
        <time>2011-01-20T08:03:37Z</time>
      </trkpt>
      <trkpt lat="45.37372" lon="4.44904">
        <ele>1021</ele>
        <time>2011-01-20T08:03:44Z</time>
      </trkpt>
      <trkpt lat="45.37364" lon="4.44906">
        <ele>1022</ele>
        <time>2011-01-20T08:03:51Z</time>
      </trkpt>
      <trkpt lat="45.37356" lon="4.44909">
        <ele>1022</ele>
        <time>2011-01-20T08:03:58Z</time>
      </trkpt>
      <trkpt lat="45.37354" lon="4.44909">
        <ele>1022</ele>
        <time>2011-01-20T08:03:59Z</time>
      </trkpt>
      <trkpt lat="45.37338" lon="4.44914">
        <ele>1023</ele>
        <time>2011-01-20T08:04:12Z</time>
      </trkpt>
      <trkpt lat="45.3733" lon="4.44916">
        <ele>1024</ele>
        <time>2011-01-20T08:04:19Z</time>
      </trkpt>
      <trkpt lat="45.37321" lon="4.44917">
        <ele>1025</ele>
        <time>2011-01-20T08:04:27Z</time>
      </trkpt>
      <trkpt lat="45.37313" lon="4.44922">
        <ele>1026</ele>
        <time>2011-01-20T08:04:35Z</time>
      </trkpt>
      <trkpt lat="45.37305" lon="4.44928">
        <ele>1027</ele>
        <time>2011-01-20T08:04:43Z</time>
      </trkpt>
      <trkpt lat="45.37298" lon="4.44934">
        <ele>1027</ele>
        <time>2011-01-20T08:04:50Z</time>
      </trkpt>
      <trkpt lat="45.37293" lon="4.44941">
        <ele>1027</ele>
        <time>2011-01-20T08:04:56Z</time>
      </trkpt>
      <trkpt lat="45.37285" lon="4.44948">
        <ele>1028</ele>
        <time>2011-01-20T08:05:03Z</time>
      </trkpt>
      <trkpt lat="45.37285" lon="4.44949">
        <ele>1028</ele>
        <time>2011-01-20T08:05:04Z</time>
      </trkpt>
      <trkpt lat="45.37272" lon="4.44961">
        <ele>1029</ele>
        <time>2011-01-20T08:05:18Z</time>
      </trkpt>
      <trkpt lat="45.37265" lon="4.44967">
        <ele>1029</ele>
        <time>2011-01-20T08:05:25Z</time>
      </trkpt>
      <trkpt lat="45.3726" lon="4.44975">
        <ele>1030</ele>
        <time>2011-01-20T08:05:42Z</time>
      </trkpt>
      <trkpt lat="45.37252" lon="4.44982">
        <ele>1031</ele>
        <time>2011-01-20T08:05:49Z</time>
      </trkpt>
      <trkpt lat="45.37244" lon="4.44987">
        <ele>1032</ele>
        <time>2011-01-20T08:05:56Z</time>
      </trkpt>
      <trkpt lat="45.37237" lon="4.44992">
        <ele>1032</ele>
        <time>2011-01-20T08:06:02Z</time>
      </trkpt>
      <trkpt lat="45.37229" lon="4.44998">
        <ele>1031</ele>
        <time>2011-01-20T08:06:09Z</time>
      </trkpt>
      <trkpt lat="45.37228" lon="4.44999">
        <ele>1031</ele>
        <time>2011-01-20T08:06:10Z</time>
      </trkpt>
      <trkpt lat="45.37215" lon="4.45011">
        <ele>1037</ele>
        <time>2011-01-20T08:06:22Z</time>
      </trkpt>
      <trkpt lat="45.37208" lon="4.45017">
        <ele>1037</ele>
        <time>2011-01-20T08:06:30Z</time>
      </trkpt>
      <trkpt lat="45.37201" lon="4.45024">
        <ele>1037</ele>
        <time>2011-01-20T08:06:38Z</time>
      </trkpt>
      <trkpt lat="45.37194" lon="4.45031">
        <ele>1037</ele>
        <time>2011-01-20T08:06:45Z</time>
      </trkpt>
      <trkpt lat="45.37186" lon="4.45035">
        <ele>1037</ele>
        <time>2011-01-20T08:06:52Z</time>
      </trkpt>
      <trkpt lat="45.37178" lon="4.4504">
        <ele>1038</ele>
        <time>2011-01-20T08:07:00Z</time>
      </trkpt>
      <trkpt lat="45.37171" lon="4.45044">
        <ele>1038</ele>
        <time>2011-01-20T08:07:06Z</time>
      </trkpt>
      <trkpt lat="45.37163" lon="4.45048">
        <ele>1037</ele>
        <time>2011-01-20T08:07:12Z</time>
      </trkpt>
      <trkpt lat="45.37162" lon="4.45049">
        <ele>1037</ele>
        <time>2011-01-20T08:07:13Z</time>
      </trkpt>
      <trkpt lat="45.3715" lon="4.45063">
        <ele>1039</ele>
        <time>2011-01-20T08:07:26Z</time>
      </trkpt>
      <trkpt lat="45.37146" lon="4.45073">
        <ele>1039</ele>
        <time>2011-01-20T08:07:43Z</time>
      </trkpt>
      <trkpt lat="45.37138" lon="4.45079">
        <ele>1039</ele>
        <time>2011-01-20T08:07:52Z</time>
      </trkpt>
      <trkpt lat="45.37131" lon="4.45086">
        <ele>1045</ele>
        <time>2011-01-20T08:07:58Z</time>
      </trkpt>
      <trkpt lat="45.37124" lon="4.45092">
        <ele>1044</ele>
        <time>2011-01-20T08:08:03Z</time>
      </trkpt>
      <trkpt lat="45.37116" lon="4.45097">
        <ele>1044</ele>
        <time>2011-01-20T08:08:10Z</time>
      </trkpt>
      <trkpt lat="45.3711" lon="4.45103">
        <ele>1044</ele>
        <time>2011-01-20T08:08:15Z</time>
      </trkpt>
      <trkpt lat="45.37109" lon="4.45104">
        <ele>1044</ele>
        <time>2011-01-20T08:08:16Z</time>
      </trkpt>
      <trkpt lat="45.37099" lon="4.45115">
        <ele>1045</ele>
        <time>2011-01-20T08:08:28Z</time>
      </trkpt>
      <trkpt lat="45.37094" lon="4.45125">
        <ele>1045</ele>
        <time>2011-01-20T08:08:32Z</time>
      </trkpt>
      <trkpt lat="45.37086" lon="4.45132">
        <ele>1045</ele>
        <time>2011-01-20T08:08:43Z</time>
      </trkpt>
      <trkpt lat="45.37078" lon="4.45135">
        <ele>1043</ele>
        <time>2011-01-20T08:08:52Z</time>
      </trkpt>
      <trkpt lat="45.3707" lon="4.45139">
        <ele>1043</ele>
        <time>2011-01-20T08:09:01Z</time>
      </trkpt>
      <trkpt lat="45.37063" lon="4.45144">
        <ele>1043</ele>
        <time>2011-01-20T08:09:09Z</time>
      </trkpt>
      <trkpt lat="45.37056" lon="4.4515">
        <ele>1043</ele>
        <time>2011-01-20T08:09:16Z</time>
      </trkpt>
      <trkpt lat="45.37055" lon="4.4515">
        <ele>1043</ele>
        <time>2011-01-20T08:09:17Z</time>
      </trkpt>
      <trkpt lat="45.3704" lon="4.45156">
        <ele>1043</ele>
        <time>2011-01-20T08:09:29Z</time>
      </trkpt>
      <trkpt lat="45.37033" lon="4.45161">
        <ele>1042</ele>
        <time>2011-01-20T08:09:36Z</time>
      </trkpt>
      <trkpt lat="45.37025" lon="4.45167">
        <ele>1046</ele>
        <time>2011-01-20T08:09:44Z</time>
      </trkpt>
      <trkpt lat="45.37017" lon="4.45173">
        <ele>1046</ele>
        <time>2011-01-20T08:09:51Z</time>
      </trkpt>
      <trkpt lat="45.37009" lon="4.45176">
        <ele>1045</ele>
        <time>2011-01-20T08:09:58Z</time>
      </trkpt>
      <trkpt lat="45.37001" lon="4.4518">
        <ele>1045</ele>
        <time>2011-01-20T08:10:05Z</time>
      </trkpt>
      <trkpt lat="45.36994" lon="4.45185">
        <ele>1042</ele>
        <time>2011-01-20T08:10:11Z</time>
      </trkpt>
      <trkpt lat="45.36987" lon="4.4519">
        <ele>1042</ele>
        <time>2011-01-20T08:10:18Z</time>
      </trkpt>
      <trkpt lat="45.36985" lon="4.4519">
        <ele>1042</ele>
        <time>2011-01-20T08:10:19Z</time>
      </trkpt>
      <trkpt lat="45.36971" lon="4.45198">
        <ele>1042</ele>
        <time>2011-01-20T08:10:30Z</time>
      </trkpt>
      <trkpt lat="45.36963" lon="4.45204">
        <ele>1042</ele>
        <time>2011-01-20T08:10:37Z</time>
      </trkpt>
      <trkpt lat="45.36957" lon="4.45209">
        <ele>1042</ele>
        <time>2011-01-20T08:10:44Z</time>
      </trkpt>
      <trkpt lat="45.36949" lon="4.45215">
        <ele>1042</ele>
        <time>2011-01-20T08:10:51Z</time>
      </trkpt>
      <trkpt lat="45.36943" lon="4.45222">
        <ele>1042</ele>
        <time>2011-01-20T08:10:58Z</time>
      </trkpt>
      <trkpt lat="45.36935" lon="4.45227">
        <ele>1042</ele>
        <time>2011-01-20T08:11:07Z</time>
      </trkpt>
      <trkpt lat="45.36928" lon="4.45233">
        <ele>1042</ele>
        <time>2011-01-20T08:11:17Z</time>
      </trkpt>
      <trkpt lat="45.36921" lon="4.45241">
        <ele>1042</ele>
        <time>2011-01-20T08:11:23Z</time>
      </trkpt>
      <trkpt lat="45.3692" lon="4.45242">
        <ele>1042</ele>
        <time>2011-01-20T08:11:24Z</time>
      </trkpt>
      <trkpt lat="45.36907" lon="4.45252">
        <ele>1041</ele>
        <time>2011-01-20T08:11:36Z</time>
      </trkpt>
      <trkpt lat="45.36901" lon="4.45258">
        <ele>1041</ele>
        <time>2011-01-20T08:11:43Z</time>
      </trkpt>
      <trkpt lat="45.36896" lon="4.45268">
        <ele>1040</ele>
        <time>2011-01-20T08:11:49Z</time>
      </trkpt>
      <trkpt lat="45.3689" lon="4.45275">
        <ele>1040</ele>
        <time>2011-01-20T08:11:56Z</time>
      </trkpt>
      <trkpt lat="45.36883" lon="4.45281">
        <ele>1040</ele>
        <time>2011-01-20T08:12:00Z</time>
      </trkpt>
      <trkpt lat="45.36877" lon="4.45288">
        <ele>1039</ele>
        <time>2011-01-20T08:12:06Z</time>
      </trkpt>
      <trkpt lat="45.36871" lon="4.45296">
        <ele>1039</ele>
        <time>2011-01-20T08:12:11Z</time>
      </trkpt>
      <trkpt lat="45.36864" lon="4.45304">
        <ele>1039</ele>
        <time>2011-01-20T08:12:18Z</time>
      </trkpt>
      <trkpt lat="45.36857" lon="4.4531">
        <ele>1039</ele>
        <time>2011-01-20T08:12:24Z</time>
      </trkpt>
      <trkpt lat="45.36855" lon="4.45311">
        <ele>1039</ele>
        <time>2011-01-20T08:12:25Z</time>
      </trkpt>
      <trkpt lat="45.36842" lon="4.45323">
        <ele>1038</ele>
        <time>2011-01-20T08:12:38Z</time>
      </trkpt>
      <trkpt lat="45.36835" lon="4.45328">
        <ele>1037</ele>
        <time>2011-01-20T08:12:44Z</time>
      </trkpt>
      <trkpt lat="45.36827" lon="4.45333">
        <ele>1035</ele>
        <time>2011-01-20T08:12:52Z</time>
      </trkpt>
      <trkpt lat="45.3682" lon="4.4534">
        <ele>1036</ele>
        <time>2011-01-20T08:12:59Z</time>
      </trkpt>
      <trkpt lat="45.36813" lon="4.45346">
        <ele>1035</ele>
        <time>2011-01-20T08:13:06Z</time>
      </trkpt>
      <trkpt lat="45.36805" lon="4.45352">
        <ele>1035</ele>
        <time>2011-01-20T08:13:13Z</time>
      </trkpt>
      <trkpt lat="45.36798" lon="4.45358">
        <ele>1035</ele>
        <time>2011-01-20T08:13:20Z</time>
      </trkpt>
      <trkpt lat="45.3679" lon="4.45361">
        <ele>1034</ele>
        <time>2011-01-20T08:13:27Z</time>
      </trkpt>
      <trkpt lat="45.36789" lon="4.45361">
        <ele>1034</ele>
        <time>2011-01-20T08:13:28Z</time>
      </trkpt>
      <trkpt lat="45.36773" lon="4.45361">
        <ele>1033</ele>
        <time>2011-01-20T08:13:42Z</time>
      </trkpt>
      <trkpt lat="45.36764" lon="4.45361">
        <ele>1033</ele>
        <time>2011-01-20T08:13:49Z</time>
      </trkpt>
      <trkpt lat="45.36757" lon="4.45355">
        <ele>1032</ele>
        <time>2011-01-20T08:13:57Z</time>
      </trkpt>
      <trkpt lat="45.36751" lon="4.45345">
        <ele>1031</ele>
        <time>2011-01-20T08:14:21Z</time>
      </trkpt>
      <trkpt lat="45.36744" lon="4.4534">
        <ele>1029</ele>
        <time>2011-01-20T08:14:56Z</time>
      </trkpt>
      <trkpt lat="45.36743" lon="4.45341">
        <ele>1029</ele>
        <time>2011-01-20T08:14:57Z</time>
      </trkpt>
      <trkpt lat="45.36728" lon="4.45347">
        <ele>1029</ele>
        <time>2011-01-20T08:15:11Z</time>
      </trkpt>
      <trkpt lat="45.36719" lon="4.4535">
        <ele>1029</ele>
        <time>2011-01-20T08:15:18Z</time>
      </trkpt>
      <trkpt lat="45.36711" lon="4.45353">
        <ele>1029</ele>
        <time>2011-01-20T08:15:26Z</time>
      </trkpt>
      <trkpt lat="45.36703" lon="4.45355">
        <ele>1029</ele>
        <time>2011-01-20T08:15:33Z</time>
      </trkpt>
      <trkpt lat="45.36694" lon="4.45356">
        <ele>1029</ele>
        <time>2011-01-20T08:15:40Z</time>
      </trkpt>
      <trkpt lat="45.36685" lon="4.45356">
        <ele>1029</ele>
        <time>2011-01-20T08:15:48Z</time>
      </trkpt>
      <trkpt lat="45.36677" lon="4.45357">
        <ele>1029</ele>
        <time>2011-01-20T08:15:56Z</time>
      </trkpt>
      <trkpt lat="45.36668" lon="4.45356">
        <ele>1029</ele>
        <time>2011-01-20T08:16:04Z</time>
      </trkpt>
      <trkpt lat="45.36667" lon="4.45356">
        <ele>1029</ele>
        <time>2011-01-20T08:16:05Z</time>
      </trkpt>
      <trkpt lat="45.36652" lon="4.45357">
        <ele>1030</ele>
        <time>2011-01-20T08:16:18Z</time>
      </trkpt>
      <trkpt lat="45.36644" lon="4.45357">
        <ele>1030</ele>
        <time>2011-01-20T08:16:26Z</time>
      </trkpt>
      <trkpt lat="45.36635" lon="4.45356">
        <ele>1030</ele>
        <time>2011-01-20T08:16:34Z</time>
      </trkpt>
      <trkpt lat="45.36627" lon="4.45354">
        <ele>1030</ele>
        <time>2011-01-20T08:16:40Z</time>
      </trkpt>
      <trkpt lat="45.36619" lon="4.45353">
        <ele>1031</ele>
        <time>2011-01-20T08:16:47Z</time>
      </trkpt>
      <trkpt lat="45.36611" lon="4.45354">
        <ele>1031</ele>
        <time>2011-01-20T08:16:54Z</time>
      </trkpt>
      <trkpt lat="45.36603" lon="4.45354">
        <ele>1031</ele>
        <time>2011-01-20T08:17:01Z</time>
      </trkpt>
      <trkpt lat="45.36595" lon="4.45354">
        <ele>1031</ele>
        <time>2011-01-20T08:17:08Z</time>
      </trkpt>
      <trkpt lat="45.36594" lon="4.45354">
        <ele>1031</ele>
        <time>2011-01-20T08:17:09Z</time>
      </trkpt>
      <trkpt lat="45.36578" lon="4.45353">
        <ele>1033</ele>
        <time>2011-01-20T08:17:23Z</time>
      </trkpt>
      <trkpt lat="45.3657" lon="4.45352">
        <ele>1033</ele>
        <time>2011-01-20T08:17:30Z</time>
      </trkpt>
      <trkpt lat="45.36561" lon="4.45351">
        <ele>1032</ele>
        <time>2011-01-20T08:17:37Z</time>
      </trkpt>
      <trkpt lat="45.36553" lon="4.4535">
        <ele>1032</ele>
        <time>2011-01-20T08:17:44Z</time>
      </trkpt>
      <trkpt lat="45.36545" lon="4.45349">
        <ele>1032</ele>
        <time>2011-01-20T08:17:51Z</time>
      </trkpt>
      <trkpt lat="45.36537" lon="4.45348">
        <ele>1032</ele>
        <time>2011-01-20T08:17:58Z</time>
      </trkpt>
      <trkpt lat="45.36528" lon="4.45346">
        <ele>1033</ele>
        <time>2011-01-20T08:18:05Z</time>
      </trkpt>
      <trkpt lat="45.3652" lon="4.45345">
        <ele>1033</ele>
        <time>2011-01-20T08:18:12Z</time>
      </trkpt>
      <trkpt lat="45.36518" lon="4.45345">
        <ele>1033</ele>
        <time>2011-01-20T08:18:13Z</time>
      </trkpt>
      <trkpt lat="45.36503" lon="4.45344">
        <ele>1033</ele>
        <time>2011-01-20T08:18:26Z</time>
      </trkpt>
      <trkpt lat="45.36494" lon="4.45343">
        <ele>1034</ele>
        <time>2011-01-20T08:18:33Z</time>
      </trkpt>
      <trkpt lat="45.36486" lon="4.45341">
        <ele>1034</ele>
        <time>2011-01-20T08:18:40Z</time>
      </trkpt>
      <trkpt lat="45.36477" lon="4.45339">
        <ele>1035</ele>
        <time>2011-01-20T08:18:47Z</time>
      </trkpt>
      <trkpt lat="45.36469" lon="4.45338">
        <ele>1035</ele>
        <time>2011-01-20T08:18:54Z</time>
      </trkpt>
      <trkpt lat="45.3646" lon="4.45336">
        <ele>1036</ele>
        <time>2011-01-20T08:19:01Z</time>
      </trkpt>
      <trkpt lat="45.36452" lon="4.45336">
        <ele>1036</ele>
        <time>2011-01-20T08:19:08Z</time>
      </trkpt>
      <trkpt lat="45.36444" lon="4.45335">
        <ele>1037</ele>
        <time>2011-01-20T08:19:15Z</time>
      </trkpt>
      <trkpt lat="45.36443" lon="4.45335">
        <ele>1037</ele>
        <time>2011-01-20T08:19:16Z</time>
      </trkpt>
      <trkpt lat="45.36428" lon="4.45334">
        <ele>1038</ele>
        <time>2011-01-20T08:19:29Z</time>
      </trkpt>
      <trkpt lat="45.36419" lon="4.45333">
        <ele>1039</ele>
        <time>2011-01-20T08:19:36Z</time>
      </trkpt>
      <trkpt lat="45.36411" lon="4.45334">
        <ele>1040</ele>
        <time>2011-01-20T08:19:43Z</time>
      </trkpt>
      <trkpt lat="45.36403" lon="4.45336">
        <ele>1040</ele>
        <time>2011-01-20T08:19:50Z</time>
      </trkpt>
      <trkpt lat="45.36395" lon="4.45337">
        <ele>1041</ele>
        <time>2011-01-20T08:19:57Z</time>
      </trkpt>
      <trkpt lat="45.36387" lon="4.4534">
        <ele>1041</ele>
        <time>2011-01-20T08:20:10Z</time>
      </trkpt>
      <trkpt lat="45.36379" lon="4.45339">
        <ele>1042</ele>
        <time>2011-01-20T08:20:15Z</time>
      </trkpt>
      <trkpt lat="45.36371" lon="4.4534">
        <ele>1042</ele>
        <time>2011-01-20T08:20:21Z</time>
      </trkpt>
      <trkpt lat="45.36369" lon="4.4534">
        <ele>1042</ele>
        <time>2011-01-20T08:20:22Z</time>
      </trkpt>
      <trkpt lat="45.36355" lon="4.45346">
        <ele>1043</ele>
        <time>2011-01-20T08:20:34Z</time>
      </trkpt>
      <trkpt lat="45.36346" lon="4.45346">
        <ele>1043</ele>
        <time>2011-01-20T08:20:42Z</time>
      </trkpt>
      <trkpt lat="45.3634" lon="4.45337">
        <ele>1044</ele>
        <time>2011-01-20T08:20:51Z</time>
      </trkpt>
      <trkpt lat="45.36337" lon="4.45326">
        <ele>1043</ele>
        <time>2011-01-20T08:21:01Z</time>
      </trkpt>
      <trkpt lat="45.36336" lon="4.45314">
        <ele>1042</ele>
        <time>2011-01-20T08:21:20Z</time>
      </trkpt>
      <trkpt lat="45.36334" lon="4.45303">
        <ele>1041</ele>
        <time>2011-01-20T08:21:28Z</time>
      </trkpt>
      <trkpt lat="45.36334" lon="4.45301">
        <ele>1041</ele>
        <time>2011-01-20T08:21:29Z</time>
      </trkpt>
      <trkpt lat="45.36329" lon="4.45278">
        <ele>1045</ele>
        <time>2011-01-20T08:21:43Z</time>
      </trkpt>
      <trkpt lat="45.36326" lon="4.45268">
        <ele>1044</ele>
        <time>2011-01-20T08:21:50Z</time>
      </trkpt>
      <trkpt lat="45.36323" lon="4.45257">
        <ele>1042</ele>
        <time>2011-01-20T08:21:58Z</time>
      </trkpt>
      <trkpt lat="45.36321" lon="4.45246">
        <ele>1042</ele>
        <time>2011-01-20T08:22:06Z</time>
      </trkpt>
      <trkpt lat="45.36318" lon="4.45235">
        <ele>1042</ele>
        <time>2011-01-20T08:22:13Z</time>
      </trkpt>
      <trkpt lat="45.36315" lon="4.45224">
        <ele>1043</ele>
        <time>2011-01-20T08:22:21Z</time>
      </trkpt>
      <trkpt lat="45.36313" lon="4.45213">
        <ele>1044</ele>
        <time>2011-01-20T08:22:29Z</time>
      </trkpt>
      <trkpt lat="45.36312" lon="4.45212">
        <ele>1044</ele>
        <time>2011-01-20T08:22:30Z</time>
      </trkpt>
      <trkpt lat="45.3631" lon="4.45189">
        <ele>1044</ele>
        <time>2011-01-20T08:22:47Z</time>
      </trkpt>
      <trkpt lat="45.36307" lon="4.45178">
        <ele>1044</ele>
        <time>2011-01-20T08:22:57Z</time>
      </trkpt>
      <trkpt lat="45.36303" lon="4.45167">
        <ele>1044</ele>
        <time>2011-01-20T08:23:05Z</time>
      </trkpt>
      <trkpt lat="45.36298" lon="4.45157">
        <ele>1044</ele>
        <time>2011-01-20T08:23:13Z</time>
      </trkpt>
      <trkpt lat="45.36294" lon="4.45147">
        <ele>1044</ele>
        <time>2011-01-20T08:23:22Z</time>
      </trkpt>
      <trkpt lat="45.36288" lon="4.45138">
        <ele>1045</ele>
        <time>2011-01-20T08:23:31Z</time>
      </trkpt>
      <trkpt lat="45.36287" lon="4.45137">
        <ele>1045</ele>
        <time>2011-01-20T08:23:32Z</time>
      </trkpt>
      <trkpt lat="45.36277" lon="4.4512">
        <ele>1045</ele>
        <time>2011-01-20T08:23:48Z</time>
      </trkpt>
      <trkpt lat="45.36272" lon="4.45111">
        <ele>1046</ele>
        <time>2011-01-20T08:23:55Z</time>
      </trkpt>
      <trkpt lat="45.36266" lon="4.45102">
        <ele>1046</ele>
        <time>2011-01-20T08:24:02Z</time>
      </trkpt>
      <trkpt lat="45.36261" lon="4.45092">
        <ele>1047</ele>
        <time>2011-01-20T08:24:15Z</time>
      </trkpt>
      <trkpt lat="45.36256" lon="4.45083">
        <ele>1048</ele>
        <time>2011-01-20T08:24:31Z</time>
      </trkpt>
      <trkpt lat="45.3625" lon="4.45075">
        <ele>1049</ele>
        <time>2011-01-20T08:24:37Z</time>
      </trkpt>
      <trkpt lat="45.36249" lon="4.45074">
        <ele>1049</ele>
        <time>2011-01-20T08:24:38Z</time>
      </trkpt>
      <trkpt lat="45.36237" lon="4.4506">
        <ele>1049</ele>
        <time>2011-01-20T08:24:50Z</time>
      </trkpt>
      <trkpt lat="45.36231" lon="4.45053">
        <ele>1049</ele>
        <time>2011-01-20T08:24:57Z</time>
      </trkpt>
      <trkpt lat="45.36224" lon="4.45045">
        <ele>1049</ele>
        <time>2011-01-20T08:25:04Z</time>
      </trkpt>
      <trkpt lat="45.36218" lon="4.45039">
        <ele>1049</ele>
        <time>2011-01-20T08:25:10Z</time>
      </trkpt>
      <trkpt lat="45.36211" lon="4.45031">
        <ele>1049</ele>
        <time>2011-01-20T08:25:16Z</time>
      </trkpt>
      <trkpt lat="45.36204" lon="4.45024">
        <ele>1050</ele>
        <time>2011-01-20T08:25:23Z</time>
      </trkpt>
      <trkpt lat="45.36197" lon="4.45017">
        <ele>1050</ele>
        <time>2011-01-20T08:25:30Z</time>
      </trkpt>
      <trkpt lat="45.3619" lon="4.4501">
        <ele>1050</ele>
        <time>2011-01-20T08:25:36Z</time>
      </trkpt>
      <trkpt lat="45.36184" lon="4.45004">
        <ele>1050</ele>
        <time>2011-01-20T08:25:42Z</time>
      </trkpt>
      <trkpt lat="45.36183" lon="4.45002">
        <ele>1050</ele>
        <time>2011-01-20T08:25:43Z</time>
      </trkpt>
      <trkpt lat="45.3617" lon="4.44991">
        <ele>1048</ele>
        <time>2011-01-20T08:25:54Z</time>
      </trkpt>
      <trkpt lat="45.36162" lon="4.44985">
        <ele>1048</ele>
        <time>2011-01-20T08:26:01Z</time>
      </trkpt>
      <trkpt lat="45.36155" lon="4.44979">
        <ele>1048</ele>
        <time>2011-01-20T08:26:07Z</time>
      </trkpt>
      <trkpt lat="45.36148" lon="4.44974">
        <ele>1047</ele>
        <time>2011-01-20T08:26:13Z</time>
      </trkpt>
      <trkpt lat="45.3614" lon="4.44969">
        <ele>1047</ele>
        <time>2011-01-20T08:26:20Z</time>
      </trkpt>
      <trkpt lat="45.36132" lon="4.44964">
        <ele>1047</ele>
        <time>2011-01-20T08:26:27Z</time>
      </trkpt>
      <trkpt lat="45.36124" lon="4.44959">
        <ele>1047</ele>
        <time>2011-01-20T08:26:34Z</time>
      </trkpt>
      <trkpt lat="45.36115" lon="4.44955">
        <ele>1047</ele>
        <time>2011-01-20T08:26:41Z</time>
      </trkpt>
      <trkpt lat="45.36107" lon="4.44952">
        <ele>1047</ele>
        <time>2011-01-20T08:26:48Z</time>
      </trkpt>
      <trkpt lat="45.36106" lon="4.44951">
        <ele>1047</ele>
        <time>2011-01-20T08:26:49Z</time>
      </trkpt>
      <trkpt lat="45.36091" lon="4.44945">
        <ele>1047</ele>
        <time>2011-01-20T08:27:04Z</time>
      </trkpt>
      <trkpt lat="45.36084" lon="4.44943">
        <ele>1047</ele>
        <time>2011-01-20T08:27:11Z</time>
      </trkpt>
      <trkpt lat="45.36075" lon="4.44941">
        <ele>1048</ele>
        <time>2011-01-20T08:27:18Z</time>
      </trkpt>
      <trkpt lat="45.36067" lon="4.44939">
        <ele>1047</ele>
        <time>2011-01-20T08:27:25Z</time>
      </trkpt>
      <trkpt lat="45.36059" lon="4.44937">
        <ele>1047</ele>
        <time>2011-01-20T08:27:32Z</time>
      </trkpt>
      <trkpt lat="45.36051" lon="4.44936">
        <ele>1047</ele>
        <time>2011-01-20T08:27:38Z</time>
      </trkpt>
      <trkpt lat="45.36043" lon="4.44936">
        <ele>1047</ele>
        <time>2011-01-20T08:27:44Z</time>
      </trkpt>
      <trkpt lat="45.36035" lon="4.44935">
        <ele>1047</ele>
        <time>2011-01-20T08:27:50Z</time>
      </trkpt>
      <trkpt lat="45.36034" lon="4.44935">
        <ele>1047</ele>
        <time>2011-01-20T08:27:51Z</time>
      </trkpt>
      <trkpt lat="45.36019" lon="4.44936">
        <ele>1047</ele>
        <time>2011-01-20T08:28:02Z</time>
      </trkpt>
      <trkpt lat="45.3601" lon="4.44937">
        <ele>1046</ele>
        <time>2011-01-20T08:28:09Z</time>
      </trkpt>
      <trkpt lat="45.36002" lon="4.44939">
        <ele>1046</ele>
        <time>2011-01-20T08:28:15Z</time>
      </trkpt>
      <trkpt lat="45.35994" lon="4.44944">
        <ele>1044</ele>
        <time>2011-01-20T08:28:22Z</time>
      </trkpt>
      <trkpt lat="45.35987" lon="4.4495">
        <ele>1044</ele>
        <time>2011-01-20T08:28:28Z</time>
      </trkpt>
      <trkpt lat="45.3598" lon="4.44955">
        <ele>1044</ele>
        <time>2011-01-20T08:28:34Z</time>
      </trkpt>
      <trkpt lat="45.35974" lon="4.44963">
        <ele>1044</ele>
        <time>2011-01-20T08:28:40Z</time>
      </trkpt>
      <trkpt lat="45.35968" lon="4.4497">
        <ele>1043</ele>
        <time>2011-01-20T08:28:46Z</time>
      </trkpt>
      <trkpt lat="45.35961" lon="4.44976">
        <ele>1043</ele>
        <time>2011-01-20T08:28:52Z</time>
      </trkpt>
      <trkpt lat="45.3596" lon="4.44977">
        <ele>1043</ele>
        <time>2011-01-20T08:28:53Z</time>
      </trkpt>
      <trkpt lat="45.35947" lon="4.44988">
        <ele>1042</ele>
        <time>2011-01-20T08:29:06Z</time>
      </trkpt>
      <trkpt lat="45.35939" lon="4.44995">
        <ele>1042</ele>
        <time>2011-01-20T08:29:14Z</time>
      </trkpt>
      <trkpt lat="45.35933" lon="4.45002">
        <ele>1042</ele>
        <time>2011-01-20T08:29:21Z</time>
      </trkpt>
      <trkpt lat="45.35927" lon="4.4501">
        <ele>1041</ele>
        <time>2011-01-20T08:29:28Z</time>
      </trkpt>
      <trkpt lat="45.35922" lon="4.45018">
        <ele>1042</ele>
        <time>2011-01-20T08:29:35Z</time>
      </trkpt>
      <trkpt lat="45.35916" lon="4.45028">
        <ele>1037</ele>
        <time>2011-01-20T08:29:42Z</time>
      </trkpt>
      <trkpt lat="45.3591" lon="4.45037">
        <ele>1037</ele>
        <time>2011-01-20T08:29:50Z</time>
      </trkpt>
      <trkpt lat="45.35904" lon="4.45047">
        <ele>1037</ele>
        <time>2011-01-20T08:29:57Z</time>
      </trkpt>
      <trkpt lat="45.35904" lon="4.45048">
        <ele>1037</ele>
        <time>2011-01-20T08:29:58Z</time>
      </trkpt>
      <trkpt lat="45.35894" lon="4.45065">
        <ele>1037</ele>
        <time>2011-01-20T08:30:10Z</time>
      </trkpt>
      <trkpt lat="45.35888" lon="4.45074">
        <ele>1037</ele>
        <time>2011-01-20T08:30:17Z</time>
      </trkpt>
      <trkpt lat="45.35882" lon="4.45082">
        <ele>1036</ele>
        <time>2011-01-20T08:30:23Z</time>
      </trkpt>
      <trkpt lat="45.35875" lon="4.4509">
        <ele>1038</ele>
        <time>2011-01-20T08:30:30Z</time>
      </trkpt>
      <trkpt lat="45.35869" lon="4.45096">
        <ele>1037</ele>
        <time>2011-01-20T08:30:37Z</time>
      </trkpt>
      <trkpt lat="45.35861" lon="4.45102">
        <ele>1037</ele>
        <time>2011-01-20T08:30:44Z</time>
      </trkpt>
      <trkpt lat="45.35853" lon="4.45108">
        <ele>1037</ele>
        <time>2011-01-20T08:30:51Z</time>
      </trkpt>
      <trkpt lat="45.35846" lon="4.45113">
        <ele>1037</ele>
        <time>2011-01-20T08:30:58Z</time>
      </trkpt>
      <trkpt lat="45.35845" lon="4.45114">
        <ele>1037</ele>
        <time>2011-01-20T08:30:59Z</time>
      </trkpt>
      <trkpt lat="45.3583" lon="4.45122">
        <ele>1030</ele>
        <time>2011-01-20T08:31:14Z</time>
      </trkpt>
      <trkpt lat="45.35822" lon="4.45126">
        <ele>1030</ele>
        <time>2011-01-20T08:31:22Z</time>
      </trkpt>
      <trkpt lat="45.35815" lon="4.45132">
        <ele>1030</ele>
        <time>2011-01-20T08:31:29Z</time>
      </trkpt>
      <trkpt lat="45.35808" lon="4.45138">
        <ele>1030</ele>
        <time>2011-01-20T08:31:37Z</time>
      </trkpt>
      <trkpt lat="45.35801" lon="4.45145">
        <ele>1030</ele>
        <time>2011-01-20T08:31:44Z</time>
      </trkpt>
      <trkpt lat="45.35795" lon="4.45153">
        <ele>1030</ele>
        <time>2011-01-20T08:31:51Z</time>
      </trkpt>
      <trkpt lat="45.35788" lon="4.45161">
        <ele>1029</ele>
        <time>2011-01-20T08:31:58Z</time>
      </trkpt>
      <trkpt lat="45.35782" lon="4.45169">
        <ele>1032</ele>
        <time>2011-01-20T08:32:05Z</time>
      </trkpt>
      <trkpt lat="45.35781" lon="4.4517">
        <ele>1032</ele>
        <time>2011-01-20T08:32:06Z</time>
      </trkpt>
      <trkpt lat="45.35769" lon="4.45186">
        <ele>1031</ele>
        <time>2011-01-20T08:32:19Z</time>
      </trkpt>
      <trkpt lat="45.35762" lon="4.45193">
        <ele>1031</ele>
        <time>2011-01-20T08:32:26Z</time>
      </trkpt>
      <trkpt lat="45.35756" lon="4.45201">
        <ele>1032</ele>
        <time>2011-01-20T08:32:33Z</time>
      </trkpt>
      <trkpt lat="45.35749" lon="4.45208">
        <ele>1026</ele>
        <time>2011-01-20T08:32:40Z</time>
      </trkpt>
      <trkpt lat="45.35742" lon="4.45216">
        <ele>1026</ele>
        <time>2011-01-20T08:32:47Z</time>
      </trkpt>
      <trkpt lat="45.35735" lon="4.45224">
        <ele>1026</ele>
        <time>2011-01-20T08:32:54Z</time>
      </trkpt>
      <trkpt lat="45.35728" lon="4.45231">
        <ele>1026</ele>
        <time>2011-01-20T08:33:01Z</time>
      </trkpt>
      <trkpt lat="45.35721" lon="4.45237">
        <ele>1026</ele>
        <time>2011-01-20T08:33:07Z</time>
      </trkpt>
      <trkpt lat="45.3572" lon="4.45238">
        <ele>1026</ele>
        <time>2011-01-20T08:33:08Z</time>
      </trkpt>
      <trkpt lat="45.35708" lon="4.45251">
        <ele>1030</ele>
        <time>2011-01-20T08:33:20Z</time>
      </trkpt>
      <trkpt lat="45.35701" lon="4.45257">
        <ele>1029</ele>
        <time>2011-01-20T08:33:26Z</time>
      </trkpt>
      <trkpt lat="45.35694" lon="4.45263">
        <ele>1029</ele>
        <time>2011-01-20T08:33:32Z</time>
      </trkpt>
      <trkpt lat="45.35687" lon="4.45269">
        <ele>1029</ele>
        <time>2011-01-20T08:33:39Z</time>
      </trkpt>
      <trkpt lat="45.35679" lon="4.45275">
        <ele>1029</ele>
        <time>2011-01-20T08:33:46Z</time>
      </trkpt>
      <trkpt lat="45.35671" lon="4.45279">
        <ele>1029</ele>
        <time>2011-01-20T08:33:53Z</time>
      </trkpt>
      <trkpt lat="45.35663" lon="4.45284">
        <ele>1026</ele>
        <time>2011-01-20T08:34:00Z</time>
      </trkpt>
      <trkpt lat="45.35655" lon="4.4529">
        <ele>1026</ele>
        <time>2011-01-20T08:34:06Z</time>
      </trkpt>
      <trkpt lat="45.35648" lon="4.45295">
        <ele>1027</ele>
        <time>2011-01-20T08:34:12Z</time>
      </trkpt>
      <trkpt lat="45.35647" lon="4.45295">
        <ele>1027</ele>
        <time>2011-01-20T08:34:13Z</time>
      </trkpt>
      <trkpt lat="45.35632" lon="4.45302">
        <ele>1026</ele>
        <time>2011-01-20T08:34:27Z</time>
      </trkpt>
      <trkpt lat="45.35623" lon="4.45302">
        <ele>1026</ele>
        <time>2011-01-20T08:34:35Z</time>
      </trkpt>
      <trkpt lat="45.35615" lon="4.45302">
        <ele>1026</ele>
        <time>2011-01-20T08:34:41Z</time>
      </trkpt>
      <trkpt lat="45.35607" lon="4.45299">
        <ele>1026</ele>
        <time>2011-01-20T08:34:48Z</time>
      </trkpt>
      <trkpt lat="45.35599" lon="4.45294">
        <ele>1025</ele>
        <time>2011-01-20T08:34:54Z</time>
      </trkpt>
      <trkpt lat="45.35592" lon="4.45289">
        <ele>1025</ele>
        <time>2011-01-20T08:35:00Z</time>
      </trkpt>
      <trkpt lat="45.35584" lon="4.45284">
        <ele>1024</ele>
        <time>2011-01-20T08:35:07Z</time>
      </trkpt>
      <trkpt lat="45.35577" lon="4.4528">
        <ele>1019</ele>
        <time>2011-01-20T08:35:14Z</time>
      </trkpt>
      <trkpt lat="45.35576" lon="4.45279">
        <ele>1019</ele>
        <time>2011-01-20T08:35:15Z</time>
      </trkpt>
      <trkpt lat="45.3556" lon="4.45276">
        <ele>1019</ele>
        <time>2011-01-20T08:35:37Z</time>
      </trkpt>
      <trkpt lat="45.35551" lon="4.45275">
        <ele>1018</ele>
        <time>2011-01-20T08:36:14Z</time>
      </trkpt>
      <trkpt lat="45.35543" lon="4.45282">
        <ele>1018</ele>
        <time>2011-01-20T08:37:17Z</time>
      </trkpt>
      <trkpt lat="45.35543" lon="4.45282">
        <ele>1018</ele>
        <time>2011-01-20T08:37:18Z</time>
      </trkpt>
      <trkpt lat="45.35529" lon="4.45296">
        <ele>1018</ele>
        <time>2011-01-20T08:37:33Z</time>
      </trkpt>
      <trkpt lat="45.35522" lon="4.45302">
        <ele>1017</ele>
        <time>2011-01-20T08:37:41Z</time>
      </trkpt>
      <trkpt lat="45.35515" lon="4.45309">
        <ele>1017</ele>
        <time>2011-01-20T08:37:49Z</time>
      </trkpt>
      <trkpt lat="45.35507" lon="4.45313">
        <ele>1017</ele>
        <time>2011-01-20T08:37:56Z</time>
      </trkpt>
      <trkpt lat="45.35498" lon="4.45316">
        <ele>1012</ele>
        <time>2011-01-20T08:38:03Z</time>
      </trkpt>
      <trkpt lat="45.3549" lon="4.45316">
        <ele>1012</ele>
        <time>2011-01-20T08:38:09Z</time>
      </trkpt>
      <trkpt lat="45.35483" lon="4.45316">
        <ele>1011</ele>
        <time>2011-01-20T08:38:15Z</time>
      </trkpt>
      <trkpt lat="45.35474" lon="4.45315">
        <ele>1010</ele>
        <time>2011-01-20T08:38:22Z</time>
      </trkpt>
      <trkpt lat="45.35473" lon="4.45314">
        <ele>1010</ele>
        <time>2011-01-20T08:38:23Z</time>
      </trkpt>
      <trkpt lat="45.35458" lon="4.4531">
        <ele>1009</ele>
        <time>2011-01-20T08:38:35Z</time>
      </trkpt>
      <trkpt lat="45.3545" lon="4.45308">
        <ele>1008</ele>
        <time>2011-01-20T08:38:41Z</time>
      </trkpt>
      <trkpt lat="45.35442" lon="4.45306">
        <ele>1008</ele>
        <time>2011-01-20T08:38:47Z</time>
      </trkpt>
      <trkpt lat="45.35435" lon="4.45304">
        <ele>1008</ele>
        <time>2011-01-20T08:38:53Z</time>
      </trkpt>
      <trkpt lat="45.35427" lon="4.45301">
        <ele>1007</ele>
        <time>2011-01-20T08:38:59Z</time>
      </trkpt>
      <trkpt lat="45.35419" lon="4.45299">
        <ele>1007</ele>
        <time>2011-01-20T08:39:05Z</time>
      </trkpt>
      <trkpt lat="45.35412" lon="4.45297">
        <ele>1003</ele>
        <time>2011-01-20T08:39:11Z</time>
      </trkpt>
      <trkpt lat="45.35403" lon="4.45293">
        <ele>1002</ele>
        <time>2011-01-20T08:39:18Z</time>
      </trkpt>
      <trkpt lat="45.35394" lon="4.45291">
        <ele>1002</ele>
        <time>2011-01-20T08:39:25Z</time>
      </trkpt>
      <trkpt lat="45.35393" lon="4.45291">
        <ele>1002</ele>
        <time>2011-01-20T08:39:26Z</time>
      </trkpt>
      <trkpt lat="45.35379" lon="4.45287">
        <ele>1002</ele>
        <time>2011-01-20T08:39:37Z</time>
      </trkpt>
      <trkpt lat="45.35371" lon="4.45285">
        <ele>1001</ele>
        <time>2011-01-20T08:39:43Z</time>
      </trkpt>
      <trkpt lat="45.35363" lon="4.45282">
        <ele>1001</ele>
        <time>2011-01-20T08:39:50Z</time>
      </trkpt>
      <trkpt lat="45.35355" lon="4.45278">
        <ele>1001</ele>
        <time>2011-01-20T08:39:56Z</time>
      </trkpt>
      <trkpt lat="45.35348" lon="4.45273">
        <ele>1000</ele>
        <time>2011-01-20T08:40:02Z</time>
      </trkpt>
      <trkpt lat="45.35341" lon="4.45267">
        <ele>1000</ele>
        <time>2011-01-20T08:40:08Z</time>
      </trkpt>
      <trkpt lat="45.35335" lon="4.45259">
        <ele>999</ele>
        <time>2011-01-20T08:40:15Z</time>
      </trkpt>
      <trkpt lat="45.35329" lon="4.45249">
        <ele>998</ele>
        <time>2011-01-20T08:40:22Z</time>
      </trkpt>
      <trkpt lat="45.35325" lon="4.4524">
        <ele>997</ele>
        <time>2011-01-20T08:40:28Z</time>
      </trkpt>
      <trkpt lat="45.35324" lon="4.45239">
        <ele>997</ele>
        <time>2011-01-20T08:40:29Z</time>
      </trkpt>
      <trkpt lat="45.35314" lon="4.45222">
        <ele>997</ele>
        <time>2011-01-20T08:40:40Z</time>
      </trkpt>
      <trkpt lat="45.35309" lon="4.45212">
        <ele>997</ele>
        <time>2011-01-20T08:40:46Z</time>
      </trkpt>
      <trkpt lat="45.35304" lon="4.45203">
        <ele>997</ele>
        <time>2011-01-20T08:40:52Z</time>
      </trkpt>
      <trkpt lat="45.35298" lon="4.45194">
        <ele>997</ele>
        <time>2011-01-20T08:40:59Z</time>
      </trkpt>
      <trkpt lat="45.35293" lon="4.45184">
        <ele>997</ele>
        <time>2011-01-20T08:41:06Z</time>
      </trkpt>
      <trkpt lat="45.35288" lon="4.45175">
        <ele>997</ele>
        <time>2011-01-20T08:41:12Z</time>
      </trkpt>
      <trkpt lat="45.35283" lon="4.45166">
        <ele>996</ele>
        <time>2011-01-20T08:41:18Z</time>
      </trkpt>
      <trkpt lat="45.35279" lon="4.45156">
        <ele>996</ele>
        <time>2011-01-20T08:41:24Z</time>
      </trkpt>
      <trkpt lat="45.35274" lon="4.45146">
        <ele>996</ele>
        <time>2011-01-20T08:41:30Z</time>
      </trkpt>
      <trkpt lat="45.35273" lon="4.45145">
        <ele>996</ele>
        <time>2011-01-20T08:41:31Z</time>
      </trkpt>
      <trkpt lat="45.35265" lon="4.45127">
        <ele>996</ele>
        <time>2011-01-20T08:41:42Z</time>
      </trkpt>
      <trkpt lat="45.35261" lon="4.45119">
        <ele>996</ele>
        <time>2011-01-20T08:41:45Z</time>
      </trkpt>
      <trkpt lat="45.35255" lon="4.4511">
        <ele>995</ele>
        <time>2011-01-20T08:41:49Z</time>
      </trkpt>
      <trkpt lat="45.3525" lon="4.45102">
        <ele>995</ele>
        <time>2011-01-20T08:41:52Z</time>
      </trkpt>
      <trkpt lat="45.35245" lon="4.45094">
        <ele>994</ele>
        <time>2011-01-20T08:41:56Z</time>
      </trkpt>
      <trkpt lat="45.35238" lon="4.45088">
        <ele>994</ele>
        <time>2011-01-20T08:42:03Z</time>
      </trkpt>
      <trkpt lat="45.35232" lon="4.45079">
        <ele>994</ele>
        <time>2011-01-20T08:42:16Z</time>
      </trkpt>
      <trkpt lat="45.35225" lon="4.45073">
        <ele>993</ele>
        <time>2011-01-20T08:42:24Z</time>
      </trkpt>
      <trkpt lat="45.35217" lon="4.45068">
        <ele>993</ele>
        <time>2011-01-20T08:42:31Z</time>
      </trkpt>
      <trkpt lat="45.35209" lon="4.45065">
        <ele>993</ele>
        <time>2011-01-20T08:42:38Z</time>
      </trkpt>
      <trkpt lat="45.35207" lon="4.45064">
        <ele>993</ele>
        <time>2011-01-20T08:42:39Z</time>
      </trkpt>
      <trkpt lat="45.35191" lon="4.45064">
        <ele>993</ele>
        <time>2011-01-20T08:42:52Z</time>
      </trkpt>
      <trkpt lat="45.35182" lon="4.45064">
        <ele>993</ele>
        <time>2011-01-20T08:42:59Z</time>
      </trkpt>
      <trkpt lat="45.35174" lon="4.45066">
        <ele>993</ele>
        <time>2011-01-20T08:43:05Z</time>
      </trkpt>
      <trkpt lat="45.35166" lon="4.45067">
        <ele>992</ele>
        <time>2011-01-20T08:43:11Z</time>
      </trkpt>
      <trkpt lat="45.35159" lon="4.4507">
        <ele>992</ele>
        <time>2011-01-20T08:43:17Z</time>
      </trkpt>
      <trkpt lat="45.35151" lon="4.45072">
        <ele>992</ele>
        <time>2011-01-20T08:43:23Z</time>
      </trkpt>
      <trkpt lat="45.35142" lon="4.45074">
        <ele>992</ele>
        <time>2011-01-20T08:43:29Z</time>
      </trkpt>
      <trkpt lat="45.35134" lon="4.45075">
        <ele>992</ele>
        <time>2011-01-20T08:43:35Z</time>
      </trkpt>
      <trkpt lat="45.35126" lon="4.45078">
        <ele>992</ele>
        <time>2011-01-20T08:43:41Z</time>
      </trkpt>
      <trkpt lat="45.35124" lon="4.45078">
        <ele>992</ele>
        <time>2011-01-20T08:43:42Z</time>
      </trkpt>
      <trkpt lat="45.3511" lon="4.45081">
        <ele>992</ele>
        <time>2011-01-20T08:43:53Z</time>
      </trkpt>
      <trkpt lat="45.35102" lon="4.45083">
        <ele>991</ele>
        <time>2011-01-20T08:43:59Z</time>
      </trkpt>
      <trkpt lat="45.35093" lon="4.45083">
        <ele>991</ele>
        <time>2011-01-20T08:44:05Z</time>
      </trkpt>
      <trkpt lat="45.35085" lon="4.45084">
        <ele>991</ele>
        <time>2011-01-20T08:44:12Z</time>
      </trkpt>
      <trkpt lat="45.35077" lon="4.45083">
        <ele>991</ele>
        <time>2011-01-20T08:44:19Z</time>
      </trkpt>
      <trkpt lat="45.35069" lon="4.45081">
        <ele>990</ele>
        <time>2011-01-20T08:44:25Z</time>
      </trkpt>
      <trkpt lat="45.3506" lon="4.45079">
        <ele>990</ele>
        <time>2011-01-20T08:44:32Z</time>
      </trkpt>
      <trkpt lat="45.35053" lon="4.45076">
        <ele>990</ele>
        <time>2011-01-20T08:44:38Z</time>
      </trkpt>
      <trkpt lat="45.35044" lon="4.45074">
        <ele>990</ele>
        <time>2011-01-20T08:44:45Z</time>
      </trkpt>
      <trkpt lat="45.35043" lon="4.45074">
        <ele>990</ele>
        <time>2011-01-20T08:44:46Z</time>
      </trkpt>
      <trkpt lat="45.35029" lon="4.45069">
        <ele>989</ele>
        <time>2011-01-20T08:44:58Z</time>
      </trkpt>
      <trkpt lat="45.35021" lon="4.45066">
        <ele>989</ele>
        <time>2011-01-20T08:45:04Z</time>
      </trkpt>
      <trkpt lat="45.35013" lon="4.45064">
        <ele>989</ele>
        <time>2011-01-20T08:45:10Z</time>
      </trkpt>
      <trkpt lat="45.35005" lon="4.45061">
        <ele>989</ele>
        <time>2011-01-20T08:45:16Z</time>
      </trkpt>
      <trkpt lat="45.34998" lon="4.45057">
        <ele>988</ele>
        <time>2011-01-20T08:45:22Z</time>
      </trkpt>
      <trkpt lat="45.34991" lon="4.45053">
        <ele>988</ele>
        <time>2011-01-20T08:45:28Z</time>
      </trkpt>
      <trkpt lat="45.34983" lon="4.45048">
        <ele>988</ele>
        <time>2011-01-20T08:45:34Z</time>
      </trkpt>
      <trkpt lat="45.34976" lon="4.45042">
        <ele>988</ele>
        <time>2011-01-20T08:45:40Z</time>
      </trkpt>
      <trkpt lat="45.34969" lon="4.45036">
        <ele>988</ele>
        <time>2011-01-20T08:45:46Z</time>
      </trkpt>
      <trkpt lat="45.34962" lon="4.45029">
        <ele>988</ele>
        <time>2011-01-20T08:45:53Z</time>
      </trkpt>
      <trkpt lat="45.34961" lon="4.45028">
        <ele>988</ele>
        <time>2011-01-20T08:45:54Z</time>
      </trkpt>
      <trkpt lat="45.34948" lon="4.45017">
        <ele>987</ele>
        <time>2011-01-20T08:46:05Z</time>
      </trkpt>
      <trkpt lat="45.34941" lon="4.4501">
        <ele>987</ele>
        <time>2011-01-20T08:46:11Z</time>
      </trkpt>
      <trkpt lat="45.34935" lon="4.45004">
        <ele>987</ele>
        <time>2011-01-20T08:46:17Z</time>
      </trkpt>
      <trkpt lat="45.34927" lon="4.44998">
        <ele>986</ele>
        <time>2011-01-20T08:46:24Z</time>
      </trkpt>
      <trkpt lat="45.34921" lon="4.44991">
        <ele>986</ele>
        <time>2011-01-20T08:46:30Z</time>
      </trkpt>
      <trkpt lat="45.34914" lon="4.44985">
        <ele>986</ele>
        <time>2011-01-20T08:46:36Z</time>
      </trkpt>
      <trkpt lat="45.34907" lon="4.44978">
        <ele>986</ele>
        <time>2011-01-20T08:46:43Z</time>
      </trkpt>
      <trkpt lat="45.34899" lon="4.44971">
        <ele>986</ele>
        <time>2011-01-20T08:46:49Z</time>
      </trkpt>
      <trkpt lat="45.34892" lon="4.44965">
        <ele>986</ele>
        <time>2011-01-20T08:46:56Z</time>
      </trkpt>
      <trkpt lat="45.34891" lon="4.44964">
        <ele>986</ele>
        <time>2011-01-20T08:46:57Z</time>
      </trkpt>
      <trkpt lat="45.34881" lon="4.44948">
        <ele>986</ele>
        <time>2011-01-20T08:47:25Z</time>
      </trkpt>
      <trkpt lat="45.34875" lon="4.44938">
        <ele>986</ele>
        <time>2011-01-20T08:47:32Z</time>
      </trkpt>
      <trkpt lat="45.34872" lon="4.44927">
        <ele>987</ele>
        <time>2011-01-20T08:47:39Z</time>
      </trkpt>
      <trkpt lat="45.3487" lon="4.44915">
        <ele>987</ele>
        <time>2011-01-20T08:47:46Z</time>
      </trkpt>
      <trkpt lat="45.34867" lon="4.44903">
        <ele>987</ele>
        <time>2011-01-20T08:47:53Z</time>
      </trkpt>
      <trkpt lat="45.34866" lon="4.44891">
        <ele>987</ele>
        <time>2011-01-20T08:48:00Z</time>
      </trkpt>
      <trkpt lat="45.34865" lon="4.44889">
        <ele>987</ele>
        <time>2011-01-20T08:48:01Z</time>
      </trkpt>
      <trkpt lat="45.34861" lon="4.44868">
        <ele>987</ele>
        <time>2011-01-20T08:48:39Z</time>
      </trkpt>
      <trkpt lat="45.34858" lon="4.44857">
        <ele>987</ele>
        <time>2011-01-20T08:48:48Z</time>
      </trkpt>
      <trkpt lat="45.34856" lon="4.44845">
        <ele>987</ele>
        <time>2011-01-20T08:48:55Z</time>
      </trkpt>
      <trkpt lat="45.34854" lon="4.44834">
        <ele>987</ele>
        <time>2011-01-20T08:49:02Z</time>
      </trkpt>
      <trkpt lat="45.34853" lon="4.44833">
        <ele>987</ele>
        <time>2011-01-20T08:49:03Z</time>
      </trkpt>
      <trkpt lat="45.34849" lon="4.4481">
        <ele>987</ele>
        <time>2011-01-20T08:49:22Z</time>
      </trkpt>
      <trkpt lat="45.34847" lon="4.44799">
        <ele>987</ele>
        <time>2011-01-20T08:49:29Z</time>
      </trkpt>
      <trkpt lat="45.34844" lon="4.44787">
        <ele>987</ele>
        <time>2011-01-20T08:49:37Z</time>
      </trkpt>
      <trkpt lat="45.34841" lon="4.44776">
        <ele>986</ele>
        <time>2011-01-20T08:49:44Z</time>
      </trkpt>
      <trkpt lat="45.34839" lon="4.44766">
        <ele>986</ele>
        <time>2011-01-20T08:49:50Z</time>
      </trkpt>
      <trkpt lat="45.34836" lon="4.44755">
        <ele>985</ele>
        <time>2011-01-20T08:49:56Z</time>
      </trkpt>
      <trkpt lat="45.34835" lon="4.44743">
        <ele>986</ele>
        <time>2011-01-20T08:50:03Z</time>
      </trkpt>
      <trkpt lat="45.34841" lon="4.44733">
        <ele>987</ele>
        <time>2011-01-20T08:50:12Z</time>
      </trkpt>
      <trkpt lat="45.34841" lon="4.44732">
        <ele>987</ele>
        <time>2011-01-20T08:50:13Z</time>
      </trkpt>
      <trkpt lat="45.34848" lon="4.4471">
        <ele>988</ele>
        <time>2011-01-20T08:50:35Z</time>
      </trkpt>
      <trkpt lat="45.34845" lon="4.44699">
        <ele>988</ele>
        <time>2011-01-20T08:50:44Z</time>
      </trkpt>
      <trkpt lat="45.34844" lon="4.44686">
        <ele>989</ele>
        <time>2011-01-20T08:50:54Z</time>
      </trkpt>
      <trkpt lat="45.34845" lon="4.44674">
        <ele>989</ele>
        <time>2011-01-20T08:51:03Z</time>
      </trkpt>
      <trkpt lat="45.3485" lon="4.44664">
        <ele>992</ele>
        <time>2011-01-20T08:51:11Z</time>
      </trkpt>
      <trkpt lat="45.34855" lon="4.44654">
        <ele>992</ele>
        <time>2011-01-20T08:51:19Z</time>
      </trkpt>
      <trkpt lat="45.34855" lon="4.44653">
        <ele>992</ele>
        <time>2011-01-20T08:51:20Z</time>
      </trkpt>
      <trkpt lat="45.34864" lon="4.44633">
        <ele>994</ele>
        <time>2011-01-20T08:51:36Z</time>
      </trkpt>
      <trkpt lat="45.34863" lon="4.4462">
        <ele>994</ele>
        <time>2011-01-20T08:51:46Z</time>
      </trkpt>
      <trkpt lat="45.34858" lon="4.4461">
        <ele>995</ele>
        <time>2011-01-20T08:51:55Z</time>
      </trkpt>
      <trkpt lat="45.34852" lon="4.44601">
        <ele>995</ele>
        <time>2011-01-20T08:52:06Z</time>
      </trkpt>
      <trkpt lat="45.34847" lon="4.4459">
        <ele>995</ele>
        <time>2011-01-20T08:52:16Z</time>
      </trkpt>
      <trkpt lat="45.34842" lon="4.4458">
        <ele>998</ele>
        <time>2011-01-20T08:52:25Z</time>
      </trkpt>
      <trkpt lat="45.34841" lon="4.44579">
        <ele>998</ele>
        <time>2011-01-20T08:52:26Z</time>
      </trkpt>
      <trkpt lat="45.3483" lon="4.44564">
        <ele>997</ele>
        <time>2011-01-20T08:52:42Z</time>
      </trkpt>
      <trkpt lat="45.34823" lon="4.44556">
        <ele>997</ele>
        <time>2011-01-20T08:52:50Z</time>
      </trkpt>
      <trkpt lat="45.34818" lon="4.4455">
        <ele>997</ele>
        <time>2011-01-20T08:52:56Z</time>
      </trkpt>
      <trkpt lat="45.34811" lon="4.44543">
        <ele>997</ele>
        <time>2011-01-20T08:53:04Z</time>
      </trkpt>
      <trkpt lat="45.34806" lon="4.44534">
        <ele>998</ele>
        <time>2011-01-20T08:53:11Z</time>
      </trkpt>
      <trkpt lat="45.34801" lon="4.44524">
        <ele>998</ele>
        <time>2011-01-20T08:53:18Z</time>
      </trkpt>
      <trkpt lat="45.34796" lon="4.44514">
        <ele>998</ele>
        <time>2011-01-20T08:53:25Z</time>
      </trkpt>
      <trkpt lat="45.34792" lon="4.44504">
        <ele>998</ele>
        <time>2011-01-20T08:53:33Z</time>
      </trkpt>
      <trkpt lat="45.34791" lon="4.44502">
        <ele>998</ele>
        <time>2011-01-20T08:53:34Z</time>
      </trkpt>
      <trkpt lat="45.34787" lon="4.4448">
        <ele>1002</ele>
        <time>2011-01-20T08:53:49Z</time>
      </trkpt>
      <trkpt lat="45.3479" lon="4.4447">
        <ele>1002</ele>
        <time>2011-01-20T08:53:57Z</time>
      </trkpt>
      <trkpt lat="45.34796" lon="4.44461">
        <ele>1003</ele>
        <time>2011-01-20T08:54:35Z</time>
      </trkpt>
      <trkpt lat="45.34797" lon="4.44461">
        <ele>1003</ele>
        <time>2011-01-20T08:54:36Z</time>
      </trkpt>
      <trkpt lat="45.34813" lon="4.44457">
        <ele>1004</ele>
        <time>2011-01-20T08:54:54Z</time>
      </trkpt>
      <trkpt lat="45.34821" lon="4.44456">
        <ele>1005</ele>
        <time>2011-01-20T08:55:02Z</time>
      </trkpt>
      <trkpt lat="45.34829" lon="4.44454">
        <ele>1005</ele>
        <time>2011-01-20T08:55:10Z</time>
      </trkpt>
      <trkpt lat="45.34837" lon="4.44451">
        <ele>1012</ele>
        <time>2011-01-20T08:55:18Z</time>
      </trkpt>
      <trkpt lat="45.34845" lon="4.44448">
        <ele>1013</ele>
        <time>2011-01-20T08:55:29Z</time>
      </trkpt>
      <trkpt lat="45.34853" lon="4.44444">
        <ele>1013</ele>
        <time>2011-01-20T08:55:43Z</time>
      </trkpt>
      <trkpt lat="45.34854" lon="4.44443">
        <ele>1013</ele>
        <time>2011-01-20T08:55:44Z</time>
      </trkpt>
      <trkpt lat="45.34869" lon="4.44433">
        <ele>1014</ele>
        <time>2011-01-20T08:56:10Z</time>
      </trkpt>
      <trkpt lat="45.34877" lon="4.4443">
        <ele>1015</ele>
        <time>2011-01-20T08:56:18Z</time>
      </trkpt>
      <trkpt lat="45.34885" lon="4.44426">
        <ele>1016</ele>
        <time>2011-01-20T08:56:27Z</time>
      </trkpt>
      <trkpt lat="45.34893" lon="4.44423">
        <ele>1017</ele>
        <time>2011-01-20T08:56:39Z</time>
      </trkpt>
      <trkpt lat="45.349" lon="4.44416">
        <ele>1022</ele>
        <time>2011-01-20T08:56:57Z</time>
      </trkpt>
      <trkpt lat="45.34901" lon="4.44415">
        <ele>1022</ele>
        <time>2011-01-20T08:56:58Z</time>
      </trkpt>
      <trkpt lat="45.34914" lon="4.44402">
        <ele>1022</ele>
        <time>2011-01-20T08:57:23Z</time>
      </trkpt>
      <trkpt lat="45.34921" lon="4.44395">
        <ele>1027</ele>
        <time>2011-01-20T08:57:34Z</time>
      </trkpt>
      <trkpt lat="45.34929" lon="4.44391">
        <ele>1027</ele>
        <time>2011-01-20T08:57:44Z</time>
      </trkpt>
      <trkpt lat="45.34936" lon="4.44384">
        <ele>1028</ele>
        <time>2011-01-20T08:57:56Z</time>
      </trkpt>
      <trkpt lat="45.34944" lon="4.44379">
        <ele>1028</ele>
        <time>2011-01-20T08:58:05Z</time>
      </trkpt>
      <trkpt lat="45.34945" lon="4.44379">
        <ele>1028</ele>
        <time>2011-01-20T08:58:06Z</time>
      </trkpt>
      <trkpt lat="45.34961" lon="4.44373">
        <ele>1029</ele>
        <time>2011-01-20T08:58:21Z</time>
      </trkpt>
      <trkpt lat="45.34968" lon="4.44368">
        <ele>1029</ele>
        <time>2011-01-20T08:58:30Z</time>
      </trkpt>
      <trkpt lat="45.34976" lon="4.44366">
        <ele>1030</ele>
        <time>2011-01-20T08:58:38Z</time>
      </trkpt>
      <trkpt lat="45.34985" lon="4.44364">
        <ele>1030</ele>
        <time>2011-01-20T08:58:45Z</time>
      </trkpt>
      <trkpt lat="45.34993" lon="4.44361">
        <ele>1031</ele>
        <time>2011-01-20T08:58:53Z</time>
      </trkpt>
      <trkpt lat="45.35002" lon="4.44359">
        <ele>1032</ele>
        <time>2011-01-20T08:59:00Z</time>
      </trkpt>
      <trkpt lat="45.3501" lon="4.44359">
        <ele>1032</ele>
        <time>2011-01-20T08:59:06Z</time>
      </trkpt>
      <trkpt lat="45.35019" lon="4.4436">
        <ele>1032</ele>
        <time>2011-01-20T08:59:13Z</time>
      </trkpt>
      <trkpt lat="45.3502" lon="4.4436">
        <ele>1032</ele>
        <time>2011-01-20T08:59:14Z</time>
      </trkpt>
      <trkpt lat="45.35036" lon="4.44358">
        <ele>1032</ele>
        <time>2011-01-20T08:59:33Z</time>
      </trkpt>
      <trkpt lat="45.35044" lon="4.44359">
        <ele>1032</ele>
        <time>2011-01-20T08:59:38Z</time>
      </trkpt>
      <trkpt lat="45.35053" lon="4.44356">
        <ele>1032</ele>
        <time>2011-01-20T08:59:48Z</time>
      </trkpt>
      <trkpt lat="45.35061" lon="4.44354">
        <ele>1032</ele>
        <time>2011-01-20T08:59:57Z</time>
      </trkpt>
      <trkpt lat="45.35069" lon="4.44351">
        <ele>1032</ele>
        <time>2011-01-20T09:00:05Z</time>
      </trkpt>
      <trkpt lat="45.35077" lon="4.4435">
        <ele>1033</ele>
        <time>2011-01-20T09:00:12Z</time>
      </trkpt>
      <trkpt lat="45.35086" lon="4.44349">
        <ele>1033</ele>
        <time>2011-01-20T09:00:19Z</time>
      </trkpt>
      <trkpt lat="45.35087" lon="4.44349">
        <ele>1033</ele>
        <time>2011-01-20T09:00:20Z</time>
      </trkpt>
      <trkpt lat="45.35103" lon="4.44348">
        <ele>1032</ele>
        <time>2011-01-20T09:00:31Z</time>
      </trkpt>
      <trkpt lat="45.35111" lon="4.44349">
        <ele>1032</ele>
        <time>2011-01-20T09:00:38Z</time>
      </trkpt>
      <trkpt lat="45.3512" lon="4.44349">
        <ele>1032</ele>
        <time>2011-01-20T09:00:47Z</time>
      </trkpt>
      <trkpt lat="45.35129" lon="4.44347">
        <ele>1032</ele>
        <time>2011-01-20T09:00:55Z</time>
      </trkpt>
      <trkpt lat="45.35137" lon="4.44347">
        <ele>1032</ele>
        <time>2011-01-20T09:01:02Z</time>
      </trkpt>
      <trkpt lat="45.35145" lon="4.44348">
        <ele>1032</ele>
        <time>2011-01-20T09:01:07Z</time>
      </trkpt>
      <trkpt lat="45.35154" lon="4.44347">
        <ele>1033</ele>
        <time>2011-01-20T09:01:16Z</time>
      </trkpt>
      <trkpt lat="45.35162" lon="4.44345">
        <ele>1033</ele>
        <time>2011-01-20T09:01:24Z</time>
      </trkpt>
      <trkpt lat="45.35163" lon="4.44345">
        <ele>1033</ele>
        <time>2011-01-20T09:01:25Z</time>
      </trkpt>
      <trkpt lat="45.35179" lon="4.44346">
        <ele>1032</ele>
        <time>2011-01-20T09:01:40Z</time>
      </trkpt>
      <trkpt lat="45.35187" lon="4.44347">
        <ele>1032</ele>
        <time>2011-01-20T09:01:50Z</time>
      </trkpt>
      <trkpt lat="45.35196" lon="4.44346">
        <ele>1032</ele>
        <time>2011-01-20T09:01:59Z</time>
      </trkpt>
      <trkpt lat="45.35204" lon="4.44347">
        <ele>1031</ele>
        <time>2011-01-20T09:02:06Z</time>
      </trkpt>
      <trkpt lat="45.35213" lon="4.44347">
        <ele>1031</ele>
        <time>2011-01-20T09:02:13Z</time>
      </trkpt>
      <trkpt lat="45.35221" lon="4.44345">
        <ele>1031</ele>
        <time>2011-01-20T09:02:20Z</time>
      </trkpt>
      <trkpt lat="45.35229" lon="4.44343">
        <ele>1031</ele>
        <time>2011-01-20T09:02:27Z</time>
      </trkpt>
      <trkpt lat="45.3523" lon="4.44343">
        <ele>1031</ele>
        <time>2011-01-20T09:02:28Z</time>
      </trkpt>
      <trkpt lat="45.35245" lon="4.44344">
        <ele>1032</ele>
        <time>2011-01-20T09:02:41Z</time>
      </trkpt>
      <trkpt lat="45.35254" lon="4.44345">
        <ele>1032</ele>
        <time>2011-01-20T09:02:49Z</time>
      </trkpt>
      <trkpt lat="45.35262" lon="4.44346">
        <ele>1032</ele>
        <time>2011-01-20T09:02:56Z</time>
      </trkpt>
      <trkpt lat="45.3527" lon="4.44347">
        <ele>1031</ele>
        <time>2011-01-20T09:03:05Z</time>
      </trkpt>
      <trkpt lat="45.35278" lon="4.44347">
        <ele>1031</ele>
        <time>2011-01-20T09:03:11Z</time>
      </trkpt>
      <trkpt lat="45.35286" lon="4.44349">
        <ele>1031</ele>
        <time>2011-01-20T09:03:18Z</time>
      </trkpt>
      <trkpt lat="45.35294" lon="4.44349">
        <ele>1031</ele>
        <time>2011-01-20T09:03:25Z</time>
      </trkpt>
      <trkpt lat="45.35303" lon="4.44349">
        <ele>1032</ele>
        <time>2011-01-20T09:03:34Z</time>
      </trkpt>
      <trkpt lat="45.35304" lon="4.44349">
        <ele>1032</ele>
        <time>2011-01-20T09:03:35Z</time>
      </trkpt>
      <trkpt lat="45.35321" lon="4.44347">
        <ele>1032</ele>
        <time>2011-01-20T09:03:51Z</time>
      </trkpt>
      <trkpt lat="45.35329" lon="4.44345">
        <ele>1033</ele>
        <time>2011-01-20T09:04:00Z</time>
      </trkpt>
      <trkpt lat="45.35337" lon="4.44344">
        <ele>1034</ele>
        <time>2011-01-20T09:04:09Z</time>
      </trkpt>
      <trkpt lat="45.35346" lon="4.44344">
        <ele>1034</ele>
        <time>2011-01-20T09:04:20Z</time>
      </trkpt>
      <trkpt lat="45.35354" lon="4.44345">
        <ele>1034</ele>
        <time>2011-01-20T09:04:29Z</time>
      </trkpt>
      <trkpt lat="45.35363" lon="4.44347">
        <ele>1034</ele>
        <time>2011-01-20T09:04:54Z</time>
      </trkpt>
      <trkpt lat="45.35363" lon="4.44347">
        <ele>1034</ele>
        <time>2011-01-20T09:04:55Z</time>
      </trkpt>
      <trkpt lat="45.35354" lon="4.44326">
        <ele>1037</ele>
        <time>2011-01-20T09:05:27Z</time>
      </trkpt>
      <trkpt lat="45.35349" lon="4.44317">
        <ele>1037</ele>
        <time>2011-01-20T09:05:38Z</time>
      </trkpt>
      <trkpt lat="45.35346" lon="4.44306">
        <ele>1037</ele>
        <time>2011-01-20T09:05:48Z</time>
      </trkpt>
      <trkpt lat="45.35342" lon="4.44295">
        <ele>1037</ele>
        <time>2011-01-20T09:05:56Z</time>
      </trkpt>
      <trkpt lat="45.35341" lon="4.44295">
        <ele>1037</ele>
        <time>2011-01-20T09:05:57Z</time>
      </trkpt>
      <trkpt lat="45.35332" lon="4.44277">
        <ele>1034</ele>
        <time>2011-01-20T09:06:15Z</time>
      </trkpt>
      <trkpt lat="45.35326" lon="4.44267">
        <ele>1034</ele>
        <time>2011-01-20T09:06:24Z</time>
      </trkpt>
      <trkpt lat="45.35321" lon="4.44258">
        <ele>1034</ele>
        <time>2011-01-20T09:06:32Z</time>
      </trkpt>
      <trkpt lat="45.35316" lon="4.4425">
        <ele>1033</ele>
        <time>2011-01-20T09:06:38Z</time>
      </trkpt>
      <trkpt lat="45.3531" lon="4.4424">
        <ele>1032</ele>
        <time>2011-01-20T09:06:44Z</time>
      </trkpt>
      <trkpt lat="45.35305" lon="4.4423">
        <ele>1031</ele>
        <time>2011-01-20T09:06:50Z</time>
      </trkpt>
      <trkpt lat="45.35301" lon="4.44219">
        <ele>1031</ele>
        <time>2011-01-20T09:06:57Z</time>
      </trkpt>
      <trkpt lat="45.35295" lon="4.44209">
        <ele>1030</ele>
        <time>2011-01-20T09:07:04Z</time>
      </trkpt>
      <trkpt lat="45.35295" lon="4.44207">
        <ele>1030</ele>
        <time>2011-01-20T09:07:05Z</time>
      </trkpt>
      <trkpt lat="45.35287" lon="4.44188">
        <ele>1029</ele>
        <time>2011-01-20T09:07:17Z</time>
      </trkpt>
      <trkpt lat="45.35283" lon="4.44177">
        <ele>1029</ele>
        <time>2011-01-20T09:07:25Z</time>
      </trkpt>
      <trkpt lat="45.35279" lon="4.44168">
        <ele>1028</ele>
        <time>2011-01-20T09:07:31Z</time>
      </trkpt>
      <trkpt lat="45.35275" lon="4.44159">
        <ele>1024</ele>
        <time>2011-01-20T09:07:36Z</time>
      </trkpt>
      <trkpt lat="45.3527" lon="4.4415">
        <ele>1024</ele>
        <time>2011-01-20T09:07:41Z</time>
      </trkpt>
      <trkpt lat="45.35265" lon="4.44141">
        <ele>1024</ele>
        <time>2011-01-20T09:07:47Z</time>
      </trkpt>
      <trkpt lat="45.3526" lon="4.44131">
        <ele>1023</ele>
        <time>2011-01-20T09:07:54Z</time>
      </trkpt>
      <trkpt lat="45.35255" lon="4.44121">
        <ele>1023</ele>
        <time>2011-01-20T09:08:02Z</time>
      </trkpt>
      <trkpt lat="45.35251" lon="4.44111">
        <ele>1022</ele>
        <time>2011-01-20T09:08:09Z</time>
      </trkpt>
      <trkpt lat="45.3525" lon="4.44109">
        <ele>1021</ele>
        <time>2011-01-20T09:08:10Z</time>
      </trkpt>
      <trkpt lat="45.35243" lon="4.44089">
        <ele>1018</ele>
        <time>2011-01-20T09:08:24Z</time>
      </trkpt>
      <trkpt lat="45.35239" lon="4.44077">
        <ele>1015</ele>
        <time>2011-01-20T09:08:32Z</time>
      </trkpt>
      <trkpt lat="45.35237" lon="4.44067">
        <ele>1015</ele>
        <time>2011-01-20T09:08:39Z</time>
      </trkpt>
      <trkpt lat="45.35233" lon="4.44056">
        <ele>1014</ele>
        <time>2011-01-20T09:08:46Z</time>
      </trkpt>
      <trkpt lat="45.35231" lon="4.44044">
        <ele>1013</ele>
        <time>2011-01-20T09:08:54Z</time>
      </trkpt>
      <trkpt lat="45.35228" lon="4.44033">
        <ele>1013</ele>
        <time>2011-01-20T09:09:01Z</time>
      </trkpt>
      <trkpt lat="45.35225" lon="4.44022">
        <ele>1012</ele>
        <time>2011-01-20T09:09:07Z</time>
      </trkpt>
      <trkpt lat="45.35222" lon="4.44012">
        <ele>1012</ele>
        <time>2011-01-20T09:09:13Z</time>
      </trkpt>
      <trkpt lat="45.35221" lon="4.4401">
        <ele>1012</ele>
        <time>2011-01-20T09:09:14Z</time>
      </trkpt>
      <trkpt lat="45.35215" lon="4.43989">
        <ele>1008</ele>
        <time>2011-01-20T09:09:27Z</time>
      </trkpt>
      <trkpt lat="45.35213" lon="4.43978">
        <ele>1007</ele>
        <time>2011-01-20T09:09:34Z</time>
      </trkpt>
      <trkpt lat="45.3521" lon="4.43967">
        <ele>1007</ele>
        <time>2011-01-20T09:09:41Z</time>
      </trkpt>
      <trkpt lat="45.35207" lon="4.43956">
        <ele>1006</ele>
        <time>2011-01-20T09:09:48Z</time>
      </trkpt>
      <trkpt lat="45.35204" lon="4.43945">
        <ele>1005</ele>
        <time>2011-01-20T09:09:55Z</time>
      </trkpt>
      <trkpt lat="45.35201" lon="4.43935">
        <ele>1005</ele>
        <time>2011-01-20T09:10:02Z</time>
      </trkpt>
      <trkpt lat="45.35197" lon="4.43923">
        <ele>1004</ele>
        <time>2011-01-20T09:10:11Z</time>
      </trkpt>
      <trkpt lat="45.35194" lon="4.43913">
        <ele>1000</ele>
        <time>2011-01-20T09:10:26Z</time>
      </trkpt>
      <trkpt lat="45.35193" lon="4.43911">
        <ele>1000</ele>
        <time>2011-01-20T09:10:27Z</time>
      </trkpt>
      <trkpt lat="45.35185" lon="4.43893">
        <ele>999</ele>
        <time>2011-01-20T09:10:40Z</time>
      </trkpt>
      <trkpt lat="45.35181" lon="4.43884">
        <ele>999</ele>
        <time>2011-01-20T09:10:46Z</time>
      </trkpt>
      <trkpt lat="45.35175" lon="4.43875">
        <ele>998</ele>
        <time>2011-01-20T09:10:52Z</time>
      </trkpt>
      <trkpt lat="45.3517" lon="4.43867">
        <ele>998</ele>
        <time>2011-01-20T09:10:58Z</time>
      </trkpt>
      <trkpt lat="45.35164" lon="4.43858">
        <ele>994</ele>
        <time>2011-01-20T09:11:04Z</time>
      </trkpt>
      <trkpt lat="45.35159" lon="4.43849">
        <ele>993</ele>
        <time>2011-01-20T09:11:10Z</time>
      </trkpt>
      <trkpt lat="45.35154" lon="4.43841">
        <ele>993</ele>
        <time>2011-01-20T09:11:16Z</time>
      </trkpt>
      <trkpt lat="45.35149" lon="4.43832">
        <ele>990</ele>
        <time>2011-01-20T09:11:22Z</time>
      </trkpt>
      <trkpt lat="45.35144" lon="4.43822">
        <ele>990</ele>
        <time>2011-01-20T09:11:29Z</time>
      </trkpt>
      <trkpt lat="45.35143" lon="4.4382">
        <ele>990</ele>
        <time>2011-01-20T09:11:30Z</time>
      </trkpt>
      <trkpt lat="45.35134" lon="4.43803">
        <ele>989</ele>
        <time>2011-01-20T09:11:42Z</time>
      </trkpt>
      <trkpt lat="45.35129" lon="4.43793">
        <ele>988</ele>
        <time>2011-01-20T09:11:49Z</time>
      </trkpt>
      <trkpt lat="45.35125" lon="4.43783">
        <ele>988</ele>
        <time>2011-01-20T09:11:55Z</time>
      </trkpt>
      <trkpt lat="45.3512" lon="4.43773">
        <ele>988</ele>
        <time>2011-01-20T09:12:03Z</time>
      </trkpt>
      <trkpt lat="45.35116" lon="4.43762">
        <ele>987</ele>
        <time>2011-01-20T09:12:11Z</time>
      </trkpt>
      <trkpt lat="45.35112" lon="4.43751">
        <ele>987</ele>
        <time>2011-01-20T09:12:18Z</time>
      </trkpt>
      <trkpt lat="45.35108" lon="4.4374">
        <ele>985</ele>
        <time>2011-01-20T09:12:27Z</time>
      </trkpt>
      <trkpt lat="45.35105" lon="4.43729">
        <ele>985</ele>
        <time>2011-01-20T09:12:34Z</time>
      </trkpt>
      <trkpt lat="45.35104" lon="4.43728">
        <ele>985</ele>
        <time>2011-01-20T09:12:35Z</time>
      </trkpt>
      <trkpt lat="45.35096" lon="4.43709">
        <ele>984</ele>
        <time>2011-01-20T09:12:47Z</time>
      </trkpt>
      <trkpt lat="45.35091" lon="4.43698">
        <ele>984</ele>
        <time>2011-01-20T09:12:54Z</time>
      </trkpt>
      <trkpt lat="45.35087" lon="4.43688">
        <ele>984</ele>
        <time>2011-01-20T09:13:01Z</time>
      </trkpt>
      <trkpt lat="45.35082" lon="4.43678">
        <ele>981</ele>
        <time>2011-01-20T09:13:08Z</time>
      </trkpt>
      <trkpt lat="45.35078" lon="4.43668">
        <ele>982</ele>
        <time>2011-01-20T09:13:14Z</time>
      </trkpt>
      <trkpt lat="45.35074" lon="4.43658">
        <ele>981</ele>
        <time>2011-01-20T09:13:20Z</time>
      </trkpt>
      <trkpt lat="45.3507" lon="4.43648">
        <ele>980</ele>
        <time>2011-01-20T09:13:26Z</time>
      </trkpt>
      <trkpt lat="45.35066" lon="4.43638">
        <ele>980</ele>
        <time>2011-01-20T09:13:32Z</time>
      </trkpt>
      <trkpt lat="45.35061" lon="4.43629">
        <ele>980</ele>
        <time>2011-01-20T09:13:38Z</time>
      </trkpt>
      <trkpt lat="45.3506" lon="4.43628">
        <ele>980</ele>
        <time>2011-01-20T09:13:39Z</time>
      </trkpt>
      <trkpt lat="45.3505" lon="4.43612">
        <ele>979</ele>
        <time>2011-01-20T09:13:50Z</time>
      </trkpt>
      <trkpt lat="45.35044" lon="4.43604">
        <ele>979</ele>
        <time>2011-01-20T09:13:56Z</time>
      </trkpt>
      <trkpt lat="45.35038" lon="4.43596">
        <ele>979</ele>
        <time>2011-01-20T09:14:02Z</time>
      </trkpt>
      <trkpt lat="45.35032" lon="4.43589">
        <ele>978</ele>
        <time>2011-01-20T09:14:08Z</time>
      </trkpt>
      <trkpt lat="45.35026" lon="4.4358">
        <ele>978</ele>
        <time>2011-01-20T09:14:14Z</time>
      </trkpt>
      <trkpt lat="45.3502" lon="4.43572">
        <ele>978</ele>
        <time>2011-01-20T09:14:20Z</time>
      </trkpt>
      <trkpt lat="45.35015" lon="4.43564">
        <ele>978</ele>
        <time>2011-01-20T09:14:26Z</time>
      </trkpt>
      <trkpt lat="45.35009" lon="4.43555">
        <ele>978</ele>
        <time>2011-01-20T09:14:33Z</time>
      </trkpt>
      <trkpt lat="45.35004" lon="4.43546">
        <ele>978</ele>
        <time>2011-01-20T09:14:39Z</time>
      </trkpt>
      <trkpt lat="45.34999" lon="4.43536">
        <ele>975</ele>
        <time>2011-01-20T09:14:45Z</time>
      </trkpt>
      <trkpt lat="45.34999" lon="4.43534">
        <ele>975</ele>
        <time>2011-01-20T09:14:46Z</time>
      </trkpt>
      <trkpt lat="45.34992" lon="4.43516">
        <ele>975</ele>
        <time>2011-01-20T09:14:57Z</time>
      </trkpt>
      <trkpt lat="45.3499" lon="4.43504">
        <ele>975</ele>
        <time>2011-01-20T09:15:04Z</time>
      </trkpt>
      <trkpt lat="45.34986" lon="4.43493">
        <ele>976</ele>
        <time>2011-01-20T09:15:15Z</time>
      </trkpt>
      <trkpt lat="45.34983" lon="4.43482">
        <ele>977</ele>
        <time>2011-01-20T09:15:23Z</time>
      </trkpt>
      <trkpt lat="45.34979" lon="4.43471">
        <ele>977</ele>
        <time>2011-01-20T09:15:30Z</time>
      </trkpt>
      <trkpt lat="45.34975" lon="4.43461">
        <ele>977</ele>
        <time>2011-01-20T09:15:38Z</time>
      </trkpt>
      <trkpt lat="45.34971" lon="4.4345">
        <ele>977</ele>
        <time>2011-01-20T09:15:45Z</time>
      </trkpt>
      <trkpt lat="45.3497" lon="4.43438">
        <ele>978</ele>
        <time>2011-01-20T09:15:52Z</time>
      </trkpt>
      <trkpt lat="45.3497" lon="4.43436">
        <ele>978</ele>
        <time>2011-01-20T09:15:53Z</time>
      </trkpt>
      <trkpt lat="45.34977" lon="4.43416">
        <ele>979</ele>
        <time>2011-01-20T09:16:07Z</time>
      </trkpt>
      <trkpt lat="45.34981" lon="4.43406">
        <ele>979</ele>
        <time>2011-01-20T09:16:13Z</time>
      </trkpt>
      <trkpt lat="45.34987" lon="4.43398">
        <ele>979</ele>
        <time>2011-01-20T09:16:20Z</time>
      </trkpt>
      <trkpt lat="45.34993" lon="4.43388">
        <ele>979</ele>
        <time>2011-01-20T09:16:27Z</time>
      </trkpt>
      <trkpt lat="45.34999" lon="4.4338">
        <ele>980</ele>
        <time>2011-01-20T09:16:34Z</time>
      </trkpt>
      <trkpt lat="45.35007" lon="4.43373">
        <ele>981</ele>
        <time>2011-01-20T09:16:41Z</time>
      </trkpt>
      <trkpt lat="45.35014" lon="4.43366">
        <ele>981</ele>
        <time>2011-01-20T09:16:48Z</time>
      </trkpt>
      <trkpt lat="45.35022" lon="4.43361">
        <ele>981</ele>
        <time>2011-01-20T09:16:55Z</time>
      </trkpt>
      <trkpt lat="45.35023" lon="4.4336">
        <ele>981</ele>
        <time>2011-01-20T09:16:56Z</time>
      </trkpt>
      <trkpt lat="45.35038" lon="4.4335">
        <ele>981</ele>
        <time>2011-01-20T09:17:09Z</time>
      </trkpt>
      <trkpt lat="45.35046" lon="4.43346">
        <ele>982</ele>
        <time>2011-01-20T09:17:16Z</time>
      </trkpt>
      <trkpt lat="45.35053" lon="4.43341">
        <ele>982</ele>
        <time>2011-01-20T09:17:23Z</time>
      </trkpt>
      <trkpt lat="45.35061" lon="4.43336">
        <ele>982</ele>
        <time>2011-01-20T09:17:30Z</time>
      </trkpt>
      <trkpt lat="45.35068" lon="4.43331">
        <ele>984</ele>
        <time>2011-01-20T09:17:37Z</time>
      </trkpt>
      <trkpt lat="45.35075" lon="4.43327">
        <ele>984</ele>
        <time>2011-01-20T09:17:44Z</time>
      </trkpt>
      <trkpt lat="45.35082" lon="4.43321">
        <ele>984</ele>
        <time>2011-01-20T09:17:51Z</time>
      </trkpt>
      <trkpt lat="45.35089" lon="4.43315">
        <ele>986</ele>
        <time>2011-01-20T09:17:58Z</time>
      </trkpt>
      <trkpt lat="45.3509" lon="4.43314">
        <ele>986</ele>
        <time>2011-01-20T09:17:59Z</time>
      </trkpt>
      <trkpt lat="45.35103" lon="4.43301">
        <ele>987</ele>
        <time>2011-01-20T09:18:12Z</time>
      </trkpt>
      <trkpt lat="45.3511" lon="4.43294">
        <ele>987</ele>
        <time>2011-01-20T09:18:20Z</time>
      </trkpt>
      <trkpt lat="45.35117" lon="4.43287">
        <ele>988</ele>
        <time>2011-01-20T09:18:27Z</time>
      </trkpt>
      <trkpt lat="45.35123" lon="4.4328">
        <ele>988</ele>
        <time>2011-01-20T09:18:34Z</time>
      </trkpt>
      <trkpt lat="45.3513" lon="4.43272">
        <ele>988</ele>
        <time>2011-01-20T09:18:41Z</time>
      </trkpt>
      <trkpt lat="45.35136" lon="4.43265">
        <ele>989</ele>
        <time>2011-01-20T09:18:49Z</time>
      </trkpt>
      <trkpt lat="45.35143" lon="4.43257">
        <ele>989</ele>
        <time>2011-01-20T09:18:57Z</time>
      </trkpt>
      <trkpt lat="45.35151" lon="4.4325">
        <ele>991</ele>
        <time>2011-01-20T09:19:05Z</time>
      </trkpt>
      <trkpt lat="45.35152" lon="4.43249">
        <ele>991</ele>
        <time>2011-01-20T09:19:06Z</time>
      </trkpt>
      <trkpt lat="45.35164" lon="4.43235">
        <ele>991</ele>
        <time>2011-01-20T09:19:20Z</time>
      </trkpt>
      <trkpt lat="45.35172" lon="4.43228">
        <ele>995</ele>
        <time>2011-01-20T09:19:28Z</time>
      </trkpt>
      <trkpt lat="45.35178" lon="4.43221">
        <ele>995</ele>
        <time>2011-01-20T09:19:35Z</time>
      </trkpt>
      <trkpt lat="45.35185" lon="4.43215">
        <ele>996</ele>
        <time>2011-01-20T09:19:42Z</time>
      </trkpt>
      <trkpt lat="45.35192" lon="4.43208">
        <ele>996</ele>
        <time>2011-01-20T09:19:50Z</time>
      </trkpt>
      <trkpt lat="45.35199" lon="4.43203">
        <ele>996</ele>
        <time>2011-01-20T09:19:58Z</time>
      </trkpt>
      <trkpt lat="45.35207" lon="4.43198">
        <ele>997</ele>
        <time>2011-01-20T09:20:06Z</time>
      </trkpt>
      <trkpt lat="45.35215" lon="4.43192">
        <ele>997</ele>
        <time>2011-01-20T09:20:15Z</time>
      </trkpt>
      <trkpt lat="45.35216" lon="4.43192">
        <ele>997</ele>
        <time>2011-01-20T09:20:16Z</time>
      </trkpt>
      <trkpt lat="45.35231" lon="4.43185">
        <ele>999</ele>
        <time>2011-01-20T09:20:34Z</time>
      </trkpt>
      <trkpt lat="45.35239" lon="4.43182">
        <ele>999</ele>
        <time>2011-01-20T09:20:44Z</time>
      </trkpt>
      <trkpt lat="45.35248" lon="4.4318">
        <ele>1000</ele>
        <time>2011-01-20T09:20:53Z</time>
      </trkpt>
      <trkpt lat="45.35256" lon="4.43176">
        <ele>1004</ele>
        <time>2011-01-20T09:21:03Z</time>
      </trkpt>
      <trkpt lat="45.35264" lon="4.43171">
        <ele>1005</ele>
        <time>2011-01-20T09:22:33Z</time>
      </trkpt>
      <trkpt lat="45.35265" lon="4.4317">
        <ele>1005</ele>
        <time>2011-01-20T09:22:34Z</time>
      </trkpt>
      <trkpt lat="45.35275" lon="4.43152">
        <ele>1008</ele>
        <time>2011-01-20T09:22:49Z</time>
      </trkpt>
      <trkpt lat="45.3528" lon="4.43143">
        <ele>1009</ele>
        <time>2011-01-20T09:22:57Z</time>
      </trkpt>
      <trkpt lat="45.35285" lon="4.43133">
        <ele>1009</ele>
        <time>2011-01-20T09:23:04Z</time>
      </trkpt>
      <trkpt lat="45.35289" lon="4.43123">
        <ele>1010</ele>
        <time>2011-01-20T09:23:11Z</time>
      </trkpt>
      <trkpt lat="45.35293" lon="4.43112">
        <ele>1010</ele>
        <time>2011-01-20T09:23:19Z</time>
      </trkpt>
      <trkpt lat="45.35296" lon="4.43101">
        <ele>1011</ele>
        <time>2011-01-20T09:23:27Z</time>
      </trkpt>
      <trkpt lat="45.35299" lon="4.4309">
        <ele>1012</ele>
        <time>2011-01-20T09:23:34Z</time>
      </trkpt>
      <trkpt lat="45.353" lon="4.43089">
        <ele>1012</ele>
        <time>2011-01-20T09:23:35Z</time>
      </trkpt>
      <trkpt lat="45.35307" lon="4.43068">
        <ele>1013</ele>
        <time>2011-01-20T09:23:52Z</time>
      </trkpt>
      <trkpt lat="45.35306" lon="4.43056">
        <ele>1013</ele>
        <time>2011-01-20T09:23:58Z</time>
      </trkpt>
      <trkpt lat="45.35308" lon="4.43045">
        <ele>1013</ele>
        <time>2011-01-20T09:24:05Z</time>
      </trkpt>
      <trkpt lat="45.35311" lon="4.43034">
        <ele>1013</ele>
        <time>2011-01-20T09:24:13Z</time>
      </trkpt>
      <trkpt lat="45.35311" lon="4.43022">
        <ele>1014</ele>
        <time>2011-01-20T09:24:19Z</time>
      </trkpt>
      <trkpt lat="45.35315" lon="4.43011">
        <ele>1015</ele>
        <time>2011-01-20T09:24:27Z</time>
      </trkpt>
      <trkpt lat="45.35318" lon="4.43">
        <ele>1016</ele>
        <time>2011-01-20T09:24:34Z</time>
      </trkpt>
      <trkpt lat="45.3532" lon="4.42988">
        <ele>1016</ele>
        <time>2011-01-20T09:24:42Z</time>
      </trkpt>
      <trkpt lat="45.3532" lon="4.42987">
        <ele>1016</ele>
        <time>2011-01-20T09:24:43Z</time>
      </trkpt>
      <trkpt lat="45.35321" lon="4.42965">
        <ele>1014</ele>
        <time>2011-01-20T09:24:55Z</time>
      </trkpt>
      <trkpt lat="45.35323" lon="4.42953">
        <ele>1014</ele>
        <time>2011-01-20T09:25:02Z</time>
      </trkpt>
      <trkpt lat="45.35324" lon="4.42941">
        <ele>1015</ele>
        <time>2011-01-20T09:25:09Z</time>
      </trkpt>
      <trkpt lat="45.35326" lon="4.4293">
        <ele>1016</ele>
        <time>2011-01-20T09:25:15Z</time>
      </trkpt>
      <trkpt lat="45.35327" lon="4.42919">
        <ele>1017</ele>
        <time>2011-01-20T09:25:21Z</time>
      </trkpt>
      <trkpt lat="45.35328" lon="4.42907">
        <ele>1017</ele>
        <time>2011-01-20T09:25:28Z</time>
      </trkpt>
      <trkpt lat="45.3533" lon="4.42895">
        <ele>1015</ele>
        <time>2011-01-20T09:25:35Z</time>
      </trkpt>
      <trkpt lat="45.35331" lon="4.42882">
        <ele>1015</ele>
        <time>2011-01-20T09:25:42Z</time>
      </trkpt>
      <trkpt lat="45.35331" lon="4.4288">
        <ele>1015</ele>
        <time>2011-01-20T09:25:43Z</time>
      </trkpt>
      <trkpt lat="45.35332" lon="4.4286">
        <ele>1015</ele>
        <time>2011-01-20T09:25:54Z</time>
      </trkpt>
      <trkpt lat="45.35332" lon="4.42847">
        <ele>1016</ele>
        <time>2011-01-20T09:26:01Z</time>
      </trkpt>
      <trkpt lat="45.35332" lon="4.42834">
        <ele>1018</ele>
        <time>2011-01-20T09:26:08Z</time>
      </trkpt>
      <trkpt lat="45.35332" lon="4.42822">
        <ele>1017</ele>
        <time>2011-01-20T09:26:15Z</time>
      </trkpt>
      <trkpt lat="45.35331" lon="4.42809">
        <ele>1016</ele>
        <time>2011-01-20T09:26:22Z</time>
      </trkpt>
      <trkpt lat="45.35332" lon="4.42797">
        <ele>1015</ele>
        <time>2011-01-20T09:26:29Z</time>
      </trkpt>
      <trkpt lat="45.35333" lon="4.42786">
        <ele>1015</ele>
        <time>2011-01-20T09:26:36Z</time>
      </trkpt>
      <trkpt lat="45.35334" lon="4.42774">
        <ele>1024</ele>
        <time>2011-01-20T09:26:43Z</time>
      </trkpt>
      <trkpt lat="45.35334" lon="4.42772">
        <ele>1024</ele>
        <time>2011-01-20T09:26:44Z</time>
      </trkpt>
      <trkpt lat="45.35336" lon="4.42751">
        <ele>1021</ele>
        <time>2011-01-20T09:26:57Z</time>
      </trkpt>
      <trkpt lat="45.35339" lon="4.42739">
        <ele>1024</ele>
        <time>2011-01-20T09:27:05Z</time>
      </trkpt>
      <trkpt lat="45.35342" lon="4.42728">
        <ele>1026</ele>
        <time>2011-01-20T09:27:14Z</time>
      </trkpt>
      <trkpt lat="45.35345" lon="4.42717">
        <ele>1028</ele>
        <time>2011-01-20T09:27:23Z</time>
      </trkpt>
      <trkpt lat="45.35348" lon="4.42706">
        <ele>1028</ele>
        <time>2011-01-20T09:27:31Z</time>
      </trkpt>
      <trkpt lat="45.35351" lon="4.42695">
        <ele>1029</ele>
        <time>2011-01-20T09:27:38Z</time>
      </trkpt>
      <trkpt lat="45.35351" lon="4.42683">
        <ele>1029</ele>
        <time>2011-01-20T09:27:45Z</time>
      </trkpt>
      <trkpt lat="45.3535" lon="4.4268">
        <ele>1028</ele>
        <time>2011-01-20T09:27:46Z</time>
      </trkpt>
      <trkpt lat="45.35352" lon="4.42661">
        <ele>1031</ele>
        <time>2011-01-20T09:28:21Z</time>
      </trkpt>
      <trkpt lat="45.35357" lon="4.4265">
        <ele>1033</ele>
        <time>2011-01-20T09:28:28Z</time>
      </trkpt>
      <trkpt lat="45.35356" lon="4.42638">
        <ele>1034</ele>
        <time>2011-01-20T09:28:37Z</time>
      </trkpt>
      <trkpt lat="45.35359" lon="4.42627">
        <ele>1035</ele>
        <time>2011-01-20T09:28:48Z</time>
      </trkpt>
      <trkpt lat="45.35358" lon="4.42625">
        <ele>1035</ele>
        <time>2011-01-20T09:28:49Z</time>
      </trkpt>
      <trkpt lat="45.3536" lon="4.42623">
        <ele>1035</ele>
        <time>2011-01-20T09:29:30Z</time>
      </trkpt>
      <trkpt lat="45.35367" lon="4.4263">
        <ele>1036</ele>
        <time>2011-01-20T09:29:38Z</time>
      </trkpt>
      <trkpt lat="45.35375" lon="4.42633">
        <ele>1037</ele>
        <time>2011-01-20T09:29:46Z</time>
      </trkpt>
      <trkpt lat="45.35383" lon="4.42639">
        <ele>1037</ele>
        <time>2011-01-20T09:29:52Z</time>
      </trkpt>
      <trkpt lat="45.35384" lon="4.4264">
        <ele>1038</ele>
        <time>2011-01-20T09:29:53Z</time>
      </trkpt>
      <trkpt lat="45.35395" lon="4.42655">
        <ele>1039</ele>
        <time>2011-01-20T09:30:06Z</time>
      </trkpt>
      <trkpt lat="45.35401" lon="4.42664">
        <ele>1040</ele>
        <time>2011-01-20T09:30:16Z</time>
      </trkpt>
      <trkpt lat="45.35409" lon="4.4267">
        <ele>1040</ele>
        <time>2011-01-20T09:30:30Z</time>
      </trkpt>
      <trkpt lat="45.35415" lon="4.42679">
        <ele>1039</ele>
        <time>2011-01-20T09:30:45Z</time>
      </trkpt>
      <trkpt lat="45.35422" lon="4.42688">
        <ele>1045</ele>
        <time>2011-01-20T09:30:56Z</time>
      </trkpt>
      <trkpt lat="45.35422" lon="4.42688">
        <ele>1045</ele>
        <time>2011-01-20T09:30:57Z</time>
      </trkpt>
      <trkpt lat="45.35438" lon="4.42696">
        <ele>1046</ele>
        <time>2011-01-20T09:31:16Z</time>
      </trkpt>
      <trkpt lat="45.35446" lon="4.42699">
        <ele>1046</ele>
        <time>2011-01-20T09:31:27Z</time>
      </trkpt>
      <trkpt lat="45.35455" lon="4.42703">
        <ele>1047</ele>
        <time>2011-01-20T09:31:41Z</time>
      </trkpt>
      <trkpt lat="45.35462" lon="4.42708">
        <ele>1047</ele>
        <time>2011-01-20T09:31:52Z</time>
      </trkpt>
      <trkpt lat="45.3547" lon="4.42713">
        <ele>1048</ele>
        <time>2011-01-20T09:32:02Z</time>
      </trkpt>
      <trkpt lat="45.35471" lon="4.42713">
        <ele>1048</ele>
        <time>2011-01-20T09:32:03Z</time>
      </trkpt>
      <trkpt lat="45.35487" lon="4.42713">
        <ele>1049</ele>
        <time>2011-01-20T09:32:42Z</time>
      </trkpt>
      <trkpt lat="45.35496" lon="4.42711">
        <ele>1049</ele>
        <time>2011-01-20T09:33:34Z</time>
      </trkpt>
      <trkpt lat="45.35496" lon="4.42711">
        <ele>1050</ele>
        <time>2011-01-20T09:33:35Z</time>
      </trkpt>
      <trkpt lat="45.35511" lon="4.42702">
        <ele>1057</ele>
        <time>2011-01-20T09:33:56Z</time>
      </trkpt>
      <trkpt lat="45.35518" lon="4.42696">
        <ele>1057</ele>
        <time>2011-01-20T09:34:04Z</time>
      </trkpt>
      <trkpt lat="45.35524" lon="4.42687">
        <ele>1057</ele>
        <time>2011-01-20T09:34:12Z</time>
      </trkpt>
      <trkpt lat="45.3553" lon="4.42677">
        <ele>1057</ele>
        <time>2011-01-20T09:34:21Z</time>
      </trkpt>
      <trkpt lat="45.35534" lon="4.42667">
        <ele>1057</ele>
        <time>2011-01-20T09:34:31Z</time>
      </trkpt>
      <trkpt lat="45.35539" lon="4.42658">
        <ele>1057</ele>
        <time>2011-01-20T09:34:42Z</time>
      </trkpt>
      <trkpt lat="45.3554" lon="4.42657">
        <ele>1057</ele>
        <time>2011-01-20T09:34:43Z</time>
      </trkpt>
      <trkpt lat="45.35552" lon="4.42641">
        <ele>1058</ele>
        <time>2011-01-20T09:35:00Z</time>
      </trkpt>
      <trkpt lat="45.35559" lon="4.42634">
        <ele>1058</ele>
        <time>2011-01-20T09:35:09Z</time>
      </trkpt>
      <trkpt lat="45.35567" lon="4.42631">
        <ele>1058</ele>
        <time>2011-01-20T09:35:48Z</time>
      </trkpt>
      <trkpt lat="45.35568" lon="4.4263">
        <ele>1058</ele>
        <time>2011-01-20T09:35:49Z</time>
      </trkpt>
      <trkpt lat="45.35583" lon="4.42629">
        <ele>1058</ele>
        <time>2011-01-20T09:36:04Z</time>
      </trkpt>
      <trkpt lat="45.35591" lon="4.42631">
        <ele>1061</ele>
        <time>2011-01-20T09:36:12Z</time>
      </trkpt>
      <trkpt lat="45.356" lon="4.42634">
        <ele>1061</ele>
        <time>2011-01-20T09:36:23Z</time>
      </trkpt>
      <trkpt lat="45.35607" lon="4.42639">
        <ele>1061</ele>
        <time>2011-01-20T09:36:34Z</time>
      </trkpt>
      <trkpt lat="45.35614" lon="4.42644">
        <ele>1061</ele>
        <time>2011-01-20T09:36:50Z</time>
      </trkpt>
      <trkpt lat="45.35615" lon="4.42645">
        <ele>1061</ele>
        <time>2011-01-20T09:36:51Z</time>
      </trkpt>
      <trkpt lat="45.35606" lon="4.42648">
        <ele>1061</ele>
        <time>2011-01-20T09:39:59Z</time>
      </trkpt>
      <trkpt lat="45.35607" lon="4.42648">
        <ele>1061</ele>
        <time>2011-01-20T09:41:22Z</time>
      </trkpt>
      <trkpt lat="45.35607" lon="4.42648">
        <ele>1061</ele>
        <time>2011-01-20T09:41:23Z</time>
      </trkpt>
      <trkpt lat="45.35623" lon="4.4264">
        <ele>1061</ele>
        <time>2011-01-20T09:45:03Z</time>
      </trkpt>
      <trkpt lat="45.35623" lon="4.4264">
        <ele>1061</ele>
        <time>2011-01-20T09:45:04Z</time>
      </trkpt>
      <trkpt lat="45.35631" lon="4.42634">
        <ele>1061</ele>
        <time>2011-01-20T09:46:08Z</time>
      </trkpt>
      <trkpt lat="45.35622" lon="4.42637">
        <ele>1061</ele>
        <time>2011-01-20T09:47:17Z</time>
      </trkpt>
      <trkpt lat="45.35632" lon="4.42634">
        <ele>1061</ele>
        <time>2011-01-20T09:50:20Z</time>
      </trkpt>
      <trkpt lat="45.35643" lon="4.42616">
        <ele>1060</ele>
        <time>2011-01-20T09:50:45Z</time>
      </trkpt>
      <trkpt lat="45.35651" lon="4.4261">
        <ele>1060</ele>
        <time>2011-01-20T09:50:54Z</time>
      </trkpt>
      <trkpt lat="45.35658" lon="4.42603">
        <ele>1059</ele>
        <time>2011-01-20T09:51:02Z</time>
      </trkpt>
      <trkpt lat="45.35664" lon="4.42597">
        <ele>1059</ele>
        <time>2011-01-20T09:51:10Z</time>
      </trkpt>
      <trkpt lat="45.35671" lon="4.42589">
        <ele>1058</ele>
        <time>2011-01-20T09:51:18Z</time>
      </trkpt>
      <trkpt lat="45.35678" lon="4.42582">
        <ele>1056</ele>
        <time>2011-01-20T09:51:27Z</time>
      </trkpt>
      <trkpt lat="45.35679" lon="4.42581">
        <ele>1056</ele>
        <time>2011-01-20T09:51:28Z</time>
      </trkpt>
      <trkpt lat="45.35692" lon="4.42567">
        <ele>1056</ele>
        <time>2011-01-20T09:51:42Z</time>
      </trkpt>
      <trkpt lat="45.35699" lon="4.42559">
        <ele>1056</ele>
        <time>2011-01-20T09:51:49Z</time>
      </trkpt>
      <trkpt lat="45.35705" lon="4.42551">
        <ele>1056</ele>
        <time>2011-01-20T09:51:56Z</time>
      </trkpt>
      <trkpt lat="45.35711" lon="4.42544">
        <ele>1055</ele>
        <time>2011-01-20T09:52:03Z</time>
      </trkpt>
      <trkpt lat="45.35713" lon="4.42532">
        <ele>1055</ele>
        <time>2011-01-20T09:52:12Z</time>
      </trkpt>
      <trkpt lat="45.3572" lon="4.42524">
        <ele>1055</ele>
        <time>2011-01-20T09:52:21Z</time>
      </trkpt>
      <trkpt lat="45.35726" lon="4.42515">
        <ele>1055</ele>
        <time>2011-01-20T09:52:29Z</time>
      </trkpt>
      <trkpt lat="45.35727" lon="4.42514">
        <ele>1055</ele>
        <time>2011-01-20T09:52:30Z</time>
      </trkpt>
      <trkpt lat="45.35738" lon="4.425">
        <ele>1054</ele>
        <time>2011-01-20T09:52:43Z</time>
      </trkpt>
      <trkpt lat="45.35743" lon="4.42491">
        <ele>1054</ele>
        <time>2011-01-20T09:52:51Z</time>
      </trkpt>
      <trkpt lat="45.35749" lon="4.4248">
        <ele>1054</ele>
        <time>2011-01-20T09:52:59Z</time>
      </trkpt>
      <trkpt lat="45.35752" lon="4.4247">
        <ele>1054</ele>
        <time>2011-01-20T09:53:06Z</time>
      </trkpt>
      <trkpt lat="45.35759" lon="4.42478">
        <ele>1054</ele>
        <time>2011-01-20T09:53:19Z</time>
      </trkpt>
      <trkpt lat="45.35762" lon="4.42488">
        <ele>1053</ele>
        <time>2011-01-20T09:53:26Z</time>
      </trkpt>
      <trkpt lat="45.35767" lon="4.42497">
        <ele>1053</ele>
        <time>2011-01-20T09:53:33Z</time>
      </trkpt>
      <trkpt lat="45.35768" lon="4.42498">
        <ele>1053</ele>
        <time>2011-01-20T09:53:34Z</time>
      </trkpt>
      <trkpt lat="45.35778" lon="4.42516">
        <ele>1054</ele>
        <time>2011-01-20T09:53:48Z</time>
      </trkpt>
      <trkpt lat="45.35782" lon="4.42526">
        <ele>1054</ele>
        <time>2011-01-20T09:53:55Z</time>
      </trkpt>
      <trkpt lat="45.35785" lon="4.42536">
        <ele>1055</ele>
        <time>2011-01-20T09:54:00Z</time>
      </trkpt>
      <trkpt lat="45.35789" lon="4.42547">
        <ele>1055</ele>
        <time>2011-01-20T09:54:05Z</time>
      </trkpt>
      <trkpt lat="45.35794" lon="4.42556">
        <ele>1055</ele>
        <time>2011-01-20T09:54:11Z</time>
      </trkpt>
      <trkpt lat="45.35798" lon="4.42566">
        <ele>1055</ele>
        <time>2011-01-20T09:54:17Z</time>
      </trkpt>
      <trkpt lat="45.35803" lon="4.42576">
        <ele>1056</ele>
        <time>2011-01-20T09:54:24Z</time>
      </trkpt>
      <trkpt lat="45.35808" lon="4.42586">
        <ele>1060</ele>
        <time>2011-01-20T09:54:33Z</time>
      </trkpt>
      <trkpt lat="45.35813" lon="4.42596">
        <ele>1060</ele>
        <time>2011-01-20T09:54:40Z</time>
      </trkpt>
      <trkpt lat="45.35814" lon="4.42598">
        <ele>1060</ele>
        <time>2011-01-20T09:54:41Z</time>
      </trkpt>
      <trkpt lat="45.35823" lon="4.42614">
        <ele>1061</ele>
        <time>2011-01-20T09:54:54Z</time>
      </trkpt>
      <trkpt lat="45.35827" lon="4.42624">
        <ele>1062</ele>
        <time>2011-01-20T09:55:01Z</time>
      </trkpt>
      <trkpt lat="45.35832" lon="4.42634">
        <ele>1063</ele>
        <time>2011-01-20T09:55:08Z</time>
      </trkpt>
      <trkpt lat="45.35839" lon="4.42642">
        <ele>1063</ele>
        <time>2011-01-20T09:55:15Z</time>
      </trkpt>
      <trkpt lat="45.35845" lon="4.4265">
        <ele>1064</ele>
        <time>2011-01-20T09:55:23Z</time>
      </trkpt>
      <trkpt lat="45.35852" lon="4.42657">
        <ele>1064</ele>
        <time>2011-01-20T09:55:31Z</time>
      </trkpt>
      <trkpt lat="45.35861" lon="4.42659">
        <ele>1063</ele>
        <time>2011-01-20T09:55:37Z</time>
      </trkpt>
      <trkpt lat="45.35869" lon="4.42662">
        <ele>1063</ele>
        <time>2011-01-20T09:55:43Z</time>
      </trkpt>
      <trkpt lat="45.3587" lon="4.42663">
        <ele>1063</ele>
        <time>2011-01-20T09:55:44Z</time>
      </trkpt>
      <trkpt lat="45.35886" lon="4.42668">
        <ele>1069</ele>
        <time>2011-01-20T09:55:58Z</time>
      </trkpt>
      <trkpt lat="45.35894" lon="4.42673">
        <ele>1068</ele>
        <time>2011-01-20T09:56:06Z</time>
      </trkpt>
      <trkpt lat="45.35901" lon="4.42678">
        <ele>1068</ele>
        <time>2011-01-20T09:56:14Z</time>
      </trkpt>
      <trkpt lat="45.35908" lon="4.42682">
        <ele>1068</ele>
        <time>2011-01-20T09:56:20Z</time>
      </trkpt>
      <trkpt lat="45.35916" lon="4.42688">
        <ele>1069</ele>
        <time>2011-01-20T09:56:28Z</time>
      </trkpt>
      <trkpt lat="45.35923" lon="4.42691">
        <ele>1067</ele>
        <time>2011-01-20T09:56:33Z</time>
      </trkpt>
      <trkpt lat="45.35931" lon="4.42693">
        <ele>1067</ele>
        <time>2011-01-20T09:56:39Z</time>
      </trkpt>
      <trkpt lat="45.35938" lon="4.42697">
        <ele>1067</ele>
        <time>2011-01-20T09:56:46Z</time>
      </trkpt>
      <trkpt lat="45.35939" lon="4.42698">
        <ele>1067</ele>
        <time>2011-01-20T09:56:47Z</time>
      </trkpt>
      <trkpt lat="45.35953" lon="4.42707">
        <ele>1067</ele>
        <time>2011-01-20T09:57:00Z</time>
      </trkpt>
      <trkpt lat="45.35962" lon="4.42709">
        <ele>1067</ele>
        <time>2011-01-20T09:57:05Z</time>
      </trkpt>
      <trkpt lat="45.3597" lon="4.42713">
        <ele>1067</ele>
        <time>2011-01-20T09:57:11Z</time>
      </trkpt>
      <trkpt lat="45.35977" lon="4.42719">
        <ele>1067</ele>
        <time>2011-01-20T09:57:19Z</time>
      </trkpt>
      <trkpt lat="45.35985" lon="4.42721">
        <ele>1067</ele>
        <time>2011-01-20T09:57:23Z</time>
      </trkpt>
      <trkpt lat="45.35993" lon="4.42723">
        <ele>1067</ele>
        <time>2011-01-20T09:57:28Z</time>
      </trkpt>
      <trkpt lat="45.36001" lon="4.42725">
        <ele>1064</ele>
        <time>2011-01-20T09:57:33Z</time>
      </trkpt>
      <trkpt lat="45.36008" lon="4.42731">
        <ele>1065</ele>
        <time>2011-01-20T09:57:40Z</time>
      </trkpt>
      <trkpt lat="45.36015" lon="4.42737">
        <ele>1065</ele>
        <time>2011-01-20T09:57:48Z</time>
      </trkpt>
      <trkpt lat="45.36016" lon="4.42737">
        <ele>1065</ele>
        <time>2011-01-20T09:57:49Z</time>
      </trkpt>
      <trkpt lat="45.36031" lon="4.42744">
        <ele>1064</ele>
        <time>2011-01-20T09:58:00Z</time>
      </trkpt>
      <trkpt lat="45.36037" lon="4.42747">
        <ele>1064</ele>
        <time>2011-01-20T09:58:05Z</time>
      </trkpt>
      <trkpt lat="45.36046" lon="4.42749">
        <ele>1063</ele>
        <time>2011-01-20T09:58:10Z</time>
      </trkpt>
      <trkpt lat="45.36053" lon="4.42755">
        <ele>1068</ele>
        <time>2011-01-20T09:58:16Z</time>
      </trkpt>
      <trkpt lat="45.36059" lon="4.42763">
        <ele>1068</ele>
        <time>2011-01-20T09:58:23Z</time>
      </trkpt>
      <trkpt lat="45.36067" lon="4.42769">
        <ele>1068</ele>
        <time>2011-01-20T09:58:30Z</time>
      </trkpt>
      <trkpt lat="45.36073" lon="4.42775">
        <ele>1068</ele>
        <time>2011-01-20T09:58:36Z</time>
      </trkpt>
      <trkpt lat="45.36082" lon="4.42777">
        <ele>1068</ele>
        <time>2011-01-20T09:58:41Z</time>
      </trkpt>
      <trkpt lat="45.36087" lon="4.42785">
        <ele>1062</ele>
        <time>2011-01-20T09:58:47Z</time>
      </trkpt>
      <trkpt lat="45.36092" lon="4.42795">
        <ele>1062</ele>
        <time>2011-01-20T09:58:53Z</time>
      </trkpt>
      <trkpt lat="45.36093" lon="4.42796">
        <ele>1062</ele>
        <time>2011-01-20T09:58:54Z</time>
      </trkpt>
      <trkpt lat="45.36103" lon="4.42812">
        <ele>1062</ele>
        <time>2011-01-20T09:59:06Z</time>
      </trkpt>
      <trkpt lat="45.36107" lon="4.42823">
        <ele>1063</ele>
        <time>2011-01-20T09:59:14Z</time>
      </trkpt>
      <trkpt lat="45.3611" lon="4.42834">
        <ele>1065</ele>
        <time>2011-01-20T09:59:21Z</time>
      </trkpt>
      <trkpt lat="45.36112" lon="4.42846">
        <ele>1065</ele>
        <time>2011-01-20T09:59:26Z</time>
      </trkpt>
      <trkpt lat="45.36115" lon="4.42857">
        <ele>1064</ele>
        <time>2011-01-20T09:59:33Z</time>
      </trkpt>
      <trkpt lat="45.36117" lon="4.42869">
        <ele>1065</ele>
        <time>2011-01-20T09:59:41Z</time>
      </trkpt>
      <trkpt lat="45.36119" lon="4.42881">
        <ele>1065</ele>
        <time>2011-01-20T09:59:49Z</time>
      </trkpt>
      <trkpt lat="45.3612" lon="4.42892">
        <ele>1065</ele>
        <time>2011-01-20T09:59:55Z</time>
      </trkpt>
      <trkpt lat="45.3612" lon="4.42895">
        <ele>1065</ele>
        <time>2011-01-20T09:59:56Z</time>
      </trkpt>
      <trkpt lat="45.36122" lon="4.42916">
        <ele>1065</ele>
        <time>2011-01-20T10:00:07Z</time>
      </trkpt>
      <trkpt lat="45.36122" lon="4.42927">
        <ele>1068</ele>
        <time>2011-01-20T10:00:14Z</time>
      </trkpt>
      <trkpt lat="45.36119" lon="4.42939">
        <ele>1068</ele>
        <time>2011-01-20T10:00:22Z</time>
      </trkpt>
      <trkpt lat="45.36117" lon="4.4295">
        <ele>1068</ele>
        <time>2011-01-20T10:00:32Z</time>
      </trkpt>
      <trkpt lat="45.36115" lon="4.42962">
        <ele>1068</ele>
        <time>2011-01-20T10:00:41Z</time>
      </trkpt>
      <trkpt lat="45.36113" lon="4.42974">
        <ele>1069</ele>
        <time>2011-01-20T10:00:48Z</time>
      </trkpt>
      <trkpt lat="45.36112" lon="4.42986">
        <ele>1070</ele>
        <time>2011-01-20T10:00:58Z</time>
      </trkpt>
      <trkpt lat="45.36112" lon="4.42987">
        <ele>1070</ele>
        <time>2011-01-20T10:00:59Z</time>
      </trkpt>
      <trkpt lat="45.3611" lon="4.4301">
        <ele>1071</ele>
        <time>2011-01-20T10:01:16Z</time>
      </trkpt>
      <trkpt lat="45.36109" lon="4.43021">
        <ele>1071</ele>
        <time>2011-01-20T10:01:24Z</time>
      </trkpt>
      <trkpt lat="45.36107" lon="4.43033">
        <ele>1071</ele>
        <time>2011-01-20T10:01:30Z</time>
      </trkpt>
      <trkpt lat="45.36108" lon="4.43045">
        <ele>1071</ele>
        <time>2011-01-20T10:01:37Z</time>
      </trkpt>
      <trkpt lat="45.36107" lon="4.43058">
        <ele>1071</ele>
        <time>2011-01-20T10:01:44Z</time>
      </trkpt>
      <trkpt lat="45.36106" lon="4.4307">
        <ele>1072</ele>
        <time>2011-01-20T10:01:51Z</time>
      </trkpt>
      <trkpt lat="45.36104" lon="4.43083">
        <ele>1072</ele>
        <time>2011-01-20T10:01:59Z</time>
      </trkpt>
      <trkpt lat="45.36104" lon="4.43084">
        <ele>1073</ele>
        <time>2011-01-20T10:02:00Z</time>
      </trkpt>
      <trkpt lat="45.36104" lon="4.43107">
        <ele>1072</ele>
        <time>2011-01-20T10:02:14Z</time>
      </trkpt>
      <trkpt lat="45.36105" lon="4.43119">
        <ele>1071</ele>
        <time>2011-01-20T10:02:23Z</time>
      </trkpt>
      <trkpt lat="45.36104" lon="4.43132">
        <ele>1072</ele>
        <time>2011-01-20T10:02:32Z</time>
      </trkpt>
      <trkpt lat="45.36103" lon="4.43144">
        <ele>1072</ele>
        <time>2011-01-20T10:02:40Z</time>
      </trkpt>
      <trkpt lat="45.36103" lon="4.43157">
        <ele>1073</ele>
        <time>2011-01-20T10:02:49Z</time>
      </trkpt>
      <trkpt lat="45.36103" lon="4.43169">
        <ele>1072</ele>
        <time>2011-01-20T10:02:56Z</time>
      </trkpt>
      <trkpt lat="45.36102" lon="4.43181">
        <ele>1072</ele>
        <time>2011-01-20T10:03:04Z</time>
      </trkpt>
      <trkpt lat="45.36102" lon="4.43182">
        <ele>1072</ele>
        <time>2011-01-20T10:03:05Z</time>
      </trkpt>
      <trkpt lat="45.361" lon="4.43205">
        <ele>1071</ele>
        <time>2011-01-20T10:03:20Z</time>
      </trkpt>
      <trkpt lat="45.361" lon="4.43217">
        <ele>1071</ele>
        <time>2011-01-20T10:03:28Z</time>
      </trkpt>
      <trkpt lat="45.36099" lon="4.43229">
        <ele>1071</ele>
        <time>2011-01-20T10:03:36Z</time>
      </trkpt>
      <trkpt lat="45.36101" lon="4.43242">
        <ele>1071</ele>
        <time>2011-01-20T10:03:44Z</time>
      </trkpt>
      <trkpt lat="45.36101" lon="4.43254">
        <ele>1070</ele>
        <time>2011-01-20T10:03:51Z</time>
      </trkpt>
      <trkpt lat="45.36102" lon="4.43266">
        <ele>1069</ele>
        <time>2011-01-20T10:03:59Z</time>
      </trkpt>
      <trkpt lat="45.36105" lon="4.43279">
        <ele>1069</ele>
        <time>2011-01-20T10:04:06Z</time>
      </trkpt>
      <trkpt lat="45.36105" lon="4.4328">
        <ele>1069</ele>
        <time>2011-01-20T10:04:07Z</time>
      </trkpt>
      <trkpt lat="45.3611" lon="4.43299">
        <ele>1068</ele>
        <time>2011-01-20T10:04:17Z</time>
      </trkpt>
      <trkpt lat="45.36113" lon="4.43311">
        <ele>1068</ele>
        <time>2011-01-20T10:04:22Z</time>
      </trkpt>
      <trkpt lat="45.36117" lon="4.43321">
        <ele>1068</ele>
        <time>2011-01-20T10:04:28Z</time>
      </trkpt>
      <trkpt lat="45.36121" lon="4.4333">
        <ele>1067</ele>
        <time>2011-01-20T10:04:33Z</time>
      </trkpt>
      <trkpt lat="45.36125" lon="4.4334">
        <ele>1066</ele>
        <time>2011-01-20T10:04:38Z</time>
      </trkpt>
      <trkpt lat="45.36128" lon="4.43351">
        <ele>1065</ele>
        <time>2011-01-20T10:04:43Z</time>
      </trkpt>
      <trkpt lat="45.3613" lon="4.43362">
        <ele>1065</ele>
        <time>2011-01-20T10:04:46Z</time>
      </trkpt>
      <trkpt lat="45.36133" lon="4.43372">
        <ele>1065</ele>
        <time>2011-01-20T10:04:51Z</time>
      </trkpt>
      <trkpt lat="45.36135" lon="4.43384">
        <ele>1065</ele>
        <time>2011-01-20T10:04:59Z</time>
      </trkpt>
      <trkpt lat="45.36137" lon="4.43396">
        <ele>1064</ele>
        <time>2011-01-20T10:06:09Z</time>
      </trkpt>
      <trkpt lat="45.36137" lon="4.43397">
        <ele>1064</ele>
        <time>2011-01-20T10:06:10Z</time>
      </trkpt>
      <trkpt lat="45.36153" lon="4.43396">
        <ele>1064</ele>
        <time>2011-01-20T10:06:37Z</time>
      </trkpt>
      <trkpt lat="45.36161" lon="4.43402">
        <ele>1063</ele>
        <time>2011-01-20T10:06:46Z</time>
      </trkpt>
      <trkpt lat="45.3617" lon="4.43404">
        <ele>1062</ele>
        <time>2011-01-20T10:06:54Z</time>
      </trkpt>
      <trkpt lat="45.36178" lon="4.434">
        <ele>1062</ele>
        <time>2011-01-20T10:07:02Z</time>
      </trkpt>
      <trkpt lat="45.36186" lon="4.43398">
        <ele>1062</ele>
        <time>2011-01-20T10:07:08Z</time>
      </trkpt>
      <trkpt lat="45.36194" lon="4.43394">
        <ele>1062</ele>
        <time>2011-01-20T10:07:16Z</time>
      </trkpt>
      <trkpt lat="45.36195" lon="4.43393">
        <ele>1062</ele>
        <time>2011-01-20T10:07:17Z</time>
      </trkpt>
      <trkpt lat="45.36209" lon="4.43386">
        <ele>1062</ele>
        <time>2011-01-20T10:07:28Z</time>
      </trkpt>
      <trkpt lat="45.36217" lon="4.43382">
        <ele>1062</ele>
        <time>2011-01-20T10:07:35Z</time>
      </trkpt>
      <trkpt lat="45.36224" lon="4.43378">
        <ele>1062</ele>
        <time>2011-01-20T10:07:41Z</time>
      </trkpt>
      <trkpt lat="45.36232" lon="4.43374">
        <ele>1062</ele>
        <time>2011-01-20T10:07:47Z</time>
      </trkpt>
      <trkpt lat="45.3624" lon="4.43369">
        <ele>1062</ele>
        <time>2011-01-20T10:07:56Z</time>
      </trkpt>
      <trkpt lat="45.36246" lon="4.43363">
        <ele>1062</ele>
        <time>2011-01-20T10:08:02Z</time>
      </trkpt>
      <trkpt lat="45.36253" lon="4.43355">
        <ele>1062</ele>
        <time>2011-01-20T10:08:09Z</time>
      </trkpt>
      <trkpt lat="45.36258" lon="4.43345">
        <ele>1061</ele>
        <time>2011-01-20T10:08:17Z</time>
      </trkpt>
      <trkpt lat="45.36261" lon="4.43334">
        <ele>1061</ele>
        <time>2011-01-20T10:08:24Z</time>
      </trkpt>
      <trkpt lat="45.36261" lon="4.43333">
        <ele>1060</ele>
        <time>2011-01-20T10:08:25Z</time>
      </trkpt>
      <trkpt lat="45.36272" lon="4.43318">
        <ele>1059</ele>
        <time>2011-01-20T10:08:42Z</time>
      </trkpt>
      <trkpt lat="45.3628" lon="4.43311">
        <ele>1059</ele>
        <time>2011-01-20T10:08:49Z</time>
      </trkpt>
      <trkpt lat="45.36286" lon="4.43302">
        <ele>1059</ele>
        <time>2011-01-20T10:08:58Z</time>
      </trkpt>
      <trkpt lat="45.36294" lon="4.43297">
        <ele>1059</ele>
        <time>2011-01-20T10:09:06Z</time>
      </trkpt>
      <trkpt lat="45.36302" lon="4.43293">
        <ele>1059</ele>
        <time>2011-01-20T10:09:13Z</time>
      </trkpt>
      <trkpt lat="45.3631" lon="4.43292">
        <ele>1059</ele>
        <time>2011-01-20T10:09:21Z</time>
      </trkpt>
      <trkpt lat="45.36318" lon="4.43288">
        <ele>1058</ele>
        <time>2011-01-20T10:09:28Z</time>
      </trkpt>
      <trkpt lat="45.3632" lon="4.43287">
        <ele>1058</ele>
        <time>2011-01-20T10:09:29Z</time>
      </trkpt>
      <trkpt lat="45.36335" lon="4.43284">
        <ele>1059</ele>
        <time>2011-01-20T10:09:43Z</time>
      </trkpt>
      <trkpt lat="45.36342" lon="4.43285">
        <ele>1059</ele>
        <time>2011-01-20T10:09:48Z</time>
      </trkpt>
      <trkpt lat="45.36351" lon="4.43285">
        <ele>1059</ele>
        <time>2011-01-20T10:09:54Z</time>
      </trkpt>
      <trkpt lat="45.36359" lon="4.43287">
        <ele>1059</ele>
        <time>2011-01-20T10:10:00Z</time>
      </trkpt>
      <trkpt lat="45.36368" lon="4.43289">
        <ele>1060</ele>
        <time>2011-01-20T10:10:07Z</time>
      </trkpt>
      <trkpt lat="45.36375" lon="4.43293">
        <ele>1060</ele>
        <time>2011-01-20T10:10:13Z</time>
      </trkpt>
      <trkpt lat="45.36382" lon="4.43302">
        <ele>1060</ele>
        <time>2011-01-20T10:10:21Z</time>
      </trkpt>
      <trkpt lat="45.3639" lon="4.43307">
        <ele>1061</ele>
        <time>2011-01-20T10:10:28Z</time>
      </trkpt>
      <trkpt lat="45.36398" lon="4.43311">
        <ele>1061</ele>
        <time>2011-01-20T10:10:34Z</time>
      </trkpt>
      <trkpt lat="45.36399" lon="4.43312">
        <ele>1061</ele>
        <time>2011-01-20T10:10:35Z</time>
      </trkpt>
      <trkpt lat="45.36411" lon="4.43326">
        <ele>1063</ele>
        <time>2011-01-20T10:10:49Z</time>
      </trkpt>
      <trkpt lat="45.36419" lon="4.43332">
        <ele>1064</ele>
        <time>2011-01-20T10:10:55Z</time>
      </trkpt>
      <trkpt lat="45.36425" lon="4.43339">
        <ele>1064</ele>
        <time>2011-01-20T10:11:02Z</time>
      </trkpt>
      <trkpt lat="45.3643" lon="4.43348">
        <ele>1063</ele>
        <time>2011-01-20T10:11:09Z</time>
      </trkpt>
      <trkpt lat="45.36438" lon="4.43355">
        <ele>1063</ele>
        <time>2011-01-20T10:11:16Z</time>
      </trkpt>
      <trkpt lat="45.36443" lon="4.43363">
        <ele>1063</ele>
        <time>2011-01-20T10:11:23Z</time>
      </trkpt>
      <trkpt lat="45.36449" lon="4.43372">
        <ele>1063</ele>
        <time>2011-01-20T10:11:30Z</time>
      </trkpt>
      <trkpt lat="45.36455" lon="4.4338">
        <ele>1063</ele>
        <time>2011-01-20T10:11:37Z</time>
      </trkpt>
      <trkpt lat="45.36456" lon="4.43381">
        <ele>1063</ele>
        <time>2011-01-20T10:11:38Z</time>
      </trkpt>
      <trkpt lat="45.36467" lon="4.43396">
        <ele>1063</ele>
        <time>2011-01-20T10:11:52Z</time>
      </trkpt>
      <trkpt lat="45.36473" lon="4.43405">
        <ele>1063</ele>
        <time>2011-01-20T10:11:59Z</time>
      </trkpt>
      <trkpt lat="45.36479" lon="4.43413">
        <ele>1063</ele>
        <time>2011-01-20T10:12:06Z</time>
      </trkpt>
      <trkpt lat="45.36487" lon="4.43418">
        <ele>1064</ele>
        <time>2011-01-20T10:12:14Z</time>
      </trkpt>
      <trkpt lat="45.36494" lon="4.43426">
        <ele>1064</ele>
        <time>2011-01-20T10:12:20Z</time>
      </trkpt>
      <trkpt lat="45.36501" lon="4.43432">
        <ele>1061</ele>
        <time>2011-01-20T10:12:28Z</time>
      </trkpt>
      <trkpt lat="45.36508" lon="4.43438">
        <ele>1060</ele>
        <time>2011-01-20T10:12:34Z</time>
      </trkpt>
      <trkpt lat="45.36515" lon="4.43445">
        <ele>1060</ele>
        <time>2011-01-20T10:12:42Z</time>
      </trkpt>
      <trkpt lat="45.36516" lon="4.43445">
        <ele>1060</ele>
        <time>2011-01-20T10:12:43Z</time>
      </trkpt>
      <trkpt lat="45.36529" lon="4.43454">
        <ele>1059</ele>
        <time>2011-01-20T10:12:56Z</time>
      </trkpt>
      <trkpt lat="45.36536" lon="4.43462">
        <ele>1059</ele>
        <time>2011-01-20T10:13:04Z</time>
      </trkpt>
      <trkpt lat="45.36542" lon="4.4347">
        <ele>1059</ele>
        <time>2011-01-20T10:13:10Z</time>
      </trkpt>
      <trkpt lat="45.36548" lon="4.43478">
        <ele>1058</ele>
        <time>2011-01-20T10:13:17Z</time>
      </trkpt>
      <trkpt lat="45.36553" lon="4.43487">
        <ele>1058</ele>
        <time>2011-01-20T10:13:24Z</time>
      </trkpt>
      <trkpt lat="45.36558" lon="4.43498">
        <ele>1058</ele>
        <time>2011-01-20T10:13:32Z</time>
      </trkpt>
      <trkpt lat="45.36563" lon="4.43506">
        <ele>1059</ele>
        <time>2011-01-20T10:13:38Z</time>
      </trkpt>
      <trkpt lat="45.36569" lon="4.43516">
        <ele>1059</ele>
        <time>2011-01-20T10:13:45Z</time>
      </trkpt>
      <trkpt lat="45.36569" lon="4.43517">
        <ele>1059</ele>
        <time>2011-01-20T10:13:46Z</time>
      </trkpt>
      <trkpt lat="45.3658" lon="4.43533">
        <ele>1060</ele>
        <time>2011-01-20T10:13:58Z</time>
      </trkpt>
      <trkpt lat="45.36585" lon="4.43543">
        <ele>1056</ele>
        <time>2011-01-20T10:14:05Z</time>
      </trkpt>
      <trkpt lat="45.36591" lon="4.43552">
        <ele>1057</ele>
        <time>2011-01-20T10:14:13Z</time>
      </trkpt>
      <trkpt lat="45.36597" lon="4.4356">
        <ele>1057</ele>
        <time>2011-01-20T10:14:21Z</time>
      </trkpt>
      <trkpt lat="45.36606" lon="4.43563">
        <ele>1057</ele>
        <time>2011-01-20T10:14:28Z</time>
      </trkpt>
      <trkpt lat="45.36614" lon="4.43566">
        <ele>1056</ele>
        <time>2011-01-20T10:14:34Z</time>
      </trkpt>
      <trkpt lat="45.36622" lon="4.4357">
        <ele>1056</ele>
        <time>2011-01-20T10:14:42Z</time>
      </trkpt>
      <trkpt lat="45.3663" lon="4.43576">
        <ele>1056</ele>
        <time>2011-01-20T10:14:49Z</time>
      </trkpt>
      <trkpt lat="45.36631" lon="4.43576">
        <ele>1056</ele>
        <time>2011-01-20T10:14:50Z</time>
      </trkpt>
      <trkpt lat="45.36646" lon="4.43582">
        <ele>1055</ele>
        <time>2011-01-20T10:15:02Z</time>
      </trkpt>
      <trkpt lat="45.36654" lon="4.43586">
        <ele>1056</ele>
        <time>2011-01-20T10:15:08Z</time>
      </trkpt>
      <trkpt lat="45.3666" lon="4.4359">
        <ele>1055</ele>
        <time>2011-01-20T10:15:15Z</time>
      </trkpt>
      <trkpt lat="45.36667" lon="4.43592">
        <ele>1054</ele>
        <time>2011-01-20T10:15:20Z</time>
      </trkpt>
      <trkpt lat="45.36676" lon="4.43595">
        <ele>1054</ele>
        <time>2011-01-20T10:15:28Z</time>
      </trkpt>
      <trkpt lat="45.36682" lon="4.43603">
        <ele>1054</ele>
        <time>2011-01-20T10:15:38Z</time>
      </trkpt>
      <trkpt lat="45.36688" lon="4.43611">
        <ele>1053</ele>
        <time>2011-01-20T10:15:47Z</time>
      </trkpt>
      <trkpt lat="45.36696" lon="4.43614">
        <ele>1053</ele>
        <time>2011-01-20T10:15:52Z</time>
      </trkpt>
      <trkpt lat="45.36697" lon="4.43615">
        <ele>1053</ele>
        <time>2011-01-20T10:15:53Z</time>
      </trkpt>
      <trkpt lat="45.36711" lon="4.43624">
        <ele>1053</ele>
        <time>2011-01-20T10:16:06Z</time>
      </trkpt>
      <trkpt lat="45.36718" lon="4.43632">
        <ele>1053</ele>
        <time>2011-01-20T10:16:14Z</time>
      </trkpt>
      <trkpt lat="45.36724" lon="4.43637">
        <ele>1053</ele>
        <time>2011-01-20T10:16:21Z</time>
      </trkpt>
      <trkpt lat="45.36733" lon="4.43638">
        <ele>1053</ele>
        <time>2011-01-20T10:16:27Z</time>
      </trkpt>
      <trkpt lat="45.36741" lon="4.43639">
        <ele>1053</ele>
        <time>2011-01-20T10:16:35Z</time>
      </trkpt>
      <trkpt lat="45.36749" lon="4.43639">
        <ele>1053</ele>
        <time>2011-01-20T10:16:42Z</time>
      </trkpt>
      <trkpt lat="45.36758" lon="4.43639">
        <ele>1052</ele>
        <time>2011-01-20T10:16:51Z</time>
      </trkpt>
      <trkpt lat="45.36766" lon="4.4364">
        <ele>1052</ele>
        <time>2011-01-20T10:18:53Z</time>
      </trkpt>
      <trkpt lat="45.36767" lon="4.43639">
        <ele>1052</ele>
        <time>2011-01-20T10:18:54Z</time>
      </trkpt>
      <trkpt lat="45.36763" lon="4.4366">
        <ele>1052</ele>
        <time>2011-01-20T10:19:56Z</time>
      </trkpt>
      <trkpt lat="45.36762" lon="4.43662">
        <ele>1052</ele>
        <time>2011-01-20T10:19:57Z</time>
      </trkpt>
      <trkpt lat="45.36757" lon="4.43682">
        <ele>1052</ele>
        <time>2011-01-20T10:20:13Z</time>
      </trkpt>
      <trkpt lat="45.36752" lon="4.43691">
        <ele>1053</ele>
        <time>2011-01-20T10:20:20Z</time>
      </trkpt>
      <trkpt lat="45.36746" lon="4.43699">
        <ele>1054</ele>
        <time>2011-01-20T10:20:27Z</time>
      </trkpt>
      <trkpt lat="45.3674" lon="4.43706">
        <ele>1054</ele>
        <time>2011-01-20T10:20:34Z</time>
      </trkpt>
      <trkpt lat="45.36732" lon="4.43713">
        <ele>1054</ele>
        <time>2011-01-20T10:20:43Z</time>
      </trkpt>
      <trkpt lat="45.36727" lon="4.43721">
        <ele>1054</ele>
        <time>2011-01-20T10:20:52Z</time>
      </trkpt>
      <trkpt lat="45.36719" lon="4.43727">
        <ele>1055</ele>
        <time>2011-01-20T10:21:00Z</time>
      </trkpt>
      <trkpt lat="45.36718" lon="4.43728">
        <ele>1055</ele>
        <time>2011-01-20T10:21:01Z</time>
      </trkpt>
      <trkpt lat="45.36704" lon="4.43739">
        <ele>1055</ele>
        <time>2011-01-20T10:21:18Z</time>
      </trkpt>
      <trkpt lat="45.36697" lon="4.43745">
        <ele>1055</ele>
        <time>2011-01-20T10:21:25Z</time>
      </trkpt>
      <trkpt lat="45.3669" lon="4.4375">
        <ele>1056</ele>
        <time>2011-01-20T10:21:34Z</time>
      </trkpt>
      <trkpt lat="45.36684" lon="4.43758">
        <ele>1056</ele>
        <time>2011-01-20T10:21:42Z</time>
      </trkpt>
      <trkpt lat="45.36677" lon="4.43767">
        <ele>1056</ele>
        <time>2011-01-20T10:21:50Z</time>
      </trkpt>
      <trkpt lat="45.36671" lon="4.43777">
        <ele>1056</ele>
        <time>2011-01-20T10:21:58Z</time>
      </trkpt>
      <trkpt lat="45.36665" lon="4.43784">
        <ele>1059</ele>
        <time>2011-01-20T10:22:05Z</time>
      </trkpt>
      <trkpt lat="45.36664" lon="4.43785">
        <ele>1059</ele>
        <time>2011-01-20T10:22:06Z</time>
      </trkpt>
      <trkpt lat="45.36654" lon="4.438">
        <ele>1060</ele>
        <time>2011-01-20T10:22:18Z</time>
      </trkpt>
      <trkpt lat="45.36647" lon="4.43808">
        <ele>1060</ele>
        <time>2011-01-20T10:22:25Z</time>
      </trkpt>
      <trkpt lat="45.36641" lon="4.43815">
        <ele>1060</ele>
        <time>2011-01-20T10:22:33Z</time>
      </trkpt>
      <trkpt lat="45.36635" lon="4.43824">
        <ele>1060</ele>
        <time>2011-01-20T10:22:40Z</time>
      </trkpt>
      <trkpt lat="45.3663" lon="4.43832">
        <ele>1060</ele>
        <time>2011-01-20T10:22:47Z</time>
      </trkpt>
      <trkpt lat="45.36624" lon="4.4384">
        <ele>1059</ele>
        <time>2011-01-20T10:22:54Z</time>
      </trkpt>
      <trkpt lat="45.36618" lon="4.43846">
        <ele>1059</ele>
        <time>2011-01-20T10:23:01Z</time>
      </trkpt>
      <trkpt lat="45.36611" lon="4.43855">
        <ele>1059</ele>
        <time>2011-01-20T10:23:08Z</time>
      </trkpt>
      <trkpt lat="45.3661" lon="4.43855">
        <ele>1059</ele>
        <time>2011-01-20T10:23:09Z</time>
      </trkpt>
      <trkpt lat="45.36599" lon="4.43871">
        <ele>1059</ele>
        <time>2011-01-20T10:23:23Z</time>
      </trkpt>
      <trkpt lat="45.36594" lon="4.43881">
        <ele>1059</ele>
        <time>2011-01-20T10:23:30Z</time>
      </trkpt>
      <trkpt lat="45.36589" lon="4.43891">
        <ele>1058</ele>
        <time>2011-01-20T10:23:37Z</time>
      </trkpt>
      <trkpt lat="45.36583" lon="4.43899">
        <ele>1061</ele>
        <time>2011-01-20T10:23:44Z</time>
      </trkpt>
      <trkpt lat="45.36576" lon="4.43907">
        <ele>1061</ele>
        <time>2011-01-20T10:23:51Z</time>
      </trkpt>
      <trkpt lat="45.3657" lon="4.43915">
        <ele>1061</ele>
        <time>2011-01-20T10:23:57Z</time>
      </trkpt>
      <trkpt lat="45.36563" lon="4.43922">
        <ele>1058</ele>
        <time>2011-01-20T10:24:04Z</time>
      </trkpt>
      <trkpt lat="45.36556" lon="4.43929">
        <ele>1059</ele>
        <time>2011-01-20T10:24:11Z</time>
      </trkpt>
      <trkpt lat="45.36556" lon="4.4393">
        <ele>1059</ele>
        <time>2011-01-20T10:24:12Z</time>
      </trkpt>
      <trkpt lat="45.36542" lon="4.43941">
        <ele>1059</ele>
        <time>2011-01-20T10:24:24Z</time>
      </trkpt>
      <trkpt lat="45.36535" lon="4.43946">
        <ele>1059</ele>
        <time>2011-01-20T10:24:31Z</time>
      </trkpt>
      <trkpt lat="45.36527" lon="4.43952">
        <ele>1059</ele>
        <time>2011-01-20T10:24:38Z</time>
      </trkpt>
      <trkpt lat="45.36519" lon="4.43958">
        <ele>1059</ele>
        <time>2011-01-20T10:24:45Z</time>
      </trkpt>
      <trkpt lat="45.36513" lon="4.43964">
        <ele>1058</ele>
        <time>2011-01-20T10:24:51Z</time>
      </trkpt>
      <trkpt lat="45.36506" lon="4.43969">
        <ele>1058</ele>
        <time>2011-01-20T10:24:56Z</time>
      </trkpt>
      <trkpt lat="45.36498" lon="4.43974">
        <ele>1062</ele>
        <time>2011-01-20T10:25:01Z</time>
      </trkpt>
      <trkpt lat="45.36492" lon="4.43983">
        <ele>1061</ele>
        <time>2011-01-20T10:25:07Z</time>
      </trkpt>
      <trkpt lat="45.36485" lon="4.43987">
        <ele>1061</ele>
        <time>2011-01-20T10:25:14Z</time>
      </trkpt>
      <trkpt lat="45.36483" lon="4.43988">
        <ele>1061</ele>
        <time>2011-01-20T10:25:15Z</time>
      </trkpt>
      <trkpt lat="45.36469" lon="4.43993">
        <ele>1063</ele>
        <time>2011-01-20T10:25:29Z</time>
      </trkpt>
      <trkpt lat="45.36463" lon="4.43999">
        <ele>1063</ele>
        <time>2011-01-20T10:25:37Z</time>
      </trkpt>
      <trkpt lat="45.36456" lon="4.44006">
        <ele>1054</ele>
        <time>2011-01-20T10:25:44Z</time>
      </trkpt>
      <trkpt lat="45.3645" lon="4.44012">
        <ele>1054</ele>
        <time>2011-01-20T10:25:50Z</time>
      </trkpt>
      <trkpt lat="45.36443" lon="4.44018">
        <ele>1054</ele>
        <time>2011-01-20T10:25:58Z</time>
      </trkpt>
      <trkpt lat="45.36436" lon="4.44024">
        <ele>1054</ele>
        <time>2011-01-20T10:26:05Z</time>
      </trkpt>
      <trkpt lat="45.3643" lon="4.44033">
        <ele>1053</ele>
        <time>2011-01-20T10:26:12Z</time>
      </trkpt>
      <trkpt lat="45.36424" lon="4.4404">
        <ele>1052</ele>
        <time>2011-01-20T10:26:20Z</time>
      </trkpt>
      <trkpt lat="45.36423" lon="4.44041">
        <ele>1052</ele>
        <time>2011-01-20T10:26:21Z</time>
      </trkpt>
      <trkpt lat="45.3641" lon="4.44054">
        <ele>1055</ele>
        <time>2011-01-20T10:26:38Z</time>
      </trkpt>
      <trkpt lat="45.36402" lon="4.44059">
        <ele>1055</ele>
        <time>2011-01-20T10:26:46Z</time>
      </trkpt>
      <trkpt lat="45.36394" lon="4.44063">
        <ele>1055</ele>
        <time>2011-01-20T10:26:54Z</time>
      </trkpt>
      <trkpt lat="45.36386" lon="4.44067">
        <ele>1055</ele>
        <time>2011-01-20T10:27:00Z</time>
      </trkpt>
      <trkpt lat="45.36379" lon="4.44072">
        <ele>1055</ele>
        <time>2011-01-20T10:27:07Z</time>
      </trkpt>
      <trkpt lat="45.36371" lon="4.44076">
        <ele>1056</ele>
        <time>2011-01-20T10:27:16Z</time>
      </trkpt>
      <trkpt lat="45.36364" lon="4.44081">
        <ele>1056</ele>
        <time>2011-01-20T10:27:22Z</time>
      </trkpt>
      <trkpt lat="45.36363" lon="4.44082">
        <ele>1056</ele>
        <time>2011-01-20T10:27:23Z</time>
      </trkpt>
      <trkpt lat="45.36349" lon="4.4409">
        <ele>1047</ele>
        <time>2011-01-20T10:27:35Z</time>
      </trkpt>
      <trkpt lat="45.36342" lon="4.44094">
        <ele>1048</ele>
        <time>2011-01-20T10:27:41Z</time>
      </trkpt>
      <trkpt lat="45.36336" lon="4.44102">
        <ele>1047</ele>
        <time>2011-01-20T10:27:46Z</time>
      </trkpt>
      <trkpt lat="45.36331" lon="4.44109">
        <ele>1051</ele>
        <time>2011-01-20T10:27:51Z</time>
      </trkpt>
      <trkpt lat="45.36325" lon="4.44116">
        <ele>1051</ele>
        <time>2011-01-20T10:27:57Z</time>
      </trkpt>
      <trkpt lat="45.36319" lon="4.44125">
        <ele>1050</ele>
        <time>2011-01-20T10:28:03Z</time>
      </trkpt>
      <trkpt lat="45.36313" lon="4.44134">
        <ele>1049</ele>
        <time>2011-01-20T10:28:10Z</time>
      </trkpt>
      <trkpt lat="45.36307" lon="4.44141">
        <ele>1049</ele>
        <time>2011-01-20T10:28:17Z</time>
      </trkpt>
      <trkpt lat="45.36299" lon="4.44145">
        <ele>1049</ele>
        <time>2011-01-20T10:28:24Z</time>
      </trkpt>
      <trkpt lat="45.36298" lon="4.44146">
        <ele>1049</ele>
        <time>2011-01-20T10:28:25Z</time>
      </trkpt>
      <trkpt lat="45.36285" lon="4.44158">
        <ele>1050</ele>
        <time>2011-01-20T10:28:39Z</time>
      </trkpt>
      <trkpt lat="45.36277" lon="4.44162">
        <ele>1051</ele>
        <time>2011-01-20T10:28:46Z</time>
      </trkpt>
      <trkpt lat="45.36269" lon="4.44164">
        <ele>1051</ele>
        <time>2011-01-20T10:28:53Z</time>
      </trkpt>
      <trkpt lat="45.36261" lon="4.44167">
        <ele>1047</ele>
        <time>2011-01-20T10:29:00Z</time>
      </trkpt>
      <trkpt lat="45.36252" lon="4.44168">
        <ele>1051</ele>
        <time>2011-01-20T10:29:07Z</time>
      </trkpt>
      <trkpt lat="45.36244" lon="4.44171">
        <ele>1051</ele>
        <time>2011-01-20T10:29:14Z</time>
      </trkpt>
      <trkpt lat="45.36236" lon="4.44173">
        <ele>1051</ele>
        <time>2011-01-20T10:29:20Z</time>
      </trkpt>
      <trkpt lat="45.36228" lon="4.44177">
        <ele>1050</ele>
        <time>2011-01-20T10:29:26Z</time>
      </trkpt>
      <trkpt lat="45.36227" lon="4.44177">
        <ele>1050</ele>
        <time>2011-01-20T10:29:27Z</time>
      </trkpt>
      <trkpt lat="45.36212" lon="4.44179">
        <ele>1050</ele>
        <time>2011-01-20T10:29:40Z</time>
      </trkpt>
      <trkpt lat="45.36204" lon="4.44179">
        <ele>1051</ele>
        <time>2011-01-20T10:29:47Z</time>
      </trkpt>
      <trkpt lat="45.36196" lon="4.44184">
        <ele>1051</ele>
        <time>2011-01-20T10:29:55Z</time>
      </trkpt>
      <trkpt lat="45.36188" lon="4.4419">
        <ele>1051</ele>
        <time>2011-01-20T10:30:04Z</time>
      </trkpt>
      <trkpt lat="45.36183" lon="4.442">
        <ele>1051</ele>
        <time>2011-01-20T10:30:13Z</time>
      </trkpt>
      <trkpt lat="45.36179" lon="4.4421">
        <ele>1050</ele>
        <time>2011-01-20T10:30:20Z</time>
      </trkpt>
      <trkpt lat="45.36175" lon="4.44221">
        <ele>1049</ele>
        <time>2011-01-20T10:30:28Z</time>
      </trkpt>
      <trkpt lat="45.36175" lon="4.44222">
        <ele>1049</ele>
        <time>2011-01-20T10:30:29Z</time>
      </trkpt>
      <trkpt lat="45.36171" lon="4.44243">
        <ele>1049</ele>
        <time>2011-01-20T10:30:45Z</time>
      </trkpt>
      <trkpt lat="45.36171" lon="4.44255">
        <ele>1047</ele>
        <time>2011-01-20T10:30:52Z</time>
      </trkpt>
      <trkpt lat="45.36172" lon="4.44267">
        <ele>1045</ele>
        <time>2011-01-20T10:30:59Z</time>
      </trkpt>
      <trkpt lat="45.36172" lon="4.44279">
        <ele>1043</ele>
        <time>2011-01-20T10:31:06Z</time>
      </trkpt>
      <trkpt lat="45.36176" lon="4.4429">
        <ele>1043</ele>
        <time>2011-01-20T10:31:13Z</time>
      </trkpt>
      <trkpt lat="45.36178" lon="4.44301">
        <ele>1042</ele>
        <time>2011-01-20T10:31:19Z</time>
      </trkpt>
      <trkpt lat="45.3618" lon="4.44313">
        <ele>1042</ele>
        <time>2011-01-20T10:31:26Z</time>
      </trkpt>
      <trkpt lat="45.36182" lon="4.44325">
        <ele>1042</ele>
        <time>2011-01-20T10:31:34Z</time>
      </trkpt>
      <trkpt lat="45.36182" lon="4.44327">
        <ele>1042</ele>
        <time>2011-01-20T10:31:35Z</time>
      </trkpt>
      <trkpt lat="45.36185" lon="4.44348">
        <ele>1041</ele>
        <time>2011-01-20T10:31:50Z</time>
      </trkpt>
      <trkpt lat="45.36188" lon="4.44359">
        <ele>1040</ele>
        <time>2011-01-20T10:31:57Z</time>
      </trkpt>
      <trkpt lat="45.36191" lon="4.4437">
        <ele>1040</ele>
        <time>2011-01-20T10:32:04Z</time>
      </trkpt>
      <trkpt lat="45.36195" lon="4.4438">
        <ele>1040</ele>
        <time>2011-01-20T10:32:11Z</time>
      </trkpt>
      <trkpt lat="45.36201" lon="4.4439">
        <ele>1040</ele>
        <time>2011-01-20T10:33:50Z</time>
      </trkpt>
      <trkpt lat="45.36201" lon="4.44391">
        <ele>1040</ele>
        <time>2011-01-20T10:33:51Z</time>
      </trkpt>
      <trkpt lat="45.36207" lon="4.44412">
        <ele>1039</ele>
        <time>2011-01-20T10:34:12Z</time>
      </trkpt>
      <trkpt lat="45.3621" lon="4.44422">
        <ele>1041</ele>
        <time>2011-01-20T10:34:21Z</time>
      </trkpt>
      <trkpt lat="45.36212" lon="4.44433">
        <ele>1041</ele>
        <time>2011-01-20T10:34:29Z</time>
      </trkpt>
      <trkpt lat="45.36216" lon="4.44445">
        <ele>1041</ele>
        <time>2011-01-20T10:34:39Z</time>
      </trkpt>
      <trkpt lat="45.36218" lon="4.44457">
        <ele>1041</ele>
        <time>2011-01-20T10:34:48Z</time>
      </trkpt>
      <trkpt lat="45.36219" lon="4.44469">
        <ele>1041</ele>
        <time>2011-01-20T10:34:56Z</time>
      </trkpt>
      <trkpt lat="45.36219" lon="4.4447">
        <ele>1042</ele>
        <time>2011-01-20T10:34:57Z</time>
      </trkpt>
      <trkpt lat="45.36221" lon="4.44493">
        <ele>1042</ele>
        <time>2011-01-20T10:35:14Z</time>
      </trkpt>
      <trkpt lat="45.36221" lon="4.44505">
        <ele>1043</ele>
        <time>2011-01-20T10:35:24Z</time>
      </trkpt>
      <trkpt lat="45.36222" lon="4.44517">
        <ele>1044</ele>
        <time>2011-01-20T10:35:34Z</time>
      </trkpt>
      <trkpt lat="45.36221" lon="4.44529">
        <ele>1044</ele>
        <time>2011-01-20T10:35:43Z</time>
      </trkpt>
      <trkpt lat="45.36221" lon="4.44541">
        <ele>1044</ele>
        <time>2011-01-20T10:35:52Z</time>
      </trkpt>
      <trkpt lat="45.36222" lon="4.44554">
        <ele>1044</ele>
        <time>2011-01-20T10:36:02Z</time>
      </trkpt>
      <trkpt lat="45.36222" lon="4.44554">
        <ele>1044</ele>
        <time>2011-01-20T10:36:03Z</time>
      </trkpt>
      <trkpt lat="45.36222" lon="4.44578">
        <ele>1044</ele>
        <time>2011-01-20T10:36:23Z</time>
      </trkpt>
      <trkpt lat="45.36223" lon="4.4459">
        <ele>1045</ele>
        <time>2011-01-20T10:36:33Z</time>
      </trkpt>
      <trkpt lat="45.36223" lon="4.44602">
        <ele>1045</ele>
        <time>2011-01-20T10:36:42Z</time>
      </trkpt>
      <trkpt lat="45.36223" lon="4.44614">
        <ele>1045</ele>
        <time>2011-01-20T10:36:50Z</time>
      </trkpt>
      <trkpt lat="45.36223" lon="4.44626">
        <ele>1045</ele>
        <time>2011-01-20T10:36:58Z</time>
      </trkpt>
      <trkpt lat="45.3622" lon="4.44639">
        <ele>1045</ele>
        <time>2011-01-20T10:37:06Z</time>
      </trkpt>
      <trkpt lat="45.3622" lon="4.4464">
        <ele>1045</ele>
        <time>2011-01-20T10:37:07Z</time>
      </trkpt>
      <trkpt lat="45.36212" lon="4.4466">
        <ele>1045</ele>
        <time>2011-01-20T10:37:20Z</time>
      </trkpt>
      <trkpt lat="45.36208" lon="4.44671">
        <ele>1043</ele>
        <time>2011-01-20T10:37:27Z</time>
      </trkpt>
      <trkpt lat="45.36203" lon="4.44681">
        <ele>1043</ele>
        <time>2011-01-20T10:37:34Z</time>
      </trkpt>
      <trkpt lat="45.36199" lon="4.4469">
        <ele>1043</ele>
        <time>2011-01-20T10:37:41Z</time>
      </trkpt>
      <trkpt lat="45.36193" lon="4.44698">
        <ele>1043</ele>
        <time>2011-01-20T10:37:48Z</time>
      </trkpt>
      <trkpt lat="45.36186" lon="4.44704">
        <ele>1043</ele>
        <time>2011-01-20T10:37:55Z</time>
      </trkpt>
      <trkpt lat="45.36179" lon="4.44711">
        <ele>1043</ele>
        <time>2011-01-20T10:38:02Z</time>
      </trkpt>
      <trkpt lat="45.36171" lon="4.44716">
        <ele>1043</ele>
        <time>2011-01-20T10:38:09Z</time>
      </trkpt>
      <trkpt lat="45.3617" lon="4.44717">
        <ele>1043</ele>
        <time>2011-01-20T10:38:10Z</time>
      </trkpt>
      <trkpt lat="45.36155" lon="4.44728">
        <ele>1044</ele>
        <time>2011-01-20T10:38:23Z</time>
      </trkpt>
      <trkpt lat="45.36148" lon="4.44733">
        <ele>1044</ele>
        <time>2011-01-20T10:38:30Z</time>
      </trkpt>
      <trkpt lat="45.3614" lon="4.44738">
        <ele>1044</ele>
        <time>2011-01-20T10:38:37Z</time>
      </trkpt>
      <trkpt lat="45.36132" lon="4.44741">
        <ele>1044</ele>
        <time>2011-01-20T10:38:44Z</time>
      </trkpt>
      <trkpt lat="45.36123" lon="4.44744">
        <ele>1044</ele>
        <time>2011-01-20T10:38:51Z</time>
      </trkpt>
      <trkpt lat="45.36115" lon="4.44746">
        <ele>1045</ele>
        <time>2011-01-20T10:38:58Z</time>
      </trkpt>
      <trkpt lat="45.36107" lon="4.44749">
        <ele>1045</ele>
        <time>2011-01-20T10:39:06Z</time>
      </trkpt>
      <trkpt lat="45.36099" lon="4.44756">
        <ele>1043</ele>
        <time>2011-01-20T10:39:13Z</time>
      </trkpt>
      <trkpt lat="45.36098" lon="4.44757">
        <ele>1043</ele>
        <time>2011-01-20T10:39:14Z</time>
      </trkpt>
      <trkpt lat="45.36086" lon="4.44772">
        <ele>1042</ele>
        <time>2011-01-20T10:39:27Z</time>
      </trkpt>
      <trkpt lat="45.36081" lon="4.44781">
        <ele>1044</ele>
        <time>2011-01-20T10:39:34Z</time>
      </trkpt>
      <trkpt lat="45.36077" lon="4.44791">
        <ele>1044</ele>
        <time>2011-01-20T10:39:41Z</time>
      </trkpt>
      <trkpt lat="45.36073" lon="4.44803">
        <ele>1043</ele>
        <time>2011-01-20T10:39:50Z</time>
      </trkpt>
      <trkpt lat="45.3607" lon="4.44815">
        <ele>1043</ele>
        <time>2011-01-20T10:39:58Z</time>
      </trkpt>
      <trkpt lat="45.36065" lon="4.44824">
        <ele>1043</ele>
        <time>2011-01-20T10:40:05Z</time>
      </trkpt>
      <trkpt lat="45.3606" lon="4.44833">
        <ele>1043</ele>
        <time>2011-01-20T10:40:12Z</time>
      </trkpt>
      <trkpt lat="45.36054" lon="4.44842">
        <ele>1044</ele>
        <time>2011-01-20T10:40:19Z</time>
      </trkpt>
      <trkpt lat="45.36054" lon="4.44843">
        <ele>1044</ele>
        <time>2011-01-20T10:40:20Z</time>
      </trkpt>
      <trkpt lat="45.36044" lon="4.4486">
        <ele>1044</ele>
        <time>2011-01-20T10:40:33Z</time>
      </trkpt>
      <trkpt lat="45.36039" lon="4.44869">
        <ele>1044</ele>
        <time>2011-01-20T10:40:40Z</time>
      </trkpt>
      <trkpt lat="45.36034" lon="4.44879">
        <ele>1045</ele>
        <time>2011-01-20T10:40:47Z</time>
      </trkpt>
      <trkpt lat="45.36029" lon="4.44888">
        <ele>1045</ele>
        <time>2011-01-20T10:40:54Z</time>
      </trkpt>
      <trkpt lat="45.36025" lon="4.44897">
        <ele>1045</ele>
        <time>2011-01-20T10:41:01Z</time>
      </trkpt>
      <trkpt lat="45.3602" lon="4.44907">
        <ele>1045</ele>
        <time>2011-01-20T10:41:08Z</time>
      </trkpt>
      <trkpt lat="45.36016" lon="4.44917">
        <ele>1046</ele>
        <time>2011-01-20T10:41:15Z</time>
      </trkpt>
      <trkpt lat="45.36011" lon="4.44927">
        <ele>1046</ele>
        <time>2011-01-20T10:41:22Z</time>
      </trkpt>
      <trkpt lat="45.36011" lon="4.44928">
        <ele>1046</ele>
        <time>2011-01-20T10:41:23Z</time>
      </trkpt>
      <trkpt lat="45.35999" lon="4.44943">
        <ele>1044</ele>
        <time>2011-01-20T10:41:36Z</time>
      </trkpt>
      <trkpt lat="45.35992" lon="4.44949">
        <ele>1044</ele>
        <time>2011-01-20T10:41:43Z</time>
      </trkpt>
      <trkpt lat="45.35985" lon="4.44954">
        <ele>1044</ele>
        <time>2011-01-20T10:41:50Z</time>
      </trkpt>
      <trkpt lat="45.35977" lon="4.4496">
        <ele>1044</ele>
        <time>2011-01-20T10:41:57Z</time>
      </trkpt>
      <trkpt lat="45.35971" lon="4.44969">
        <ele>1044</ele>
        <time>2011-01-20T10:42:04Z</time>
      </trkpt>
      <trkpt lat="45.35964" lon="4.44976">
        <ele>1043</ele>
        <time>2011-01-20T10:42:11Z</time>
      </trkpt>
      <trkpt lat="45.35957" lon="4.44983">
        <ele>1043</ele>
        <time>2011-01-20T10:42:18Z</time>
      </trkpt>
      <trkpt lat="45.3595" lon="4.44989">
        <ele>1042</ele>
        <time>2011-01-20T10:42:25Z</time>
      </trkpt>
      <trkpt lat="45.35949" lon="4.4499">
        <ele>1042</ele>
        <time>2011-01-20T10:42:26Z</time>
      </trkpt>
      <trkpt lat="45.35936" lon="4.45003">
        <ele>1042</ele>
        <time>2011-01-20T10:42:39Z</time>
      </trkpt>
      <trkpt lat="45.3593" lon="4.45011">
        <ele>1042</ele>
        <time>2011-01-20T10:42:46Z</time>
      </trkpt>
      <trkpt lat="45.35924" lon="4.4502">
        <ele>1042</ele>
        <time>2011-01-20T10:42:53Z</time>
      </trkpt>
      <trkpt lat="45.35918" lon="4.45028">
        <ele>1042</ele>
        <time>2011-01-20T10:43:00Z</time>
      </trkpt>
      <trkpt lat="45.35913" lon="4.45037">
        <ele>1037</ele>
        <time>2011-01-20T10:43:07Z</time>
      </trkpt>
      <trkpt lat="45.35908" lon="4.45047">
        <ele>1037</ele>
        <time>2011-01-20T10:43:14Z</time>
      </trkpt>
      <trkpt lat="45.35902" lon="4.45056">
        <ele>1037</ele>
        <time>2011-01-20T10:43:21Z</time>
      </trkpt>
      <trkpt lat="45.35896" lon="4.45065">
        <ele>1037</ele>
        <time>2011-01-20T10:43:28Z</time>
      </trkpt>
      <trkpt lat="45.35895" lon="4.45067">
        <ele>1037</ele>
        <time>2011-01-20T10:43:29Z</time>
      </trkpt>
      <trkpt lat="45.35895" lon="4.45066">
        <ele>1037</ele>
        <time>2011-01-20T10:43:59Z</time>
      </trkpt>
      <trkpt lat="45.359" lon="4.45056">
        <ele>1037</ele>
        <time>2011-01-20T10:44:05Z</time>
      </trkpt>
      <trkpt lat="45.35906" lon="4.45047">
        <ele>1037</ele>
        <time>2011-01-20T10:44:20Z</time>
      </trkpt>
      <trkpt lat="45.35912" lon="4.45038">
        <ele>1037</ele>
        <time>2011-01-20T10:44:27Z</time>
      </trkpt>
      <trkpt lat="45.35916" lon="4.45029">
        <ele>1037</ele>
        <time>2011-01-20T10:44:33Z</time>
      </trkpt>
      <trkpt lat="45.35917" lon="4.45027">
        <ele>1037</ele>
        <time>2011-01-20T10:44:34Z</time>
      </trkpt>
      <trkpt lat="45.35927" lon="4.45011">
        <ele>1041</ele>
        <time>2011-01-20T10:44:48Z</time>
      </trkpt>
      <trkpt lat="45.35932" lon="4.45002">
        <ele>1042</ele>
        <time>2011-01-20T10:44:55Z</time>
      </trkpt>
      <trkpt lat="45.35939" lon="4.44995">
        <ele>1042</ele>
        <time>2011-01-20T10:45:03Z</time>
      </trkpt>
      <trkpt lat="45.35946" lon="4.44987">
        <ele>1042</ele>
        <time>2011-01-20T10:45:11Z</time>
      </trkpt>
      <trkpt lat="45.35952" lon="4.4498">
        <ele>1043</ele>
        <time>2011-01-20T10:45:19Z</time>
      </trkpt>
      <trkpt lat="45.35959" lon="4.44974">
        <ele>1043</ele>
        <time>2011-01-20T10:45:26Z</time>
      </trkpt>
      <trkpt lat="45.35966" lon="4.44967">
        <ele>1043</ele>
        <time>2011-01-20T10:45:33Z</time>
      </trkpt>
      <trkpt lat="45.35973" lon="4.44959">
        <ele>1044</ele>
        <time>2011-01-20T10:45:40Z</time>
      </trkpt>
      <trkpt lat="45.35974" lon="4.44958">
        <ele>1044</ele>
        <time>2011-01-20T10:45:41Z</time>
      </trkpt>
      <trkpt lat="45.35987" lon="4.44946">
        <ele>1044</ele>
        <time>2011-01-20T10:45:53Z</time>
      </trkpt>
      <trkpt lat="45.35995" lon="4.4494">
        <ele>1044</ele>
        <time>2011-01-20T10:46:00Z</time>
      </trkpt>
      <trkpt lat="45.36003" lon="4.44935">
        <ele>1046</ele>
        <time>2011-01-20T10:46:08Z</time>
      </trkpt>
      <trkpt lat="45.36011" lon="4.44933">
        <ele>1046</ele>
        <time>2011-01-20T10:46:15Z</time>
      </trkpt>
      <trkpt lat="45.36019" lon="4.44932">
        <ele>1047</ele>
        <time>2011-01-20T10:46:22Z</time>
      </trkpt>
      <trkpt lat="45.36027" lon="4.44932">
        <ele>1047</ele>
        <time>2011-01-20T10:46:29Z</time>
      </trkpt>
      <trkpt lat="45.36036" lon="4.44932">
        <ele>1047</ele>
        <time>2011-01-20T10:46:36Z</time>
      </trkpt>
      <trkpt lat="45.36044" lon="4.44932">
        <ele>1047</ele>
        <time>2011-01-20T10:46:42Z</time>
      </trkpt>
      <trkpt lat="45.36045" lon="4.44932">
        <ele>1047</ele>
        <time>2011-01-20T10:46:43Z</time>
      </trkpt>
      <trkpt lat="45.36061" lon="4.44933">
        <ele>1047</ele>
        <time>2011-01-20T10:46:56Z</time>
      </trkpt>
      <trkpt lat="45.36069" lon="4.44934">
        <ele>1047</ele>
        <time>2011-01-20T10:47:03Z</time>
      </trkpt>
      <trkpt lat="45.36077" lon="4.44935">
        <ele>1047</ele>
        <time>2011-01-20T10:47:09Z</time>
      </trkpt>
      <trkpt lat="45.36085" lon="4.44937">
        <ele>1047</ele>
        <time>2011-01-20T10:47:16Z</time>
      </trkpt>
      <trkpt lat="45.36094" lon="4.4494">
        <ele>1047</ele>
        <time>2011-01-20T10:47:23Z</time>
      </trkpt>
      <trkpt lat="45.36103" lon="4.44943">
        <ele>1047</ele>
        <time>2011-01-20T10:47:30Z</time>
      </trkpt>
      <trkpt lat="45.36111" lon="4.44946">
        <ele>1047</ele>
        <time>2011-01-20T10:47:37Z</time>
      </trkpt>
      <trkpt lat="45.36119" lon="4.4495">
        <ele>1047</ele>
        <time>2011-01-20T10:47:43Z</time>
      </trkpt>
      <trkpt lat="45.3612" lon="4.44951">
        <ele>1047</ele>
        <time>2011-01-20T10:47:44Z</time>
      </trkpt>
      <trkpt lat="45.36134" lon="4.44958">
        <ele>1047</ele>
        <time>2011-01-20T10:47:56Z</time>
      </trkpt>
      <trkpt lat="45.36141" lon="4.44962">
        <ele>1047</ele>
        <time>2011-01-20T10:48:02Z</time>
      </trkpt>
      <trkpt lat="45.36149" lon="4.44968">
        <ele>1047</ele>
        <time>2011-01-20T10:48:09Z</time>
      </trkpt>
      <trkpt lat="45.36157" lon="4.44973">
        <ele>1047</ele>
        <time>2011-01-20T10:48:16Z</time>
      </trkpt>
      <trkpt lat="45.36164" lon="4.44979">
        <ele>1048</ele>
        <time>2011-01-20T10:48:23Z</time>
      </trkpt>
      <trkpt lat="45.36171" lon="4.44984">
        <ele>1047</ele>
        <time>2011-01-20T10:48:29Z</time>
      </trkpt>
      <trkpt lat="45.36178" lon="4.4499">
        <ele>1047</ele>
        <time>2011-01-20T10:48:35Z</time>
      </trkpt>
      <trkpt lat="45.36185" lon="4.44996">
        <ele>1047</ele>
        <time>2011-01-20T10:48:42Z</time>
      </trkpt>
      <trkpt lat="45.36192" lon="4.45003">
        <ele>1050</ele>
        <time>2011-01-20T10:48:49Z</time>
      </trkpt>
      <trkpt lat="45.36193" lon="4.45004">
        <ele>1050</ele>
        <time>2011-01-20T10:48:50Z</time>
      </trkpt>
      <trkpt lat="45.36206" lon="4.45018">
        <ele>1049</ele>
        <time>2011-01-20T10:49:03Z</time>
      </trkpt>
      <trkpt lat="45.36212" lon="4.45025">
        <ele>1049</ele>
        <time>2011-01-20T10:49:09Z</time>
      </trkpt>
      <trkpt lat="45.3622" lon="4.45033">
        <ele>1049</ele>
        <time>2011-01-20T10:49:16Z</time>
      </trkpt>
      <trkpt lat="45.36226" lon="4.45039">
        <ele>1049</ele>
        <time>2011-01-20T10:49:22Z</time>
      </trkpt>
      <trkpt lat="45.36232" lon="4.45047">
        <ele>1049</ele>
        <time>2011-01-20T10:49:28Z</time>
      </trkpt>
      <trkpt lat="45.36239" lon="4.45054">
        <ele>1049</ele>
        <time>2011-01-20T10:49:34Z</time>
      </trkpt>
      <trkpt lat="45.36245" lon="4.45061">
        <ele>1049</ele>
        <time>2011-01-20T10:49:40Z</time>
      </trkpt>
      <trkpt lat="45.36251" lon="4.45069">
        <ele>1046</ele>
        <time>2011-01-20T10:49:47Z</time>
      </trkpt>
      <trkpt lat="45.36257" lon="4.45077">
        <ele>1047</ele>
        <time>2011-01-20T10:49:54Z</time>
      </trkpt>
      <trkpt lat="45.36258" lon="4.45078">
        <ele>1047</ele>
        <time>2011-01-20T10:49:55Z</time>
      </trkpt>
      <trkpt lat="45.36267" lon="4.45093">
        <ele>1046</ele>
        <time>2011-01-20T10:50:05Z</time>
      </trkpt>
      <trkpt lat="45.36273" lon="4.45102">
        <ele>1046</ele>
        <time>2011-01-20T10:50:11Z</time>
      </trkpt>
      <trkpt lat="45.36279" lon="4.45111">
        <ele>1045</ele>
        <time>2011-01-20T10:50:18Z</time>
      </trkpt>
      <trkpt lat="45.36285" lon="4.4512">
        <ele>1045</ele>
        <time>2011-01-20T10:50:25Z</time>
      </trkpt>
      <trkpt lat="45.36291" lon="4.45129">
        <ele>1045</ele>
        <time>2011-01-20T10:50:32Z</time>
      </trkpt>
      <trkpt lat="45.36296" lon="4.45139">
        <ele>1044</ele>
        <time>2011-01-20T10:50:39Z</time>
      </trkpt>
      <trkpt lat="45.36301" lon="4.45149">
        <ele>1044</ele>
        <time>2011-01-20T10:50:46Z</time>
      </trkpt>
      <trkpt lat="45.36305" lon="4.4516">
        <ele>1044</ele>
        <time>2011-01-20T10:50:53Z</time>
      </trkpt>
      <trkpt lat="45.36308" lon="4.45171">
        <ele>1043</ele>
        <time>2011-01-20T10:50:59Z</time>
      </trkpt>
      <trkpt lat="45.36308" lon="4.45173">
        <ele>1043</ele>
        <time>2011-01-20T10:51:00Z</time>
      </trkpt>
      <trkpt lat="45.36312" lon="4.45192">
        <ele>1044</ele>
        <time>2011-01-20T10:51:11Z</time>
      </trkpt>
      <trkpt lat="45.36314" lon="4.45203">
        <ele>1044</ele>
        <time>2011-01-20T10:51:17Z</time>
      </trkpt>
      <trkpt lat="45.36317" lon="4.45214">
        <ele>1043</ele>
        <time>2011-01-20T10:51:23Z</time>
      </trkpt>
      <trkpt lat="45.3632" lon="4.45226">
        <ele>1043</ele>
        <time>2011-01-20T10:51:30Z</time>
      </trkpt>
      <trkpt lat="45.36324" lon="4.45237">
        <ele>1042</ele>
        <time>2011-01-20T10:51:37Z</time>
      </trkpt>
      <trkpt lat="45.36326" lon="4.45248">
        <ele>1041</ele>
        <time>2011-01-20T10:51:43Z</time>
      </trkpt>
      <trkpt lat="45.36329" lon="4.45258">
        <ele>1042</ele>
        <time>2011-01-20T10:51:49Z</time>
      </trkpt>
      <trkpt lat="45.36331" lon="4.45269">
        <ele>1044</ele>
        <time>2011-01-20T10:51:55Z</time>
      </trkpt>
      <trkpt lat="45.36333" lon="4.4528">
        <ele>1045</ele>
        <time>2011-01-20T10:52:01Z</time>
      </trkpt>
      <trkpt lat="45.36333" lon="4.45282">
        <ele>1045</ele>
        <time>2011-01-20T10:52:02Z</time>
      </trkpt>
      <trkpt lat="45.36336" lon="4.45304">
        <ele>1041</ele>
        <time>2011-01-20T10:52:13Z</time>
      </trkpt>
      <trkpt lat="45.36337" lon="4.45315">
        <ele>1042</ele>
        <time>2011-01-20T10:52:19Z</time>
      </trkpt>
      <trkpt lat="45.36339" lon="4.45326">
        <ele>1043</ele>
        <time>2011-01-20T10:52:25Z</time>
      </trkpt>
      <trkpt lat="45.36343" lon="4.45337">
        <ele>1044</ele>
        <time>2011-01-20T10:52:32Z</time>
      </trkpt>
      <trkpt lat="45.36351" lon="4.45343">
        <ele>1043</ele>
        <time>2011-01-20T10:53:55Z</time>
      </trkpt>
      <trkpt lat="45.36352" lon="4.45343">
        <ele>1043</ele>
        <time>2011-01-20T10:53:56Z</time>
      </trkpt>
      <trkpt lat="45.36367" lon="4.45333">
        <ele>1041</ele>
        <time>2011-01-20T10:54:11Z</time>
      </trkpt>
      <trkpt lat="45.36374" lon="4.45329">
        <ele>1040</ele>
        <time>2011-01-20T10:54:18Z</time>
      </trkpt>
      <trkpt lat="45.36383" lon="4.45326">
        <ele>1040</ele>
        <time>2011-01-20T10:54:25Z</time>
      </trkpt>
      <trkpt lat="45.36391" lon="4.45323">
        <ele>1040</ele>
        <time>2011-01-20T10:54:32Z</time>
      </trkpt>
      <trkpt lat="45.36399" lon="4.45321">
        <ele>1039</ele>
        <time>2011-01-20T10:54:38Z</time>
      </trkpt>
      <trkpt lat="45.36407" lon="4.4532">
        <ele>1039</ele>
        <time>2011-01-20T10:54:44Z</time>
      </trkpt>
      <trkpt lat="45.36415" lon="4.45319">
        <ele>1039</ele>
        <time>2011-01-20T10:54:51Z</time>
      </trkpt>
      <trkpt lat="45.36424" lon="4.45319">
        <ele>1037</ele>
        <time>2011-01-20T10:54:58Z</time>
      </trkpt>
      <trkpt lat="45.36426" lon="4.45319">
        <ele>1037</ele>
        <time>2011-01-20T10:54:59Z</time>
      </trkpt>
      <trkpt lat="45.36441" lon="4.4532">
        <ele>1036</ele>
        <time>2011-01-20T10:55:11Z</time>
      </trkpt>
      <trkpt lat="45.36449" lon="4.45321">
        <ele>1036</ele>
        <time>2011-01-20T10:55:17Z</time>
      </trkpt>
      <trkpt lat="45.36457" lon="4.45322">
        <ele>1035</ele>
        <time>2011-01-20T10:55:23Z</time>
      </trkpt>
      <trkpt lat="45.36464" lon="4.45322">
        <ele>1035</ele>
        <time>2011-01-20T10:55:29Z</time>
      </trkpt>
      <trkpt lat="45.36472" lon="4.45323">
        <ele>1035</ele>
        <time>2011-01-20T10:55:35Z</time>
      </trkpt>
      <trkpt lat="45.3648" lon="4.45324">
        <ele>1034</ele>
        <time>2011-01-20T10:55:41Z</time>
      </trkpt>
      <trkpt lat="45.36488" lon="4.45325">
        <ele>1034</ele>
        <time>2011-01-20T10:55:47Z</time>
      </trkpt>
      <trkpt lat="45.36496" lon="4.45326">
        <ele>1034</ele>
        <time>2011-01-20T10:55:53Z</time>
      </trkpt>
      <trkpt lat="45.36505" lon="4.45328">
        <ele>1033</ele>
        <time>2011-01-20T10:55:59Z</time>
      </trkpt>
      <trkpt lat="45.36506" lon="4.45328">
        <ele>1033</ele>
        <time>2011-01-20T10:56:00Z</time>
      </trkpt>
      <trkpt lat="45.36521" lon="4.45329">
        <ele>1033</ele>
        <time>2011-01-20T10:56:11Z</time>
      </trkpt>
      <trkpt lat="45.36529" lon="4.4533">
        <ele>1033</ele>
        <time>2011-01-20T10:56:17Z</time>
      </trkpt>
      <trkpt lat="45.36537" lon="4.4533">
        <ele>1033</ele>
        <time>2011-01-20T10:56:23Z</time>
      </trkpt>
      <trkpt lat="45.36545" lon="4.45332">
        <ele>1033</ele>
        <time>2011-01-20T10:56:29Z</time>
      </trkpt>
      <trkpt lat="45.36553" lon="4.45333">
        <ele>1033</ele>
        <time>2011-01-20T10:56:35Z</time>
      </trkpt>
      <trkpt lat="45.36561" lon="4.45334">
        <ele>1033</ele>
        <time>2011-01-20T10:56:41Z</time>
      </trkpt>
      <trkpt lat="45.3657" lon="4.45335">
        <ele>1033</ele>
        <time>2011-01-20T10:56:48Z</time>
      </trkpt>
      <trkpt lat="45.36578" lon="4.45336">
        <ele>1033</ele>
        <time>2011-01-20T10:56:55Z</time>
      </trkpt>
      <trkpt lat="45.36586" lon="4.45336">
        <ele>1033</ele>
        <time>2011-01-20T10:57:01Z</time>
      </trkpt>
      <trkpt lat="45.36587" lon="4.45337">
        <ele>1032</ele>
        <time>2011-01-20T10:57:02Z</time>
      </trkpt>
      <trkpt lat="45.36603" lon="4.45337">
        <ele>1031</ele>
        <time>2011-01-20T10:57:14Z</time>
      </trkpt>
      <trkpt lat="45.36611" lon="4.45338">
        <ele>1031</ele>
        <time>2011-01-20T10:57:20Z</time>
      </trkpt>
      <trkpt lat="45.36619" lon="4.45339">
        <ele>1031</ele>
        <time>2011-01-20T10:57:27Z</time>
      </trkpt>
      <trkpt lat="45.36628" lon="4.4534">
        <ele>1030</ele>
        <time>2011-01-20T10:57:33Z</time>
      </trkpt>
      <trkpt lat="45.36635" lon="4.45341">
        <ele>1030</ele>
        <time>2011-01-20T10:57:39Z</time>
      </trkpt>
      <trkpt lat="45.36644" lon="4.45343">
        <ele>1030</ele>
        <time>2011-01-20T10:57:45Z</time>
      </trkpt>
      <trkpt lat="45.36652" lon="4.45343">
        <ele>1030</ele>
        <time>2011-01-20T10:57:51Z</time>
      </trkpt>
      <trkpt lat="45.3666" lon="4.45343">
        <ele>1029</ele>
        <time>2011-01-20T10:57:56Z</time>
      </trkpt>
      <trkpt lat="45.36668" lon="4.45344">
        <ele>1029</ele>
        <time>2011-01-20T10:58:02Z</time>
      </trkpt>
      <trkpt lat="45.3667" lon="4.45344">
        <ele>1029</ele>
        <time>2011-01-20T10:58:03Z</time>
      </trkpt>
      <trkpt lat="45.36685" lon="4.45344">
        <ele>1029</ele>
        <time>2011-01-20T10:58:15Z</time>
      </trkpt>
      <trkpt lat="45.36693" lon="4.45343">
        <ele>1029</ele>
        <time>2011-01-20T10:58:21Z</time>
      </trkpt>
      <trkpt lat="45.36702" lon="4.45343">
        <ele>1029</ele>
        <time>2011-01-20T10:58:27Z</time>
      </trkpt>
      <trkpt lat="45.3671" lon="4.45341">
        <ele>1029</ele>
        <time>2011-01-20T10:58:33Z</time>
      </trkpt>
      <trkpt lat="45.36718" lon="4.45338">
        <ele>1029</ele>
        <time>2011-01-20T10:58:39Z</time>
      </trkpt>
      <trkpt lat="45.36726" lon="4.45335">
        <ele>1029</ele>
        <time>2011-01-20T10:58:45Z</time>
      </trkpt>
      <trkpt lat="45.36734" lon="4.45332">
        <ele>1028</ele>
        <time>2011-01-20T10:58:51Z</time>
      </trkpt>
      <trkpt lat="45.36742" lon="4.45329">
        <ele>1029</ele>
        <time>2011-01-20T10:58:58Z</time>
      </trkpt>
      <trkpt lat="45.3675" lon="4.45335">
        <ele>1029</ele>
        <time>2011-01-20T10:59:05Z</time>
      </trkpt>
      <trkpt lat="45.36751" lon="4.45336">
        <ele>1030</ele>
        <time>2011-01-20T10:59:06Z</time>
      </trkpt>
      <trkpt lat="45.36759" lon="4.45355">
        <ele>1032</ele>
        <time>2011-01-20T10:59:19Z</time>
      </trkpt>
      <trkpt lat="45.36767" lon="4.45358">
        <ele>1033</ele>
        <time>2011-01-20T10:59:47Z</time>
      </trkpt>
      <trkpt lat="45.36775" lon="4.45358">
        <ele>1033</ele>
        <time>2011-01-20T10:59:54Z</time>
      </trkpt>
      <trkpt lat="45.36783" lon="4.45358">
        <ele>1034</ele>
        <time>2011-01-20T11:00:02Z</time>
      </trkpt>
      <trkpt lat="45.36791" lon="4.45356">
        <ele>1034</ele>
        <time>2011-01-20T11:00:09Z</time>
      </trkpt>
      <trkpt lat="45.36792" lon="4.45355">
        <ele>1034</ele>
        <time>2011-01-20T11:00:10Z</time>
      </trkpt>
      <trkpt lat="45.36807" lon="4.45351">
        <ele>1035</ele>
        <time>2011-01-20T11:00:21Z</time>
      </trkpt>
      <trkpt lat="45.36815" lon="4.45347">
        <ele>1035</ele>
        <time>2011-01-20T11:00:27Z</time>
      </trkpt>
      <trkpt lat="45.36823" lon="4.45342">
        <ele>1036</ele>
        <time>2011-01-20T11:00:34Z</time>
      </trkpt>
      <trkpt lat="45.36831" lon="4.45337">
        <ele>1037</ele>
        <time>2011-01-20T11:00:41Z</time>
      </trkpt>
      <trkpt lat="45.36839" lon="4.45334">
        <ele>1039</ele>
        <time>2011-01-20T11:00:48Z</time>
      </trkpt>
      <trkpt lat="45.36847" lon="4.45329">
        <ele>1038</ele>
        <time>2011-01-20T11:00:55Z</time>
      </trkpt>
      <trkpt lat="45.36854" lon="4.45322">
        <ele>1039</ele>
        <time>2011-01-20T11:01:01Z</time>
      </trkpt>
      <trkpt lat="45.3686" lon="4.45315">
        <ele>1039</ele>
        <time>2011-01-20T11:01:08Z</time>
      </trkpt>
      <trkpt lat="45.36866" lon="4.45306">
        <ele>1040</ele>
        <time>2011-01-20T11:01:14Z</time>
      </trkpt>
      <trkpt lat="45.36868" lon="4.45306">
        <ele>1040</ele>
        <time>2011-01-20T11:01:15Z</time>
      </trkpt>
      <trkpt lat="45.36882" lon="4.45298">
        <ele>1040</ele>
        <time>2011-01-20T11:01:27Z</time>
      </trkpt>
      <trkpt lat="45.36888" lon="4.4529">
        <ele>1040</ele>
        <time>2011-01-20T11:01:33Z</time>
      </trkpt>
      <trkpt lat="45.36894" lon="4.45281">
        <ele>1040</ele>
        <time>2011-01-20T11:01:39Z</time>
      </trkpt>
      <trkpt lat="45.369" lon="4.45273">
        <ele>1041</ele>
        <time>2011-01-20T11:01:45Z</time>
      </trkpt>
      <trkpt lat="45.36906" lon="4.45265">
        <ele>1041</ele>
        <time>2011-01-20T11:01:51Z</time>
      </trkpt>
      <trkpt lat="45.36912" lon="4.45257">
        <ele>1041</ele>
        <time>2011-01-20T11:01:58Z</time>
      </trkpt>
      <trkpt lat="45.36919" lon="4.45249">
        <ele>1042</ele>
        <time>2011-01-20T11:02:04Z</time>
      </trkpt>
      <trkpt lat="45.36925" lon="4.4524">
        <ele>1042</ele>
        <time>2011-01-20T11:02:11Z</time>
      </trkpt>
      <trkpt lat="45.36932" lon="4.45233">
        <ele>1042</ele>
        <time>2011-01-20T11:02:17Z</time>
      </trkpt>
      <trkpt lat="45.36932" lon="4.45232">
        <ele>1042</ele>
        <time>2011-01-20T11:02:18Z</time>
      </trkpt>
      <trkpt lat="45.36948" lon="4.45222">
        <ele>1042</ele>
        <time>2011-01-20T11:02:31Z</time>
      </trkpt>
      <trkpt lat="45.36954" lon="4.45216">
        <ele>1042</ele>
        <time>2011-01-20T11:02:37Z</time>
      </trkpt>
      <trkpt lat="45.36961" lon="4.45209">
        <ele>1042</ele>
        <time>2011-01-20T11:02:43Z</time>
      </trkpt>
      <trkpt lat="45.36969" lon="4.45207">
        <ele>1042</ele>
        <time>2011-01-20T11:02:50Z</time>
      </trkpt>
      <trkpt lat="45.36978" lon="4.45205">
        <ele>1043</ele>
        <time>2011-01-20T11:02:57Z</time>
      </trkpt>
      <trkpt lat="45.36986" lon="4.45204">
        <ele>1043</ele>
        <time>2011-01-20T11:03:03Z</time>
      </trkpt>
      <trkpt lat="45.36993" lon="4.45198">
        <ele>1043</ele>
        <time>2011-01-20T11:03:09Z</time>
      </trkpt>
      <trkpt lat="45.37001" lon="4.4519">
        <ele>1046</ele>
        <time>2011-01-20T11:03:15Z</time>
      </trkpt>
      <trkpt lat="45.37007" lon="4.45184">
        <ele>1046</ele>
        <time>2011-01-20T11:03:21Z</time>
      </trkpt>
      <trkpt lat="45.37009" lon="4.45181">
        <ele>1045</ele>
        <time>2011-01-20T11:03:22Z</time>
      </trkpt>
      <trkpt lat="45.37021" lon="4.45172">
        <ele>1046</ele>
        <time>2011-01-20T11:03:33Z</time>
      </trkpt>
      <trkpt lat="45.37029" lon="4.45168">
        <ele>1047</ele>
        <time>2011-01-20T11:03:40Z</time>
      </trkpt>
      <trkpt lat="45.37036" lon="4.45161">
        <ele>1042</ele>
        <time>2011-01-20T11:03:47Z</time>
      </trkpt>
      <trkpt lat="45.37044" lon="4.45158">
        <ele>1043</ele>
        <time>2011-01-20T11:03:54Z</time>
      </trkpt>
      <trkpt lat="45.3705" lon="4.4515">
        <ele>1043</ele>
        <time>2011-01-20T11:04:01Z</time>
      </trkpt>
      <trkpt lat="45.37057" lon="4.45143">
        <ele>1043</ele>
        <time>2011-01-20T11:04:07Z</time>
      </trkpt>
      <trkpt lat="45.37065" lon="4.45138">
        <ele>1043</ele>
        <time>2011-01-20T11:04:14Z</time>
      </trkpt>
      <trkpt lat="45.37073" lon="4.45132">
        <ele>1043</ele>
        <time>2011-01-20T11:04:21Z</time>
      </trkpt>
      <trkpt lat="45.37081" lon="4.45126">
        <ele>1043</ele>
        <time>2011-01-20T11:04:28Z</time>
      </trkpt>
      <trkpt lat="45.37081" lon="4.45125">
        <ele>1043</ele>
        <time>2011-01-20T11:04:29Z</time>
      </trkpt>
      <trkpt lat="45.37095" lon="4.45116">
        <ele>1045</ele>
        <time>2011-01-20T11:04:41Z</time>
      </trkpt>
      <trkpt lat="45.37102" lon="4.45111">
        <ele>1044</ele>
        <time>2011-01-20T11:04:48Z</time>
      </trkpt>
      <trkpt lat="45.3711" lon="4.45106">
        <ele>1044</ele>
        <time>2011-01-20T11:04:54Z</time>
      </trkpt>
      <trkpt lat="45.37117" lon="4.451">
        <ele>1044</ele>
        <time>2011-01-20T11:05:00Z</time>
      </trkpt>
      <trkpt lat="45.37125" lon="4.45095">
        <ele>1045</ele>
        <time>2011-01-20T11:05:06Z</time>
      </trkpt>
      <trkpt lat="45.37129" lon="4.45085">
        <ele>1044</ele>
        <time>2011-01-20T11:05:12Z</time>
      </trkpt>
      <trkpt lat="45.37135" lon="4.45078">
        <ele>1039</ele>
        <time>2011-01-20T11:05:18Z</time>
      </trkpt>
      <trkpt lat="45.37142" lon="4.45071">
        <ele>1039</ele>
        <time>2011-01-20T11:05:24Z</time>
      </trkpt>
      <trkpt lat="45.3715" lon="4.45065">
        <ele>1039</ele>
        <time>2011-01-20T11:05:30Z</time>
      </trkpt>
      <trkpt lat="45.37151" lon="4.45064">
        <ele>1039</ele>
        <time>2011-01-20T11:05:31Z</time>
      </trkpt>
      <trkpt lat="45.37166" lon="4.45055">
        <ele>1038</ele>
        <time>2011-01-20T11:05:43Z</time>
      </trkpt>
      <trkpt lat="45.37174" lon="4.45051">
        <ele>1039</ele>
        <time>2011-01-20T11:05:50Z</time>
      </trkpt>
      <trkpt lat="45.37181" lon="4.45046">
        <ele>1038</ele>
        <time>2011-01-20T11:05:56Z</time>
      </trkpt>
      <trkpt lat="45.37188" lon="4.45038">
        <ele>1038</ele>
        <time>2011-01-20T11:06:03Z</time>
      </trkpt>
      <trkpt lat="45.37195" lon="4.45032">
        <ele>1037</ele>
        <time>2011-01-20T11:06:09Z</time>
      </trkpt>
      <trkpt lat="45.37203" lon="4.45029">
        <ele>1037</ele>
        <time>2011-01-20T11:06:15Z</time>
      </trkpt>
      <trkpt lat="45.37211" lon="4.45024">
        <ele>1037</ele>
        <time>2011-01-20T11:06:21Z</time>
      </trkpt>
      <trkpt lat="45.37218" lon="4.4502">
        <ele>1037</ele>
        <time>2011-01-20T11:06:27Z</time>
      </trkpt>
      <trkpt lat="45.37224" lon="4.45012">
        <ele>1037</ele>
        <time>2011-01-20T11:06:33Z</time>
      </trkpt>
      <trkpt lat="45.37225" lon="4.45011">
        <ele>1037</ele>
        <time>2011-01-20T11:06:34Z</time>
      </trkpt>
      <trkpt lat="45.37238" lon="4.45">
        <ele>1036</ele>
        <time>2011-01-20T11:06:45Z</time>
      </trkpt>
      <trkpt lat="45.37246" lon="4.44996">
        <ele>1033</ele>
        <time>2011-01-20T11:06:51Z</time>
      </trkpt>
      <trkpt lat="45.37253" lon="4.4499">
        <ele>1033</ele>
        <time>2011-01-20T11:06:57Z</time>
      </trkpt>
      <trkpt lat="45.3726" lon="4.44985">
        <ele>1031</ele>
        <time>2011-01-20T11:07:03Z</time>
      </trkpt>
      <trkpt lat="45.37264" lon="4.44974">
        <ele>1030</ele>
        <time>2011-01-20T11:07:08Z</time>
      </trkpt>
      <trkpt lat="45.37271" lon="4.44968">
        <ele>1029</ele>
        <time>2011-01-20T11:07:14Z</time>
      </trkpt>
      <trkpt lat="45.37279" lon="4.44963">
        <ele>1029</ele>
        <time>2011-01-20T11:07:21Z</time>
      </trkpt>
      <trkpt lat="45.37286" lon="4.44959">
        <ele>1028</ele>
        <time>2011-01-20T11:07:27Z</time>
      </trkpt>
      <trkpt lat="45.37294" lon="4.44953">
        <ele>1028</ele>
        <time>2011-01-20T11:07:33Z</time>
      </trkpt>
      <trkpt lat="45.373" lon="4.44947">
        <ele>1028</ele>
        <time>2011-01-20T11:07:39Z</time>
      </trkpt>
      <trkpt lat="45.37301" lon="4.44946">
        <ele>1027</ele>
        <time>2011-01-20T11:07:40Z</time>
      </trkpt>
      <trkpt lat="45.37315" lon="4.44935">
        <ele>1027</ele>
        <time>2011-01-20T11:07:53Z</time>
      </trkpt>
      <trkpt lat="45.37322" lon="4.44928">
        <ele>1026</ele>
        <time>2011-01-20T11:07:59Z</time>
      </trkpt>
      <trkpt lat="45.37327" lon="4.4492">
        <ele>1025</ele>
        <time>2011-01-20T11:08:05Z</time>
      </trkpt>
      <trkpt lat="45.37335" lon="4.44916">
        <ele>1024</ele>
        <time>2011-01-20T11:08:13Z</time>
      </trkpt>
      <trkpt lat="45.37344" lon="4.44914">
        <ele>1023</ele>
        <time>2011-01-20T11:08:21Z</time>
      </trkpt>
      <trkpt lat="45.37352" lon="4.44909">
        <ele>1022</ele>
        <time>2011-01-20T11:08:28Z</time>
      </trkpt>
      <trkpt lat="45.3736" lon="4.44906">
        <ele>1022</ele>
        <time>2011-01-20T11:08:35Z</time>
      </trkpt>
      <trkpt lat="45.37368" lon="4.44903">
        <ele>1022</ele>
        <time>2011-01-20T11:08:41Z</time>
      </trkpt>
      <trkpt lat="45.3737" lon="4.44903">
        <ele>1022</ele>
        <time>2011-01-20T11:08:42Z</time>
      </trkpt>
    </trkseg>
  </trk>
</gpx>